<?xml version='1.0' encoding='UTF-8'?><gpx version="1.1" creator="JPX - https://github.com/jenetics/jpx" xmlns="http://www.topografix.com/GPX/1/1"><trk><trkseg><trkpt lat="44.842529600078834" lon="8.932904440119826"><ele>236.00000000000003</ele><time>2026-04-11T10:34:13Z</time></trkpt><trkpt lat="44.84238694435313" lon="8.93297296146942"><ele>236.0</ele><time>2026-04-11T10:34:15Z</time></trkpt><trkpt lat="44.84231549126726" lon="8.93302277571343"><ele>236.0</ele><time>2026-04-11T10:34:16Z</time></trkpt><trkpt lat="44.842243215350734" lon="8.93306566628397"><ele>236.0</ele><time>2026-04-11T10:34:17Z</time></trkpt><trkpt lat="44.84218000307384" lon="8.933104145052823"><ele>236.00000000000003</ele><time>2026-04-11T10:34:18Z</time></trkpt><trkpt lat="44.842125401475585" lon="8.933149184561913"><ele>236.0</ele><time>2026-04-11T10:34:19Z</time></trkpt><trkpt lat="44.84203083816313" lon="8.933226987928956"><ele>236.0</ele><time>2026-04-11T10:34:21Z</time></trkpt><trkpt lat="44.84194757134803" lon="8.933303174989696"><ele>236.00000000000003</ele><time>2026-04-11T10:34:23Z</time></trkpt><trkpt lat="44.84187199408016" lon="8.933370774446415"><ele>236.00000000000003</ele><time>2026-04-11T10:34:25Z</time></trkpt><trkpt lat="44.84179891803893" lon="8.933438470910303"><ele>236.0</ele><time>2026-04-11T10:34:27Z</time></trkpt><trkpt lat="44.84173181057046" lon="8.933508875530482"><ele>236.0</ele><time>2026-04-11T10:34:29Z</time></trkpt><trkpt lat="44.84162771266122" lon="8.933595101760774"><ele>235.8</ele><time>2026-04-11T10:34:31Z</time></trkpt><trkpt lat="44.84155268904347" lon="8.93366475945205"><ele>235.60000000000002</ele><time>2026-04-11T10:34:32Z</time></trkpt><trkpt lat="44.84146401846134" lon="8.933751063944406"><ele>235.4</ele><time>2026-04-11T10:34:33Z</time></trkpt><trkpt lat="44.84138314791923" lon="8.933834629629565"><ele>235.2</ele><time>2026-04-11T10:34:34Z</time></trkpt><trkpt lat="44.84129198221737" lon="8.933925000076771"><ele>235.0</ele><time>2026-04-11T10:34:35Z</time></trkpt><trkpt lat="44.841182984901124" lon="8.934027732808412"><ele>235.0</ele><time>2026-04-11T10:34:36Z</time></trkpt><trkpt lat="44.841093038864884" lon="8.934117921390504"><ele>235.0</ele><time>2026-04-11T10:34:37Z</time></trkpt><trkpt lat="44.840997777234634" lon="8.934213040904787"><ele>235.0</ele><time>2026-04-11T10:34:38Z</time></trkpt><trkpt lat="44.84088198892158" lon="8.934318216679591"><ele>235.0</ele><time>2026-04-11T10:34:39Z</time></trkpt><trkpt lat="44.84076089730476" lon="8.93442049154765"><ele>233.33333333333331</ele><time>2026-04-11T10:34:40Z</time></trkpt><trkpt lat="44.84063136494922" lon="8.93452310813242"><ele>231.66666666666669</ele><time>2026-04-11T10:34:41Z</time></trkpt><trkpt lat="44.84049536144" lon="8.934622249395732"><ele>230.0</ele><time>2026-04-11T10:34:42Z</time></trkpt><trkpt lat="44.84034725600879" lon="8.934712653616321"><ele>230.0</ele><time>2026-04-11T10:34:43Z</time></trkpt><trkpt lat="44.84020111260093" lon="8.934804327581224"><ele>230.0</ele><time>2026-04-11T10:34:44Z</time></trkpt><trkpt lat="44.8400549719155" lon="8.934904341028792"><ele>230.0</ele><time>2026-04-11T10:34:45Z</time></trkpt><trkpt lat="44.83990752442424" lon="8.9350031413353"><ele>228.66666666666669</ele><time>2026-04-11T10:34:46Z</time></trkpt><trkpt lat="44.83976008510314" lon="8.935106338928213"><ele>227.33333333333331</ele><time>2026-04-11T10:34:47Z</time></trkpt><trkpt lat="44.8396186655527" lon="8.935205882308836"><ele>226.0</ele><time>2026-04-11T10:34:48Z</time></trkpt><trkpt lat="44.83948275245719" lon="8.935294597300569"><ele>226.0</ele><time>2026-04-11T10:34:49Z</time></trkpt><trkpt lat="44.839345520395995" lon="8.935381976390683"><ele>226.0</ele><time>2026-04-11T10:34:50Z</time></trkpt><trkpt lat="44.83921466387814" lon="8.935467684314798"><ele>226.0</ele><time>2026-04-11T10:34:51Z</time></trkpt><trkpt lat="44.83908168138854" lon="8.9355500824723"><ele>226.0</ele><time>2026-04-11T10:34:52Z</time></trkpt><trkpt lat="44.83895682894006" lon="8.935638418468066"><ele>225.75</ele><time>2026-04-11T10:34:53Z</time></trkpt><trkpt lat="44.838836218836086" lon="8.935735939607726"><ele>225.5</ele><time>2026-04-11T10:34:54Z</time></trkpt><trkpt lat="44.838718579408486" lon="8.93584957172052"><ele>225.25</ele><time>2026-04-11T10:34:55Z</time></trkpt><trkpt lat="44.83861281496498" lon="8.935974576374473"><ele>225.0</ele><time>2026-04-11T10:34:56Z</time></trkpt><trkpt lat="44.838512402698164" lon="8.936108993418134"><ele>227.5</ele><time>2026-04-11T10:34:57Z</time></trkpt><trkpt lat="44.83841334725461" lon="8.936255533040521"><ele>230.0</ele><time>2026-04-11T10:34:58Z</time></trkpt><trkpt lat="44.838307345064834" lon="8.936407289020869"><ele>232.5</ele><time>2026-04-11T10:34:59Z</time></trkpt><trkpt lat="44.83819852496973" lon="8.936559629949297"><ele>235.0</ele><time>2026-04-11T10:35:00Z</time></trkpt><trkpt lat="44.83809365279412" lon="8.936718368078704"><ele>233.75</ele><time>2026-04-11T10:35:01Z</time></trkpt><trkpt lat="44.83799349069141" lon="8.936870069255539"><ele>232.5</ele><time>2026-04-11T10:35:02Z</time></trkpt><trkpt lat="44.83789808346501" lon="8.9370337973211"><ele>231.25</ele><time>2026-04-11T10:35:03Z</time></trkpt><trkpt lat="44.83779438594804" lon="8.93718479416044"><ele>230.0</ele><time>2026-04-11T10:35:04Z</time></trkpt><trkpt lat="44.83768508026124" lon="8.93735754754729"><ele>230.33333333333334</ele><time>2026-04-11T10:35:05Z</time></trkpt><trkpt lat="44.83757067209489" lon="8.937535186020126"><ele>230.66666666666669</ele><time>2026-04-11T10:35:06Z</time></trkpt><trkpt lat="44.83745497945876" lon="8.937717159765663"><ele>231.0</ele><time>2026-04-11T10:35:07Z</time></trkpt><trkpt lat="44.83733418170521" lon="8.937910478965753"><ele>231.0</ele><time>2026-04-11T10:35:08Z</time></trkpt><trkpt lat="44.83721574853452" lon="8.938103438160761"><ele>231.0</ele><time>2026-04-11T10:35:09Z</time></trkpt><trkpt lat="44.837099094558546" lon="8.938290264449854"><ele>231.0</ele><time>2026-04-11T10:35:10Z</time></trkpt><trkpt lat="44.83698028282192" lon="8.938484575252682"><ele>231.66666666666669</ele><time>2026-04-11T10:35:11Z</time></trkpt><trkpt lat="44.8368581150816" lon="8.93868032920931"><ele>232.33333333333334</ele><time>2026-04-11T10:35:12Z</time></trkpt><trkpt lat="44.836739812180014" lon="8.938866294225319"><ele>233.0</ele><time>2026-04-11T10:35:13Z</time></trkpt><trkpt lat="44.83662734882094" lon="8.939050287282416"><ele>232.33333333333334</ele><time>2026-04-11T10:35:14Z</time></trkpt><trkpt lat="44.83651866085016" lon="8.939234676840478"><ele>231.66666666666669</ele><time>2026-04-11T10:35:15Z</time></trkpt><trkpt lat="44.83641968609738" lon="8.939416850419327"><ele>231.0</ele><time>2026-04-11T10:35:16Z</time></trkpt><trkpt lat="44.8363263131739" lon="8.939595323598155"><ele>231.0</ele><time>2026-04-11T10:35:17Z</time></trkpt><trkpt lat="44.83624316070423" lon="8.939763759814756"><ele>231.0</ele><time>2026-04-11T10:35:18Z</time></trkpt><trkpt lat="44.83616252540623" lon="8.939914423269107"><ele>231.0</ele><time>2026-04-11T10:35:19Z</time></trkpt><trkpt lat="44.836078074748016" lon="8.940047406413045"><ele>231.0</ele><time>2026-04-11T10:35:20Z</time></trkpt><trkpt lat="44.835974415711284" lon="8.94016507364957"><ele>233.0</ele><time>2026-04-11T10:35:21Z</time></trkpt><trkpt lat="44.835854835989956" lon="8.940271767094057"><ele>235.0</ele><time>2026-04-11T10:35:22Z</time></trkpt><trkpt lat="44.83572564413208" lon="8.94036506922893"><ele>237.0</ele><time>2026-04-11T10:35:23Z</time></trkpt><trkpt lat="44.83558636373551" lon="8.940432864316229"><ele>239.0</ele><time>2026-04-11T10:35:24Z</time></trkpt><trkpt lat="44.835443227815134" lon="8.940501054884802"><ele>239.0</ele><time>2026-04-11T10:35:25Z</time></trkpt><trkpt lat="44.835296989158124" lon="8.940581858178247"><ele>239.0</ele><time>2026-04-11T10:35:26Z</time></trkpt><trkpt lat="44.83515859097409" lon="8.940669200971014"><ele>239.0</ele><time>2026-04-11T10:35:27Z</time></trkpt><trkpt lat="44.83501524684021" lon="8.940765751577086"><ele>240.66666666666669</ele><time>2026-04-11T10:35:28Z</time></trkpt><trkpt lat="44.83486770967474" lon="8.940869541017557"><ele>242.33333333333331</ele><time>2026-04-11T10:35:29Z</time></trkpt><trkpt lat="44.83471845463496" lon="8.940974130616002"><ele>244.0</ele><time>2026-04-11T10:35:30Z</time></trkpt><trkpt lat="44.8345656202642" lon="8.941079811870084"><ele>244.66666666666666</ele><time>2026-04-11T10:35:31Z</time></trkpt><trkpt lat="44.834411625144874" lon="8.941185796666309"><ele>245.33333333333331</ele><time>2026-04-11T10:35:32Z</time></trkpt><trkpt lat="44.834255023981214" lon="8.941295343446763"><ele>246.0</ele><time>2026-04-11T10:35:33Z</time></trkpt><trkpt lat="44.83409589953541" lon="8.941404909308025"><ele>246.0</ele><time>2026-04-11T10:35:34Z</time></trkpt><trkpt lat="44.83393617867968" lon="8.941516169682643"><ele>246.0</ele><time>2026-04-11T10:35:35Z</time></trkpt><trkpt lat="44.833784252268856" lon="8.941620159882726"><ele>246.0</ele><time>2026-04-11T10:35:36Z</time></trkpt><trkpt lat="44.83364795797633" lon="8.941714073202895"><ele>245.5</ele><time>2026-04-11T10:35:37Z</time></trkpt><trkpt lat="44.83352310616607" lon="8.941802409320701"><ele>245.0</ele><time>2026-04-11T10:35:38Z</time></trkpt><trkpt lat="44.833407564621716" lon="8.94188541945106"><ele>244.5</ele><time>2026-04-11T10:35:39Z</time></trkpt><trkpt lat="44.833296452361346" lon="8.941959070656322"><ele>244.0</ele><time>2026-04-11T10:35:40Z</time></trkpt><trkpt lat="44.83317840824841" lon="8.94202161367896"><ele>246.25</ele><time>2026-04-11T10:35:41Z</time></trkpt><trkpt lat="44.83304954768753" lon="8.94207509953435"><ele>248.5</ele><time>2026-04-11T10:35:42Z</time></trkpt><trkpt lat="44.83292027562361" lon="8.942122379932597"><ele>250.75</ele><time>2026-04-11T10:35:43Z</time></trkpt><trkpt lat="44.8327886425553" lon="8.942159851922991"><ele>253.0</ele><time>2026-04-11T10:35:44Z</time></trkpt><trkpt lat="44.832652920910775" lon="8.942199620803109"><ele>255.0</ele><time>2026-04-11T10:35:45Z</time></trkpt><trkpt lat="44.832505700433146" lon="8.942243291934997"><ele>257.0</ele><time>2026-04-11T10:35:46Z</time></trkpt><trkpt lat="44.83235059916919" lon="8.942279153296097"><ele>259.0</ele><time>2026-04-11T10:35:47Z</time></trkpt><trkpt lat="44.8321951018727" lon="8.942296422940277"><ele>259.0</ele><time>2026-04-11T10:35:48Z</time></trkpt><trkpt lat="44.83205245296537" lon="8.942306869819639"><ele>259.0</ele><time>2026-04-11T10:35:49Z</time></trkpt><trkpt lat="44.831928275723364" lon="8.942313708395096"><ele>259.0</ele><time>2026-04-11T10:35:50Z</time></trkpt><trkpt lat="44.83180934955195" lon="8.942324417967056"><ele>259.0</ele><time>2026-04-11T10:35:51Z</time></trkpt><trkpt lat="44.83169400455302" lon="8.942342236231715"><ele>259.0</ele><time>2026-04-11T10:35:52Z</time></trkpt><trkpt lat="44.831588820298485" lon="8.942374038970975"><ele>259.0</ele><time>2026-04-11T10:35:53Z</time></trkpt><trkpt lat="44.83149182952362" lon="8.942435561377179"><ele>259.0</ele><time>2026-04-11T10:35:54Z</time></trkpt><trkpt lat="44.831399554700795" lon="8.942534475548877"><ele>259.0</ele><time>2026-04-11T10:35:55Z</time></trkpt><trkpt lat="44.831320580139185" lon="8.94267509569578"><ele>259.0</ele><time>2026-04-11T10:35:56Z</time></trkpt><trkpt lat="44.83125310121591" lon="8.9428342534796"><ele>259.0</ele><time>2026-04-11T10:35:57Z</time></trkpt><trkpt lat="44.83120037534206" lon="8.942978804197343"><ele>259.0</ele><time>2026-04-11T10:35:58Z</time></trkpt><trkpt lat="44.83115044060234" lon="8.943101366776135"><ele>259.0</ele><time>2026-04-11T10:35:59Z</time></trkpt><trkpt lat="44.83108244339436" lon="8.943159858417308"><ele>259.0</ele><time>2026-04-11T10:36:00Z</time></trkpt><trkpt lat="44.83099692131117" lon="8.94317589887396"><ele>261.0</ele><time>2026-04-11T10:36:01Z</time></trkpt><trkpt lat="44.83089356119543" lon="8.943167591882402"><ele>263.0</ele><time>2026-04-11T10:36:02Z</time></trkpt><trkpt lat="44.83079190374226" lon="8.94310859039463"><ele>265.0</ele><time>2026-04-11T10:36:03Z</time></trkpt><trkpt lat="44.83069603959702" lon="8.943045199034508"><ele>267.0</ele><time>2026-04-11T10:36:04Z</time></trkpt><trkpt lat="44.83062222428671" lon="8.942939698422737"><ele>269.0</ele><time>2026-04-11T10:36:05Z</time></trkpt><trkpt lat="44.83054005481308" lon="8.942821951322212"><ele>269.0</ele><time>2026-04-11T10:36:06Z</time></trkpt><trkpt lat="44.830441963054845" lon="8.942725288813918"><ele>269.0</ele><time>2026-04-11T10:36:07Z</time></trkpt><trkpt lat="44.8303444906823" lon="8.942652069303378"><ele>269.0</ele><time>2026-04-11T10:36:08Z</time></trkpt><trkpt lat="44.83023910253786" lon="8.942612859885207"><ele>269.0</ele><time>2026-04-11T10:36:09Z</time></trkpt><trkpt lat="44.83012496901353" lon="8.942599770939688"><ele>270.0</ele><time>2026-04-11T10:36:10Z</time></trkpt><trkpt lat="44.83001291356348" lon="8.94261802628028"><ele>271.0</ele><time>2026-04-11T10:36:11Z</time></trkpt><trkpt lat="44.82990668075104" lon="8.94268228562508"><ele>272.0</ele><time>2026-04-11T10:36:12Z</time></trkpt><trkpt lat="44.82979936171337" lon="8.94278031608434"><ele>273.0</ele><time>2026-04-11T10:36:13Z</time></trkpt><trkpt lat="44.82968426550256" lon="8.942884648614637"><ele>273.0</ele><time>2026-04-11T10:36:14Z</time></trkpt><trkpt lat="44.829559823572374" lon="8.942961207976328"><ele>273.0</ele><time>2026-04-11T10:36:15Z</time></trkpt><trkpt lat="44.82944293561218" lon="8.943028830217392"><ele>273.0</ele><time>2026-04-11T10:36:16Z</time></trkpt><trkpt lat="44.82933380804055" lon="8.943122457967721"><ele>273.0</ele><time>2026-04-11T10:36:17Z</time></trkpt><trkpt lat="44.82922206815373" lon="8.94323620843213"><ele>274.5</ele><time>2026-04-11T10:36:18Z</time></trkpt><trkpt lat="44.82911515163136" lon="8.943368316512638"><ele>276.0</ele><time>2026-04-11T10:36:19Z</time></trkpt><trkpt lat="44.8290152229901" lon="8.943501730344282"><ele>277.5</ele><time>2026-04-11T10:36:20Z</time></trkpt><trkpt lat="44.82892563296545" lon="8.943636836519726"><ele>279.0</ele><time>2026-04-11T10:36:21Z</time></trkpt><trkpt lat="44.82885511770205" lon="8.943773912002191"><ele>279.0</ele><time>2026-04-11T10:36:22Z</time></trkpt><trkpt lat="44.82879829593738" lon="8.943923840828665"><ele>279.0</ele><time>2026-04-11T10:36:23Z</time></trkpt><trkpt lat="44.82874996752028" lon="8.944096146807576"><ele>279.0</ele><time>2026-04-11T10:36:24Z</time></trkpt><trkpt lat="44.82871242004428" lon="8.944277225626424"><ele>279.0</ele><time>2026-04-11T10:36:25Z</time></trkpt><trkpt lat="44.828681958616784" lon="8.944440265805818"><ele>279.8</ele><time>2026-04-11T10:36:26Z</time></trkpt><trkpt lat="44.828644514926445" lon="8.9445763884369"><ele>280.59999999999997</ele><time>2026-04-11T10:36:27Z</time></trkpt><trkpt lat="44.82859441247203" lon="8.944684401874127"><ele>281.4</ele><time>2026-04-11T10:36:28Z</time></trkpt><trkpt lat="44.82852413044864" lon="8.944771958906543"><ele>282.2</ele><time>2026-04-11T10:36:29Z</time></trkpt><trkpt lat="44.8284374459572" lon="8.944848096339424"><ele>283.0</ele><time>2026-04-11T10:36:30Z</time></trkpt><trkpt lat="44.828339431290374" lon="8.94491190847687"><ele>283.0</ele><time>2026-04-11T10:36:31Z</time></trkpt><trkpt lat="44.82823830458358" lon="8.944969421167626"><ele>283.0</ele><time>2026-04-11T10:36:32Z</time></trkpt><trkpt lat="44.82814122560105" lon="8.945050597885347"><ele>283.0</ele><time>2026-04-11T10:36:33Z</time></trkpt><trkpt lat="44.82805359938712" lon="8.945161889642318"><ele>283.0</ele><time>2026-04-11T10:36:34Z</time></trkpt><trkpt lat="44.82797150401899" lon="8.945292767658062"><ele>281.75</ele><time>2026-04-11T10:36:35Z</time></trkpt><trkpt lat="44.82789950446727" lon="8.945426232407613"><ele>280.5</ele><time>2026-04-11T10:36:36Z</time></trkpt><trkpt lat="44.82783141344338" lon="8.945569363462361"><ele>279.25</ele><time>2026-04-11T10:36:37Z</time></trkpt><trkpt lat="44.827769920091626" lon="8.945725607598062"><ele>278.0</ele><time>2026-04-11T10:36:38Z</time></trkpt><trkpt lat="44.82770658282881" lon="8.945887998143377"><ele>280.0</ele><time>2026-04-11T10:36:39Z</time></trkpt><trkpt lat="44.82764162175779" lon="8.946054943174365"><ele>282.0</ele><time>2026-04-11T10:36:40Z</time></trkpt><trkpt lat="44.82757351432211" lon="8.946218638622012"><ele>284.0</ele><time>2026-04-11T10:36:41Z</time></trkpt><trkpt lat="44.82750314344089" lon="8.946380436176558"><ele>286.0</ele><time>2026-04-11T10:36:42Z</time></trkpt><trkpt lat="44.82743523803339" lon="8.946541503608046"><ele>286.0</ele><time>2026-04-11T10:36:43Z</time></trkpt><trkpt lat="44.82737062508364" lon="8.946692736764845"><ele>286.0</ele><time>2026-04-11T10:36:44Z</time></trkpt><trkpt lat="44.82731001600885" lon="8.94682169331227"><ele>286.0</ele><time>2026-04-11T10:36:45Z</time></trkpt><trkpt lat="44.82723890929449" lon="8.946928273071041"><ele>286.0</ele><time>2026-04-11T10:36:46Z</time></trkpt><trkpt lat="44.827146179526416" lon="8.947025196454419"><ele>284.5</ele><time>2026-04-11T10:36:47Z</time></trkpt><trkpt lat="44.827036229206456" lon="8.947110197153547"><ele>283.0</ele><time>2026-04-11T10:36:48Z</time></trkpt><trkpt lat="44.826914959500265" lon="8.947176782453736"><ele>281.5</ele><time>2026-04-11T10:36:49Z</time></trkpt><trkpt lat="44.8267809975679" lon="8.94724702458166"><ele>280.0</ele><time>2026-04-11T10:36:50Z</time></trkpt><trkpt lat="44.82662986748168" lon="8.947328183148054"><ele>279.75</ele><time>2026-04-11T10:36:51Z</time></trkpt><trkpt lat="44.82648004564831" lon="8.947413672487341"><ele>279.5</ele><time>2026-04-11T10:36:52Z</time></trkpt><trkpt lat="44.82634627612031" lon="8.947484008390415"><ele>279.25</ele><time>2026-04-11T10:36:53Z</time></trkpt><trkpt lat="44.82622467213653" lon="8.947551027699063"><ele>279.0</ele><time>2026-04-11T10:36:54Z</time></trkpt><trkpt lat="44.82610293264343" lon="8.94761954693979"><ele>282.5</ele><time>2026-04-11T10:36:55Z</time></trkpt><trkpt lat="44.825969991223076" lon="8.947684525363519"><ele>286.0</ele><time>2026-04-11T10:36:56Z</time></trkpt><trkpt lat="44.82583433051301" lon="8.947758010298365"><ele>289.5</ele><time>2026-04-11T10:36:57Z</time></trkpt><trkpt lat="44.82571322049613" lon="8.947846677718157"><ele>293.0</ele><time>2026-04-11T10:36:58Z</time></trkpt><trkpt lat="44.82561751395609" lon="8.947957291890209"><ele>293.0</ele><time>2026-04-11T10:36:59Z</time></trkpt><trkpt lat="44.8255362753631" lon="8.948075721603967"><ele>293.0</ele><time>2026-04-11T10:37:00Z</time></trkpt><trkpt lat="44.825467960556345" lon="8.948200348755146"><ele>293.0</ele><time>2026-04-11T10:37:01Z</time></trkpt><trkpt lat="44.825398713723345" lon="8.948334455069825"><ele>293.0</ele><time>2026-04-11T10:37:02Z</time></trkpt><trkpt lat="44.82532335640009" lon="8.94847437191876"><ele>292.75</ele><time>2026-04-11T10:37:03Z</time></trkpt><trkpt lat="44.825250426952415" lon="8.948618872142827"><ele>292.5</ele><time>2026-04-11T10:37:04Z</time></trkpt><trkpt lat="44.825180512509306" lon="8.948763781497476"><ele>292.25</ele><time>2026-04-11T10:37:05Z</time></trkpt><trkpt lat="44.82511695962802" lon="8.948913956169969"><ele>292.0</ele><time>2026-04-11T10:37:06Z</time></trkpt><trkpt lat="44.82506100417268" lon="8.949068116143124"><ele>290.5</ele><time>2026-04-11T10:37:07Z</time></trkpt><trkpt lat="44.82500599304497" lon="8.949234398614333"><ele>289.0</ele><time>2026-04-11T10:37:08Z</time></trkpt><trkpt lat="44.82494923934852" lon="8.9494100112145"><ele>287.5</ele><time>2026-04-11T10:37:09Z</time></trkpt><trkpt lat="44.824891149628016" lon="8.949597343766008"><ele>286.0</ele><time>2026-04-11T10:37:10Z</time></trkpt><trkpt lat="44.824829391729054" lon="8.949791650852355"><ele>286.0</ele><time>2026-04-11T10:37:11Z</time></trkpt><trkpt lat="44.82476777188471" lon="8.949991417273298"><ele>286.0</ele><time>2026-04-11T10:37:12Z</time></trkpt><trkpt lat="44.824708747333524" lon="8.950194265639617"><ele>286.0</ele><time>2026-04-11T10:37:13Z</time></trkpt><trkpt lat="44.824650028247746" lon="8.950388217728488"><ele>285.5</ele><time>2026-04-11T10:37:14Z</time></trkpt><trkpt lat="44.82458894916625" lon="8.950560499807816"><ele>285.0</ele><time>2026-04-11T10:37:15Z</time></trkpt><trkpt lat="44.82454330466294" lon="8.950730334224541"><ele>284.5</ele><time>2026-04-11T10:37:16Z</time></trkpt><trkpt lat="44.82449883872008" lon="8.95090097633134"><ele>284.0</ele><time>2026-04-11T10:37:17Z</time></trkpt><trkpt lat="44.82445579970297" lon="8.951052188179741"><ele>283.75</ele><time>2026-04-11T10:37:18Z</time></trkpt><trkpt lat="44.82441274941212" lon="8.951199995259854"><ele>283.5</ele><time>2026-04-11T10:37:19Z</time></trkpt><trkpt lat="44.82436061191389" lon="8.951351016912946"><ele>283.25</ele><time>2026-04-11T10:37:20Z</time></trkpt><trkpt lat="44.82429010070265" lon="8.951490434761164"><ele>283.0</ele><time>2026-04-11T10:37:21Z</time></trkpt><trkpt lat="44.82420324331102" lon="8.951611229170885"><ele>286.5</ele><time>2026-04-11T10:37:22Z</time></trkpt><trkpt lat="44.8241040765101" lon="8.951720475016609"><ele>290.0</ele><time>2026-04-11T10:37:23Z</time></trkpt><trkpt lat="44.823994769829575" lon="8.951814380959744"><ele>293.5</ele><time>2026-04-11T10:37:24Z</time></trkpt><trkpt lat="44.82387689630653" lon="8.951896706150121"><ele>297.0</ele><time>2026-04-11T10:37:25Z</time></trkpt><trkpt lat="44.8237516209135" lon="8.951969868335599"><ele>297.0</ele><time>2026-04-11T10:37:26Z</time></trkpt><trkpt lat="44.82362719300093" lon="8.952041200729292"><ele>297.0</ele><time>2026-04-11T10:37:27Z</time></trkpt><trkpt lat="44.823512051297456" lon="8.952102259737801"><ele>297.0</ele><time>2026-04-11T10:37:28Z</time></trkpt><trkpt lat="44.82340351879281" lon="8.95213997787714"><ele>297.0</ele><time>2026-04-11T10:37:29Z</time></trkpt><trkpt lat="44.823296178285204" lon="8.952138336064671"><ele>298.8</ele><time>2026-04-11T10:37:30Z</time></trkpt><trkpt lat="44.82319008639093" lon="8.952105657296045"><ele>300.6</ele><time>2026-04-11T10:37:31Z</time></trkpt><trkpt lat="44.82309247108132" lon="8.95207229971286"><ele>302.40000000000003</ele><time>2026-04-11T10:37:32Z</time></trkpt><trkpt lat="44.82302588046812" lon="8.952052063475003"><ele>304.2</ele><time>2026-04-11T10:37:33Z</time></trkpt><trkpt lat="44.822910172081976" lon="8.952032289745096"><ele>306.0</ele><time>2026-04-11T10:37:35Z</time></trkpt><trkpt lat="44.82283573974277" lon="8.952029340670537"><ele>306.0</ele><time>2026-04-11T10:37:37Z</time></trkpt><trkpt lat="44.822745696042105" lon="8.952063726208433"><ele>306.0</ele><time>2026-04-11T10:37:40Z</time></trkpt><trkpt lat="44.822682363388964" lon="8.95209946504276"><ele>306.0</ele><time>2026-04-11T10:37:41Z</time></trkpt><trkpt lat="44.82261535818242" lon="8.952142443831201"><ele>306.0</ele><time>2026-04-11T10:37:42Z</time></trkpt><trkpt lat="44.82252646403359" lon="8.95222963188109"><ele>306.0</ele><time>2026-04-11T10:37:44Z</time></trkpt><trkpt lat="44.82246140529308" lon="8.952312798218543"><ele>306.0</ele><time>2026-04-11T10:37:46Z</time></trkpt><trkpt lat="44.82241059128211" lon="8.952369254454407"><ele>307.0</ele><time>2026-04-11T10:37:50Z</time></trkpt><trkpt lat="44.822375950842066" lon="8.95245814964499"><ele>308.0</ele><time>2026-04-11T10:38:00Z</time></trkpt><trkpt lat="44.82201627674486" lon="8.954771582125462"><ele>312.25</ele><time>2026-04-11T10:38:30Z</time></trkpt><trkpt lat="44.82194410059344" lon="8.954950038706434"><ele>316.5</ele><time>2026-04-11T10:38:31Z</time></trkpt><trkpt lat="44.82188141723994" lon="8.955120625616377"><ele>320.75</ele><time>2026-04-11T10:38:32Z</time></trkpt><trkpt lat="44.8218115879673" lon="8.955281117320464"><ele>325.0</ele><time>2026-04-11T10:38:33Z</time></trkpt><trkpt lat="44.82174405432701" lon="8.955435309335618"><ele>325.0</ele><time>2026-04-11T10:38:34Z</time></trkpt><trkpt lat="44.82168256083704" lon="8.955573937281178"><ele>325.0</ele><time>2026-04-11T10:38:35Z</time></trkpt><trkpt lat="44.82161911910592" lon="8.95571496716015"><ele>325.0</ele><time>2026-04-11T10:38:36Z</time></trkpt><trkpt lat="44.821547391213045" lon="8.955870429816764"><ele>325.0</ele><time>2026-04-11T10:38:37Z</time></trkpt><trkpt lat="44.82146403905633" lon="8.956037072260171"><ele>325.0</ele><time>2026-04-11T10:38:38Z</time></trkpt><trkpt lat="44.82128621326453" lon="8.956378387253803"><ele>325.0</ele><time>2026-04-11T10:38:40Z</time></trkpt><trkpt lat="44.82121014391068" lon="8.956535826582321"><ele>325.0</ele><time>2026-04-11T10:38:41Z</time></trkpt><trkpt lat="44.821139437083744" lon="8.956684426669968"><ele>324.6</ele><time>2026-04-11T10:38:42Z</time></trkpt><trkpt lat="44.821072569620355" lon="8.956825779761687"><ele>324.2</ele><time>2026-04-11T10:38:43Z</time></trkpt><trkpt lat="44.8210108405845" lon="8.956950808786246"><ele>323.79999999999995</ele><time>2026-04-11T10:38:44Z</time></trkpt><trkpt lat="44.8209385701259" lon="8.957051853456576"><ele>323.4</ele><time>2026-04-11T10:38:45Z</time></trkpt><trkpt lat="44.82085068479048" lon="8.957137603300735"><ele>323.0</ele><time>2026-04-11T10:38:46Z</time></trkpt><trkpt lat="44.82074329990006" lon="8.957178866576822"><ele>324.75</ele><time>2026-04-11T10:38:47Z</time></trkpt><trkpt lat="44.820630667223035" lon="8.957225790120795"><ele>326.5</ele><time>2026-04-11T10:38:48Z</time></trkpt><trkpt lat="44.82049432942126" lon="8.957279363431448"><ele>328.25</ele><time>2026-04-11T10:38:49Z</time></trkpt><trkpt lat="44.820339656498774" lon="8.957349874128"><ele>330.0</ele><time>2026-04-11T10:38:50Z</time></trkpt><trkpt lat="44.82017848397448" lon="8.957410442521388"><ele>329.6666666666667</ele><time>2026-04-11T10:38:51Z</time></trkpt><trkpt lat="44.820004250803315" lon="8.957446019555848"><ele>329.33333333333337</ele><time>2026-04-11T10:38:52Z</time></trkpt><trkpt lat="44.81984494520314" lon="8.957499859409193"><ele>329.0</ele><time>2026-04-11T10:38:53Z</time></trkpt><trkpt lat="44.819707395910896" lon="8.957549041456028"><ele>329.0</ele><time>2026-04-11T10:38:54Z</time></trkpt><trkpt lat="44.81957187557153" lon="8.957606619250935"><ele>329.0</ele><time>2026-04-11T10:38:55Z</time></trkpt><trkpt lat="44.819448210234356" lon="8.957703238416974"><ele>329.0</ele><time>2026-04-11T10:38:56Z</time></trkpt><trkpt lat="44.81932242184549" lon="8.957805434113808"><ele>329.0</ele><time>2026-04-11T10:38:57Z</time></trkpt><trkpt lat="44.819198174255696" lon="8.957928229274225"><ele>330.33333333333337</ele><time>2026-04-11T10:38:58Z</time></trkpt><trkpt lat="44.81907174143274" lon="8.958058097221903"><ele>331.6666666666667</ele><time>2026-04-11T10:38:59Z</time></trkpt><trkpt lat="44.818832189480545" lon="8.95828921642115"><ele>333.0</ele><time>2026-04-11T10:39:01Z</time></trkpt><trkpt lat="44.818727388230606" lon="8.958417179962817"><ele>333.0</ele><time>2026-04-11T10:39:02Z</time></trkpt><trkpt lat="44.81863203644183" lon="8.958553965865104"><ele>333.0</ele><time>2026-04-11T10:39:03Z</time></trkpt><trkpt lat="44.81854358414502" lon="8.958706109463549"><ele>333.0</ele><time>2026-04-11T10:39:04Z</time></trkpt><trkpt lat="44.81845787783406" lon="8.958871180790629"><ele>333.0</ele><time>2026-04-11T10:39:05Z</time></trkpt><trkpt lat="44.818365508031334" lon="8.95903928840797"><ele>336.3333333333333</ele><time>2026-04-11T10:39:06Z</time></trkpt><trkpt lat="44.81824695808786" lon="8.959170985664098"><ele>339.66666666666663</ele><time>2026-04-11T10:39:07Z</time></trkpt><trkpt lat="44.818138258209785" lon="8.95931573815874"><ele>343.0</ele><time>2026-04-11T10:39:08Z</time></trkpt><trkpt lat="44.81803683551161" lon="8.959483252659822"><ele>343.0</ele><time>2026-04-11T10:39:09Z</time></trkpt><trkpt lat="44.817921844779704" lon="8.959636305009907"><ele>343.0</ele><time>2026-04-11T10:39:10Z</time></trkpt><trkpt lat="44.81781757241068" lon="8.959793342248418"><ele>343.0</ele><time>2026-04-11T10:39:11Z</time></trkpt><trkpt lat="44.817719477320075" lon="8.959946404823102"><ele>344.66666666666663</ele><time>2026-04-11T10:39:12Z</time></trkpt><trkpt lat="44.817618026551344" lon="8.960097741726898"><ele>346.3333333333333</ele><time>2026-04-11T10:39:13Z</time></trkpt><trkpt lat="44.817511877914086" lon="8.960241678830323"><ele>348.0</ele><time>2026-04-11T10:39:14Z</time></trkpt><trkpt lat="44.817392411919776" lon="8.960382524908415"><ele>348.0</ele><time>2026-04-11T10:39:15Z</time></trkpt><trkpt lat="44.817268610831704" lon="8.960519511945344"><ele>348.0</ele><time>2026-04-11T10:39:16Z</time></trkpt><trkpt lat="44.81715880954117" lon="8.960642244015839"><ele>348.0</ele><time>2026-04-11T10:39:17Z</time></trkpt><trkpt lat="44.81706391464851" lon="8.960757679471131"><ele>348.0</ele><time>2026-04-11T10:39:18Z</time></trkpt><trkpt lat="44.81698327589373" lon="8.960877987370212"><ele>345.6666666666667</ele><time>2026-04-11T10:39:19Z</time></trkpt><trkpt lat="44.81691099201566" lon="8.961020429982094"><ele>343.33333333333337</ele><time>2026-04-11T10:39:20Z</time></trkpt><trkpt lat="44.816766046200534" lon="8.96125477133034"><ele>341.0</ele><time>2026-04-11T10:39:22Z</time></trkpt><trkpt lat="44.81666270067144" lon="8.961325622492465"><ele>343.8</ele><time>2026-04-11T10:39:23Z</time></trkpt><trkpt lat="44.816554676616434" lon="8.961363479584993"><ele>346.6</ele><time>2026-04-11T10:39:24Z</time></trkpt><trkpt lat="44.81644835432343" lon="8.96139030938064"><ele>349.4</ele><time>2026-04-11T10:39:25Z</time></trkpt><trkpt lat="44.81634399082749" lon="8.96140124529613"><ele>352.2</ele><time>2026-04-11T10:39:26Z</time></trkpt><trkpt lat="44.81625459600702" lon="8.961412251687985"><ele>355.0</ele><time>2026-04-11T10:39:27Z</time></trkpt><trkpt lat="44.81618339221765" lon="8.961452664412583"><ele>355.0</ele><time>2026-04-11T10:39:28Z</time></trkpt><trkpt lat="44.816122876938635" lon="8.961519157480867"><ele>355.0</ele><time>2026-04-11T10:39:29Z</time></trkpt><trkpt lat="44.81607536263302" lon="8.961610036168489"><ele>355.0</ele><time>2026-04-11T10:39:30Z</time></trkpt><trkpt lat="44.816049335783056" lon="8.961725739081508"><ele>355.0</ele><time>2026-04-11T10:39:31Z</time></trkpt><trkpt lat="44.816030970641535" lon="8.9618712885288"><ele>355.0</ele><time>2026-04-11T10:39:32Z</time></trkpt><trkpt lat="44.816013157235815" lon="8.962043075170023"><ele>355.25</ele><time>2026-04-11T10:39:33Z</time></trkpt><trkpt lat="44.81598919078522" lon="8.962232480593727"><ele>355.5</ele><time>2026-04-11T10:39:34Z</time></trkpt><trkpt lat="44.815969199184714" lon="8.962409819662938"><ele>355.75</ele><time>2026-04-11T10:39:35Z</time></trkpt><trkpt lat="44.815952088253674" lon="8.962587799573958"><ele>356.0</ele><time>2026-04-11T10:39:36Z</time></trkpt><trkpt lat="44.81594299529511" lon="8.962758663053075"><ele>357.6</ele><time>2026-04-11T10:39:37Z</time></trkpt><trkpt lat="44.81594279712647" lon="8.962926112979586"><ele>359.20000000000005</ele><time>2026-04-11T10:39:38Z</time></trkpt><trkpt lat="44.8159418626784" lon="8.963087205306152"><ele>360.79999999999995</ele><time>2026-04-11T10:39:39Z</time></trkpt><trkpt lat="44.81593823327329" lon="8.963240649388656"><ele>362.4</ele><time>2026-04-11T10:39:40Z</time></trkpt><trkpt lat="44.81593419988599" lon="8.963388527368997"><ele>364.0</ele><time>2026-04-11T10:39:41Z</time></trkpt><trkpt lat="44.81591421126809" lon="8.963651397061215"><ele>364.0</ele><time>2026-04-11T10:39:43Z</time></trkpt><trkpt lat="44.815892887249994" lon="8.963771306710298"><ele>364.0</ele><time>2026-04-11T10:39:44Z</time></trkpt><trkpt lat="44.81585744765264" lon="8.963892712408427"><ele>364.0</ele><time>2026-04-11T10:39:45Z</time></trkpt><trkpt lat="44.815811499412774" lon="8.96400773818912"><ele>364.0</ele><time>2026-04-11T10:39:46Z</time></trkpt><trkpt lat="44.815758438786965" lon="8.964102191417195"><ele>364.0</ele><time>2026-04-11T10:39:47Z</time></trkpt><trkpt lat="44.81570746839393" lon="8.964183551915172"><ele>364.0</ele><time>2026-04-11T10:39:48Z</time></trkpt><trkpt lat="44.81565342343793" lon="8.964265278666705"><ele>363.66666666666663</ele><time>2026-04-11T10:39:49Z</time></trkpt><trkpt lat="44.81560391096219" lon="8.964339731377434"><ele>363.3333333333333</ele><time>2026-04-11T10:39:50Z</time></trkpt><trkpt lat="44.815561405162676" lon="8.964408793657219"><ele>363.0</ele><time>2026-04-11T10:39:51Z</time></trkpt><trkpt lat="44.81546944896837" lon="8.964497820295799"><ele>362.6666666666667</ele><time>2026-04-11T10:39:53Z</time></trkpt><trkpt lat="44.81542134636864" lon="8.964556180262209"><ele>362.33333333333337</ele><time>2026-04-11T10:39:55Z</time></trkpt><trkpt lat="44.81546921996298" lon="8.964691708505091"><ele>362.0</ele><time>2026-04-11T10:39:56Z</time></trkpt><trkpt lat="44.815446983474345" lon="8.964829727847029"><ele>362.0</ele><time>2026-04-11T10:39:58Z</time></trkpt><trkpt lat="44.81541540825948" lon="8.964978330016303"><ele>362.0</ele><time>2026-04-11T10:40:00Z</time></trkpt><trkpt lat="44.81541214851031" lon="8.965139111546529"><ele>362.0</ele><time>2026-04-11T10:40:02Z</time></trkpt><trkpt lat="44.815455282116446" lon="8.965325348863505"><ele>362.0</ele><time>2026-04-11T10:40:04Z</time></trkpt><trkpt lat="44.81548357897356" lon="8.965424637545095"><ele>362.0</ele><time>2026-04-11T10:40:05Z</time></trkpt><trkpt lat="44.815498018971894" lon="8.965524117350634"><ele>361.85714285714283</ele><time>2026-04-11T10:40:06Z</time></trkpt><trkpt lat="44.81548881120999" lon="8.965621583167419"><ele>361.71428571428567</ele><time>2026-04-11T10:40:07Z</time></trkpt><trkpt lat="44.815475369604684" lon="8.965722380338084"><ele>361.57142857142856</ele><time>2026-04-11T10:40:08Z</time></trkpt><trkpt lat="44.81544739954871" lon="8.965817310727285"><ele>361.42857142857144</ele><time>2026-04-11T10:40:09Z</time></trkpt><trkpt lat="44.81540530629198" lon="8.965903511145369"><ele>361.2857142857143</ele><time>2026-04-11T10:40:10Z</time></trkpt><trkpt lat="44.81537274520004" lon="8.965991353719886"><ele>361.14285714285717</ele><time>2026-04-11T10:40:11Z</time></trkpt><trkpt lat="44.81533769949455" lon="8.966071484404988"><ele>361.0</ele><time>2026-04-11T10:40:12Z</time></trkpt><trkpt lat="44.815304084147186" lon="8.966148062605109"><ele>360.66666666666663</ele><time>2026-04-11T10:40:13Z</time></trkpt><trkpt lat="44.81524348405332" lon="8.966289300234923"><ele>360.3333333333333</ele><time>2026-04-11T10:40:15Z</time></trkpt><trkpt lat="44.815212020508206" lon="8.966369314788018"><ele>360.0</ele><time>2026-04-11T10:40:16Z</time></trkpt><trkpt lat="44.815170021723645" lon="8.966530980739092"><ele>359.6666666666667</ele><time>2026-04-11T10:40:18Z</time></trkpt><trkpt lat="44.815157776223714" lon="8.966618496053215"><ele>359.33333333333337</ele><time>2026-04-11T10:40:19Z</time></trkpt><trkpt lat="44.81515373167514" lon="8.966711016177639"><ele>359.0</ele><time>2026-04-11T10:40:20Z</time></trkpt><trkpt lat="44.815152505230124" lon="8.966810180557603"><ele>359.0</ele><time>2026-04-11T10:40:21Z</time></trkpt><trkpt lat="44.81515681322369" lon="8.966907409165731"><ele>359.0</ele><time>2026-04-11T10:40:22Z</time></trkpt><trkpt lat="44.81517244239847" lon="8.9670722310322"><ele>359.0</ele><time>2026-04-11T10:40:24Z</time></trkpt><trkpt lat="44.81516447649001" lon="8.967370404478396"><ele>359.0</ele><time>2026-04-11T10:40:27Z</time></trkpt><trkpt lat="44.81515147066702" lon="8.967489988809023"><ele>359.83333333333337</ele><time>2026-04-11T10:40:28Z</time></trkpt><trkpt lat="44.81513333880504" lon="8.967616850656064"><ele>360.6666666666667</ele><time>2026-04-11T10:40:29Z</time></trkpt><trkpt lat="44.81511629866304" lon="8.96773998569737"><ele>361.5</ele><time>2026-04-11T10:40:30Z</time></trkpt><trkpt lat="44.81510908014803" lon="8.96785963512046"><ele>362.3333333333333</ele><time>2026-04-11T10:40:31Z</time></trkpt><trkpt lat="44.81511011949512" lon="8.967981098212592"><ele>363.16666666666663</ele><time>2026-04-11T10:40:32Z</time></trkpt><trkpt lat="44.81512318883492" lon="8.968098585092465"><ele>364.0</ele><time>2026-04-11T10:40:33Z</time></trkpt><trkpt lat="44.81513717126747" lon="8.968233480358773"><ele>364.4</ele><time>2026-04-11T10:40:34Z</time></trkpt><trkpt lat="44.815154045683265" lon="8.9683660421445"><ele>364.79999999999995</ele><time>2026-04-11T10:40:35Z</time></trkpt><trkpt lat="44.81517116187365" lon="8.968496591350135"><ele>365.20000000000005</ele><time>2026-04-11T10:40:36Z</time></trkpt><trkpt lat="44.815191159385904" lon="8.968626030767307"><ele>365.6</ele><time>2026-04-11T10:40:37Z</time></trkpt><trkpt lat="44.81521569780704" lon="8.968755127852734"><ele>366.0</ele><time>2026-04-11T10:40:38Z</time></trkpt><trkpt lat="44.81524273950803" lon="8.968885923575456"><ele>366.0</ele><time>2026-04-11T10:40:39Z</time></trkpt><trkpt lat="44.81527212685255" lon="8.969019670033381"><ele>366.0</ele><time>2026-04-11T10:40:40Z</time></trkpt><trkpt lat="44.81530343659862" lon="8.969150479223305"><ele>366.0</ele><time>2026-04-11T10:40:41Z</time></trkpt><trkpt lat="44.81532765674133" lon="8.969283876832701"><ele>366.0</ele><time>2026-04-11T10:40:42Z</time></trkpt><trkpt lat="44.81534209376389" lon="8.969423370123739"><ele>366.0</ele><time>2026-04-11T10:40:43Z</time></trkpt><trkpt lat="44.815345195058576" lon="8.969566058411006"><ele>366.25</ele><time>2026-04-11T10:40:44Z</time></trkpt><trkpt lat="44.815349299154065" lon="8.969705066914008"><ele>366.5</ele><time>2026-04-11T10:40:45Z</time></trkpt><trkpt lat="44.815339422443124" lon="8.96998883642636"><ele>366.75</ele><time>2026-04-11T10:40:47Z</time></trkpt><trkpt lat="44.815332164619015" lon="8.970129878535456"><ele>367.0</ele><time>2026-04-11T10:40:48Z</time></trkpt><trkpt lat="44.81532579239296" lon="8.970268280540102"><ele>367.0</ele><time>2026-04-11T10:40:49Z</time></trkpt><trkpt lat="44.81531590088682" lon="8.970405144350334"><ele>367.0</ele><time>2026-04-11T10:40:50Z</time></trkpt><trkpt lat="44.81529927225676" lon="8.970539189010253"><ele>367.0</ele><time>2026-04-11T10:40:51Z</time></trkpt><trkpt lat="44.815293321056856" lon="8.970664034924098"><ele>367.0</ele><time>2026-04-11T10:40:52Z</time></trkpt><trkpt lat="44.81529042884031" lon="8.970783342128986"><ele>367.0</ele><time>2026-04-11T10:40:53Z</time></trkpt><trkpt lat="44.81528929583605" lon="8.97090729510366"><ele>367.0</ele><time>2026-04-11T10:40:54Z</time></trkpt><trkpt lat="44.81529211429014" lon="8.97102897060428"><ele>367.0</ele><time>2026-04-11T10:40:55Z</time></trkpt><trkpt lat="44.81530353918651" lon="8.971142681051822"><ele>367.0</ele><time>2026-04-11T10:40:56Z</time></trkpt><trkpt lat="44.81531755940099" lon="8.971252629547534"><ele>367.0</ele><time>2026-04-11T10:40:57Z</time></trkpt><trkpt lat="44.815344014569696" lon="8.971354000813479"><ele>367.0</ele><time>2026-04-11T10:40:58Z</time></trkpt><trkpt lat="44.81537578268693" lon="8.97146082793579"><ele>367.0</ele><time>2026-04-11T10:40:59Z</time></trkpt><trkpt lat="44.81542009965017" lon="8.9715722899076"><ele>366.8</ele><time>2026-04-11T10:41:00Z</time></trkpt><trkpt lat="44.81546151109789" lon="8.971690698083819"><ele>366.6</ele><time>2026-04-11T10:41:01Z</time></trkpt><trkpt lat="44.81550968993031" lon="8.971799871773902"><ele>366.40000000000003</ele><time>2026-04-11T10:41:02Z</time></trkpt><trkpt lat="44.815560522483025" lon="8.971911404282924"><ele>366.20000000000005</ele><time>2026-04-11T10:41:03Z</time></trkpt><trkpt lat="44.81561435475965" lon="8.97202470214867"><ele>366.0</ele><time>2026-04-11T10:41:04Z</time></trkpt><trkpt lat="44.81566783539407" lon="8.97214830444745"><ele>366.0</ele><time>2026-04-11T10:41:05Z</time></trkpt><trkpt lat="44.81571295970979" lon="8.972280470224717"><ele>366.0</ele><time>2026-04-11T10:41:06Z</time></trkpt><trkpt lat="44.81579207273946" lon="8.972545881730655"><ele>366.0</ele><time>2026-04-11T10:41:08Z</time></trkpt><trkpt lat="44.81583043875691" lon="8.972676309566856"><ele>366.0</ele><time>2026-04-11T10:41:09Z</time></trkpt><trkpt lat="44.815874210236075" lon="8.972798548787772"><ele>366.0</ele><time>2026-04-11T10:41:10Z</time></trkpt><trkpt lat="44.815918362771974" lon="8.972913280178124"><ele>366.0</ele><time>2026-04-11T10:41:11Z</time></trkpt><trkpt lat="44.81596126373216" lon="8.973026931651686"><ele>366.0</ele><time>2026-04-11T10:41:12Z</time></trkpt><trkpt lat="44.81600594503593" lon="8.973146504972382"><ele>366.0</ele><time>2026-04-11T10:41:13Z</time></trkpt><trkpt lat="44.81605261292434" lon="8.973266731909657"><ele>366.0</ele><time>2026-04-11T10:41:14Z</time></trkpt><trkpt lat="44.81609822863793" lon="8.973389832576286"><ele>366.6</ele><time>2026-04-11T10:41:15Z</time></trkpt><trkpt lat="44.81614201950947" lon="8.973514370964015"><ele>367.20000000000005</ele><time>2026-04-11T10:41:16Z</time></trkpt><trkpt lat="44.81619002926124" lon="8.973634466392385"><ele>367.79999999999995</ele><time>2026-04-11T10:41:17Z</time></trkpt><trkpt lat="44.81623434337085" lon="8.97374872247162"><ele>368.4</ele><time>2026-04-11T10:41:18Z</time></trkpt><trkpt lat="44.81627269116112" lon="8.973860377295267"><ele>369.0</ele><time>2026-04-11T10:41:19Z</time></trkpt><trkpt lat="44.81631240163267" lon="8.97396925350457"><ele>369.0</ele><time>2026-04-11T10:41:20Z</time></trkpt><trkpt lat="44.81635361487465" lon="8.974072598804625"><ele>369.0</ele><time>2026-04-11T10:41:21Z</time></trkpt><trkpt lat="44.816393092242976" lon="8.974172611631108"><ele>369.0</ele><time>2026-04-11T10:41:22Z</time></trkpt><trkpt lat="44.8164340696632" lon="8.974269862040504"><ele>369.0</ele><time>2026-04-11T10:41:23Z</time></trkpt><trkpt lat="44.81647568354632" lon="8.974366278326665"><ele>369.0</ele><time>2026-04-11T10:41:24Z</time></trkpt><trkpt lat="44.81651203087655" lon="8.97445286248496"><ele>369.0</ele><time>2026-04-11T10:41:25Z</time></trkpt><trkpt lat="44.816597491456825" lon="8.974547573111517"><ele>368.25</ele><time>2026-04-11T10:41:27Z</time></trkpt><trkpt lat="44.81677492606172" lon="8.974563582653325"><ele>367.5</ele><time>2026-04-11T10:41:30Z</time></trkpt><trkpt lat="44.81684021435935" lon="8.974554539073488"><ele>366.75</ele><time>2026-04-11T10:41:31Z</time></trkpt><trkpt lat="44.81695682086801" lon="8.974539233125624"><ele>366.0</ele><time>2026-04-11T10:41:33Z</time></trkpt><trkpt lat="44.81707800978519" lon="8.974523836601348"><ele>364.20000000000005</ele><time>2026-04-11T10:41:35Z</time></trkpt><trkpt lat="44.81717637263982" lon="8.974510727933103"><ele>362.40000000000003</ele><time>2026-04-11T10:41:37Z</time></trkpt><trkpt lat="44.81727620324599" lon="8.974495785140077"><ele>360.6</ele><time>2026-04-11T10:41:39Z</time></trkpt><trkpt lat="44.817404200054256" lon="8.974477615703195"><ele>358.8</ele><time>2026-04-11T10:41:41Z</time></trkpt><trkpt lat="44.81747502486723" lon="8.974468069408555"><ele>357.0</ele><time>2026-04-11T10:41:42Z</time></trkpt><trkpt lat="44.81754992048996" lon="8.974457168354336"><ele>357.0</ele><time>2026-04-11T10:41:43Z</time></trkpt><trkpt lat="44.817622052853224" lon="8.974447625548516"><ele>357.0</ele><time>2026-04-11T10:41:44Z</time></trkpt><trkpt lat="44.81769135625917" lon="8.974422113460848"><ele>357.0</ele><time>2026-04-11T10:41:45Z</time></trkpt><trkpt lat="44.81781570532924" lon="8.974450061778775"><ele>357.0</ele><time>2026-04-11T10:41:47Z</time></trkpt><trkpt lat="44.81788355985037" lon="8.974487165944879"><ele>357.0</ele><time>2026-04-11T10:41:48Z</time></trkpt><trkpt lat="44.818289445441785" lon="8.974934982504939"><ele>354.20000000000005</ele><time>2026-04-11T10:44:10Z</time></trkpt><trkpt lat="44.81839012713712" lon="8.9750900611692"><ele>351.4</ele><time>2026-04-11T10:44:12Z</time></trkpt><trkpt lat="44.81845434719856" lon="8.975191394488295"><ele>348.6</ele><time>2026-04-11T10:44:13Z</time></trkpt><trkpt lat="44.818486430372886" lon="8.975319431787321"><ele>345.79999999999995</ele><time>2026-04-11T10:44:14Z</time></trkpt><trkpt lat="44.81854740554071" lon="8.975417958956657"><ele>343.0</ele><time>2026-04-11T10:44:15Z</time></trkpt><trkpt lat="44.81860670421899" lon="8.975509105434526"><ele>343.0</ele><time>2026-04-11T10:44:16Z</time></trkpt><trkpt lat="44.81866490951161" lon="8.975594537525629"><ele>343.0</ele><time>2026-04-11T10:44:17Z</time></trkpt><trkpt lat="44.81872239168208" lon="8.975674264804018"><ele>343.0</ele><time>2026-04-11T10:44:18Z</time></trkpt><trkpt lat="44.81879337959974" lon="8.975753914104752"><ele>343.0</ele><time>2026-04-11T10:44:19Z</time></trkpt><trkpt lat="44.818860508793016" lon="8.975822141444949"><ele>343.0</ele><time>2026-04-11T10:44:20Z</time></trkpt><trkpt lat="44.818940215609565" lon="8.975890978929323"><ele>343.0</ele><time>2026-04-11T10:44:21Z</time></trkpt><trkpt lat="44.81903769765274" lon="8.975961074730334"><ele>342.4</ele><time>2026-04-11T10:44:22Z</time></trkpt><trkpt lat="44.81912741906256" lon="8.97602273611881"><ele>341.79999999999995</ele><time>2026-04-11T10:44:23Z</time></trkpt><trkpt lat="44.81919773068661" lon="8.976076466029573"><ele>341.2</ele><time>2026-04-11T10:44:24Z</time></trkpt><trkpt lat="44.81928102982092" lon="8.976126897647779"><ele>340.6</ele><time>2026-04-11T10:44:25Z</time></trkpt><trkpt lat="44.819361840920514" lon="8.976184145685906"><ele>340.0</ele><time>2026-04-11T10:44:26Z</time></trkpt><trkpt lat="44.81944130751367" lon="8.976239947596607"><ele>341.2</ele><time>2026-04-11T10:44:27Z</time></trkpt><trkpt lat="44.81952170876222" lon="8.976299430720285"><ele>342.4</ele><time>2026-04-11T10:44:28Z</time></trkpt><trkpt lat="44.81960592536474" lon="8.976377205920368"><ele>343.6</ele><time>2026-04-11T10:44:29Z</time></trkpt><trkpt lat="44.819690898850276" lon="8.976467978351579"><ele>344.8</ele><time>2026-04-11T10:44:30Z</time></trkpt><trkpt lat="44.81977001177668" lon="8.976546059323866"><ele>346.0</ele><time>2026-04-11T10:44:31Z</time></trkpt><trkpt lat="44.81983320425829" lon="8.976629611788441"><ele>344.8333333333333</ele><time>2026-04-11T10:44:32Z</time></trkpt><trkpt lat="44.81989671580898" lon="8.976698165315215"><ele>343.66666666666663</ele><time>2026-04-11T10:44:33Z</time></trkpt><trkpt lat="44.819971157295214" lon="8.97674642213417"><ele>342.5</ele><time>2026-04-11T10:44:34Z</time></trkpt><trkpt lat="44.82004499605181" lon="8.97677332663052"><ele>341.3333333333333</ele><time>2026-04-11T10:44:35Z</time></trkpt><trkpt lat="44.82012826259239" lon="8.976791718588101"><ele>340.1666666666667</ele><time>2026-04-11T10:44:36Z</time></trkpt><trkpt lat="44.82021934316945" lon="8.976804678972874"><ele>339.0</ele><time>2026-04-11T10:44:37Z</time></trkpt><trkpt lat="44.820305050082915" lon="8.976810776115185"><ele>339.0</ele><time>2026-04-11T10:44:38Z</time></trkpt><trkpt lat="44.82039013566271" lon="8.976828587420407"><ele>339.0</ele><time>2026-04-11T10:44:39Z</time></trkpt><trkpt lat="44.82047858489642" lon="8.976810777161637"><ele>339.0</ele><time>2026-04-11T10:44:40Z</time></trkpt><trkpt lat="44.82055659770096" lon="8.976788587454406"><ele>339.0</ele><time>2026-04-11T10:44:41Z</time></trkpt><trkpt lat="44.82063419911683" lon="8.97674223441195"><ele>339.0</ele><time>2026-04-11T10:44:42Z</time></trkpt><trkpt lat="44.820707979661165" lon="8.976720245962957"><ele>339.0</ele><time>2026-04-11T10:44:43Z</time></trkpt><trkpt lat="44.820789351176394" lon="8.976697353008326"><ele>339.0</ele><time>2026-04-11T10:44:44Z</time></trkpt><trkpt lat="44.820862625649234" lon="8.976708667604921"><ele>339.0</ele><time>2026-04-11T10:44:45Z</time></trkpt><trkpt lat="44.82096842793298" lon="8.976742003128107"><ele>339.0</ele><time>2026-04-11T10:44:47Z</time></trkpt><trkpt lat="44.82105774823302" lon="8.976742687437953"><ele>339.0</ele><time>2026-04-11T10:44:49Z</time></trkpt><trkpt lat="44.82112258968775" lon="8.976647458725951"><ele>339.0</ele><time>2026-04-11T10:44:50Z</time></trkpt><trkpt lat="44.82114269068914" lon="8.976541165770424"><ele>339.0</ele><time>2026-04-11T10:44:51Z</time></trkpt><trkpt lat="44.82114951171037" lon="8.976444686070668"><ele>339.0</ele><time>2026-04-11T10:44:52Z</time></trkpt><trkpt lat="44.821143660526914" lon="8.976349128411195"><ele>339.0</ele><time>2026-04-11T10:44:53Z</time></trkpt><trkpt lat="44.82110685807742" lon="8.976255218692806"><ele>339.0</ele><time>2026-04-11T10:44:54Z</time></trkpt><trkpt lat="44.82102430699684" lon="8.976206958442166"><ele>339.0</ele><time>2026-04-11T10:44:55Z</time></trkpt><trkpt lat="44.820963888896806" lon="8.976163447858593"><ele>339.0</ele><time>2026-04-11T10:44:56Z</time></trkpt><trkpt lat="44.8208801069361" lon="8.976105381907026"><ele>339.0</ele><time>2026-04-11T10:44:57Z</time></trkpt><trkpt lat="44.82079239892724" lon="8.976044386739794"><ele>339.79999999999995</ele><time>2026-04-11T10:44:58Z</time></trkpt><trkpt lat="44.8206895505002" lon="8.975971830278768"><ele>340.59999999999997</ele><time>2026-04-11T10:44:59Z</time></trkpt><trkpt lat="44.820591143234516" lon="8.975900316418846"><ele>341.4</ele><time>2026-04-11T10:45:00Z</time></trkpt><trkpt lat="44.82049718438231" lon="8.97582667135625"><ele>342.2</ele><time>2026-04-11T10:45:01Z</time></trkpt><trkpt lat="44.820407380017436" lon="8.975749583145825"><ele>343.0</ele><time>2026-04-11T10:45:02Z</time></trkpt><trkpt lat="44.82032691514179" lon="8.975660512240372"><ele>341.4</ele><time>2026-04-11T10:45:03Z</time></trkpt><trkpt lat="44.820285635779605" lon="8.975541518626319"><ele>339.79999999999995</ele><time>2026-04-11T10:45:04Z</time></trkpt><trkpt lat="44.820256632529556" lon="8.97541170911172"><ele>338.2</ele><time>2026-04-11T10:45:05Z</time></trkpt><trkpt lat="44.82022204130226" lon="8.975256566505822"><ele>336.6</ele><time>2026-04-11T10:45:06Z</time></trkpt><trkpt lat="44.82018498982597" lon="8.975091011074372"><ele>335.0</ele><time>2026-04-11T10:45:07Z</time></trkpt><trkpt lat="44.82014609478431" lon="8.974917217809045"><ele>335.0</ele><time>2026-04-11T10:45:08Z</time></trkpt><trkpt lat="44.82010696382715" lon="8.974743038558724"><ele>335.0</ele><time>2026-04-11T10:45:09Z</time></trkpt><trkpt lat="44.820070039074885" lon="8.974582988548256"><ele>335.0</ele><time>2026-04-11T10:45:10Z</time></trkpt><trkpt lat="44.820035212705044" lon="8.974432033978621"><ele>335.0</ele><time>2026-04-11T10:45:11Z</time></trkpt><trkpt lat="44.82000154322177" lon="8.974286093862215"><ele>334.0</ele><time>2026-04-11T10:45:12Z</time></trkpt><trkpt lat="44.81997128573211" lon="8.974143517598183"><ele>333.0</ele><time>2026-04-11T10:45:13Z</time></trkpt><trkpt lat="44.81994134260513" lon="8.973999911465254"><ele>332.0</ele><time>2026-04-11T10:45:14Z</time></trkpt><trkpt lat="44.819911035833954" lon="8.973858573907505"><ele>331.0</ele><time>2026-04-11T10:45:15Z</time></trkpt><trkpt lat="44.81988430175618" lon="8.973719646123506"><ele>330.0</ele><time>2026-04-11T10:45:16Z</time></trkpt><trkpt lat="44.81986698482503" lon="8.97358548604441"><ele>330.0</ele><time>2026-04-11T10:45:17Z</time></trkpt><trkpt lat="44.8198640871679" lon="8.97345390041956"><ele>330.0</ele><time>2026-04-11T10:45:18Z</time></trkpt><trkpt lat="44.81988750960252" lon="8.97333063699005"><ele>330.0</ele><time>2026-04-11T10:45:19Z</time></trkpt><trkpt lat="44.819918725526804" lon="8.973206513710615"><ele>330.0</ele><time>2026-04-11T10:45:20Z</time></trkpt><trkpt lat="44.81995796322569" lon="8.973073497620932"><ele>330.0</ele><time>2026-04-11T10:45:21Z</time></trkpt><trkpt lat="44.8199955241947" lon="8.972935920961039"><ele>329.0</ele><time>2026-04-11T10:45:22Z</time></trkpt><trkpt lat="44.820026254891744" lon="8.972790859261991"><ele>328.0</ele><time>2026-04-11T10:45:23Z</time></trkpt><trkpt lat="44.82003866950612" lon="8.972639192279072"><ele>327.0</ele><time>2026-04-11T10:45:24Z</time></trkpt><trkpt lat="44.82001689137285" lon="8.972487625479548"><ele>326.0</ele><time>2026-04-11T10:45:25Z</time></trkpt><trkpt lat="44.82001159719264" lon="8.972349993491616"><ele>325.0</ele><time>2026-04-11T10:45:26Z</time></trkpt><trkpt lat="44.820013845549006" lon="8.972213572262065"><ele>324.4</ele><time>2026-04-11T10:45:27Z</time></trkpt><trkpt lat="44.82003383559938" lon="8.972082826338625"><ele>323.8</ele><time>2026-04-11T10:45:28Z</time></trkpt><trkpt lat="44.820072326173936" lon="8.971960938682457"><ele>323.20000000000005</ele><time>2026-04-11T10:45:29Z</time></trkpt><trkpt lat="44.82011957609174" lon="8.971846625254665"><ele>322.6</ele><time>2026-04-11T10:45:30Z</time></trkpt><trkpt lat="44.82017984587584" lon="8.97174819707227"><ele>322.0</ele><time>2026-04-11T10:45:31Z</time></trkpt><trkpt lat="44.82024826365322" lon="8.971649138790008"><ele>319.6</ele><time>2026-04-11T10:45:32Z</time></trkpt><trkpt lat="44.82031677841764" lon="8.971542078783056"><ele>317.20000000000005</ele><time>2026-04-11T10:45:33Z</time></trkpt><trkpt lat="44.82036896071958" lon="8.971415971768877"><ele>314.8</ele><time>2026-04-11T10:45:34Z</time></trkpt><trkpt lat="44.82039201825856" lon="8.971289777145593"><ele>312.4</ele><time>2026-04-11T10:45:35Z</time></trkpt><trkpt lat="44.82038484659171" lon="8.971171072997192"><ele>310.0</ele><time>2026-04-11T10:45:36Z</time></trkpt><trkpt lat="44.820376221760704" lon="8.9710601534478"><ele>310.0</ele><time>2026-04-11T10:45:37Z</time></trkpt><trkpt lat="44.820368743701145" lon="8.97095058993182"><ele>310.0</ele><time>2026-04-11T10:45:38Z</time></trkpt><trkpt lat="44.82036316928798" lon="8.970831347794926"><ele>310.0</ele><time>2026-04-11T10:45:39Z</time></trkpt><trkpt lat="44.820360377075396" lon="8.97069441284366"><ele>310.0</ele><time>2026-04-11T10:45:40Z</time></trkpt><trkpt lat="44.820363875244624" lon="8.970550409710548"><ele>310.0</ele><time>2026-04-11T10:45:41Z</time></trkpt><trkpt lat="44.82037281099658" lon="8.970409014439714"><ele>309.4</ele><time>2026-04-11T10:45:42Z</time></trkpt><trkpt lat="44.82038048489408" lon="8.970261298057677"><ele>308.8</ele><time>2026-04-11T10:45:43Z</time></trkpt><trkpt lat="44.82038723572103" lon="8.970110874463547"><ele>308.2</ele><time>2026-04-11T10:45:44Z</time></trkpt><trkpt lat="44.82039684864822" lon="8.969980567241485"><ele>307.6</ele><time>2026-04-11T10:45:45Z</time></trkpt><trkpt lat="44.82041063346405" lon="8.969872205078113"><ele>307.0</ele><time>2026-04-11T10:45:46Z</time></trkpt><trkpt lat="44.82049941303219" lon="8.96975698923283"><ele>306.4</ele><time>2026-04-11T10:45:48Z</time></trkpt><trkpt lat="44.820568623601325" lon="8.96973154047361"><ele>305.79999999999995</ele><time>2026-04-11T10:45:49Z</time></trkpt><trkpt lat="44.82066149676155" lon="8.969683976903312"><ele>305.2</ele><time>2026-04-11T10:45:50Z</time></trkpt><trkpt lat="44.82076813842504" lon="8.969633110187461"><ele>304.59999999999997</ele><time>2026-04-11T10:45:51Z</time></trkpt><trkpt lat="44.82087176337005" lon="8.969578832114053"><ele>304.0</ele><time>2026-04-11T10:45:52Z</time></trkpt><trkpt lat="44.82097319074385" lon="8.969522450800046"><ele>302.4</ele><time>2026-04-11T10:45:53Z</time></trkpt><trkpt lat="44.82107389554004" lon="8.969461481858819"><ele>300.79999999999995</ele><time>2026-04-11T10:45:54Z</time></trkpt><trkpt lat="44.821172143231706" lon="8.969396530359312"><ele>299.20000000000005</ele><time>2026-04-11T10:45:55Z</time></trkpt><trkpt lat="44.82125546665411" lon="8.969341445232459"><ele>297.6</ele><time>2026-04-11T10:45:56Z</time></trkpt><trkpt lat="44.82132476268394" lon="8.96929790211846"><ele>296.0</ele><time>2026-04-11T10:45:57Z</time></trkpt><trkpt lat="44.821387174345354" lon="8.969252658769022"><ele>296.0</ele><time>2026-04-11T10:45:58Z</time></trkpt><trkpt lat="44.82145614377156" lon="8.969247246030385"><ele>296.0</ele><time>2026-04-11T10:45:59Z</time></trkpt><trkpt lat="44.82152728559452" lon="8.969276387295857"><ele>296.0</ele><time>2026-04-11T10:46:00Z</time></trkpt><trkpt lat="44.82159421170011" lon="8.969336876894795"><ele>296.0</ele><time>2026-04-11T10:46:01Z</time></trkpt><trkpt lat="44.82165905164534" lon="8.969411830181599"><ele>296.0</ele><time>2026-04-11T10:46:02Z</time></trkpt><trkpt lat="44.82172926674825" lon="8.9694995683294"><ele>296.0</ele><time>2026-04-11T10:46:03Z</time></trkpt><trkpt lat="44.82180321453345" lon="8.969586129103728"><ele>294.5</ele><time>2026-04-11T10:46:04Z</time></trkpt><trkpt lat="44.82187631830558" lon="8.969670518301859"><ele>293.0</ele><time>2026-04-11T10:46:05Z</time></trkpt><trkpt lat="44.82194598423665" lon="8.969738370138446"><ele>291.5</ele><time>2026-04-11T10:46:06Z</time></trkpt><trkpt lat="44.8220048762668" lon="8.96979006519474"><ele>290.0</ele><time>2026-04-11T10:46:07Z</time></trkpt><trkpt lat="44.82206324976681" lon="8.969828209098681"><ele>288.5</ele><time>2026-04-11T10:46:08Z</time></trkpt><trkpt lat="44.82217598680844" lon="8.969875597058877"><ele>287.0</ele><time>2026-04-11T10:46:10Z</time></trkpt><trkpt lat="44.822295405902416" lon="8.969905196381028"><ele>287.0</ele><time>2026-04-11T10:46:12Z</time></trkpt><trkpt lat="44.82235870863068" lon="8.969929180710892"><ele>287.0</ele><time>2026-04-11T10:46:13Z</time></trkpt><trkpt lat="44.82242835498941" lon="8.969970343851136"><ele>287.0</ele><time>2026-04-11T10:46:14Z</time></trkpt><trkpt lat="44.822495367008486" lon="8.970029578528308"><ele>287.0</ele><time>2026-04-11T10:46:15Z</time></trkpt><trkpt lat="44.82255513530202" lon="8.97010282116211"><ele>287.0</ele><time>2026-04-11T10:46:16Z</time></trkpt><trkpt lat="44.82260209360585" lon="8.970190807920066"><ele>287.0</ele><time>2026-04-11T10:46:17Z</time></trkpt><trkpt lat="44.82264949272959" lon="8.970292220229059"><ele>284.75</ele><time>2026-04-11T10:46:18Z</time></trkpt><trkpt lat="44.82271476132315" lon="8.970398951548093"><ele>282.5</ele><time>2026-04-11T10:46:19Z</time></trkpt><trkpt lat="44.8228023780116" lon="8.970512501812545"><ele>280.25</ele><time>2026-04-11T10:46:20Z</time></trkpt><trkpt lat="44.82289942634573" lon="8.970613873363867"><ele>278.0</ele><time>2026-04-11T10:46:21Z</time></trkpt><trkpt lat="44.82300049810641" lon="8.970707573249586"><ele>278.0</ele><time>2026-04-11T10:46:22Z</time></trkpt><trkpt lat="44.82309843256965" lon="8.970796059835447"><ele>278.0</ele><time>2026-04-11T10:46:23Z</time></trkpt><trkpt lat="44.82319511920388" lon="8.97088736914836"><ele>278.0</ele><time>2026-04-11T10:46:24Z</time></trkpt><trkpt lat="44.82328639653255" lon="8.97097954964135"><ele>278.0</ele><time>2026-04-11T10:46:25Z</time></trkpt><trkpt lat="44.82337946905656" lon="8.971076779299041"><ele>278.1666666666667</ele><time>2026-04-11T10:46:26Z</time></trkpt><trkpt lat="44.823470755644934" lon="8.971175141488677"><ele>278.33333333333337</ele><time>2026-04-11T10:46:27Z</time></trkpt><trkpt lat="44.82355777611467" lon="8.971259495906034"><ele>278.5</ele><time>2026-04-11T10:46:28Z</time></trkpt><trkpt lat="44.823628680755014" lon="8.971319616298144"><ele>278.6666666666667</ele><time>2026-04-11T10:46:29Z</time></trkpt><trkpt lat="44.82368999839137" lon="8.971343391483055"><ele>278.8333333333333</ele><time>2026-04-11T10:46:30Z</time></trkpt><trkpt lat="44.82375448833628" lon="8.971361728525071"><ele>279.0</ele><time>2026-04-11T10:46:31Z</time></trkpt><trkpt lat="44.82383828494754" lon="8.971328579726777"><ele>277.0</ele><time>2026-04-11T10:46:32Z</time></trkpt><trkpt lat="44.823921042486894" lon="8.971257557509887"><ele>275.0</ele><time>2026-04-11T10:46:33Z</time></trkpt><trkpt lat="44.82399231071292" lon="8.97116802292389"><ele>273.0</ele><time>2026-04-11T10:46:34Z</time></trkpt><trkpt lat="44.82406402979668" lon="8.971066723112537"><ele>271.0</ele><time>2026-04-11T10:46:35Z</time></trkpt><trkpt lat="44.824141344661335" lon="8.970949853470403"><ele>269.0</ele><time>2026-04-11T10:46:36Z</time></trkpt><trkpt lat="44.8242169597274" lon="8.970822482697121"><ele>269.0</ele><time>2026-04-11T10:46:37Z</time></trkpt><trkpt lat="44.82428849746094" lon="8.9706894893653"><ele>269.0</ele><time>2026-04-11T10:46:38Z</time></trkpt><trkpt lat="44.82435542579921" lon="8.970549716649808"><ele>269.0</ele><time>2026-04-11T10:46:39Z</time></trkpt><trkpt lat="44.82441878991966" lon="8.970408348996589"><ele>269.0</ele><time>2026-04-11T10:46:40Z</time></trkpt><trkpt lat="44.82447761363427" lon="8.970277111128764"><ele>268.2</ele><time>2026-04-11T10:46:41Z</time></trkpt><trkpt lat="44.82453633311739" lon="8.97015036838064"><ele>267.4</ele><time>2026-04-11T10:46:42Z</time></trkpt><trkpt lat="44.82459503228414" lon="8.970032202003"><ele>266.6</ele><time>2026-04-11T10:46:43Z</time></trkpt><trkpt lat="44.82465795279936" lon="8.969924670767579"><ele>265.8</ele><time>2026-04-11T10:46:44Z</time></trkpt><trkpt lat="44.82472571354498" lon="8.969824100355837"><ele>265.0</ele><time>2026-04-11T10:46:45Z</time></trkpt><trkpt lat="44.824795459701214" lon="8.969730408567004"><ele>265.0</ele><time>2026-04-11T10:46:46Z</time></trkpt><trkpt lat="44.82486134488889" lon="8.969652653278935"><ele>265.0</ele><time>2026-04-11T10:46:47Z</time></trkpt><trkpt lat="44.82491991297677" lon="8.969592921155751"><ele>265.0</ele><time>2026-04-11T10:46:48Z</time></trkpt><trkpt lat="44.82497661927849" lon="8.969546309479531"><ele>265.0</ele><time>2026-04-11T10:46:49Z</time></trkpt><trkpt lat="44.82503904436633" lon="8.969511795002383"><ele>265.0</ele><time>2026-04-11T10:46:50Z</time></trkpt><trkpt lat="44.825150950458784" lon="8.969457473383567"><ele>265.0</ele><time>2026-04-11T10:46:52Z</time></trkpt><trkpt lat="44.8252601779686" lon="8.969511212234265"><ele>263.6</ele><time>2026-04-11T10:46:54Z</time></trkpt><trkpt lat="44.82532218785233" lon="8.969636418806077"><ele>262.2</ele><time>2026-04-11T10:46:56Z</time></trkpt><trkpt lat="44.82532218616836" lon="8.969725887495537"><ele>260.8</ele><time>2026-04-11T10:46:57Z</time></trkpt><trkpt lat="44.82531080049293" lon="8.969906816564961"><ele>259.4</ele><time>2026-04-11T10:46:59Z</time></trkpt><trkpt lat="44.82530641290848" lon="8.970015161417773"><ele>258.0</ele><time>2026-04-11T10:47:00Z</time></trkpt><trkpt lat="44.825302906846176" lon="8.97012426427496"><ele>257.1666666666667</ele><time>2026-04-11T10:47:01Z</time></trkpt><trkpt lat="44.8253027651758" lon="8.970239800793482"><ele>256.3333333333333</ele><time>2026-04-11T10:47:02Z</time></trkpt><trkpt lat="44.82530349683207" lon="8.970355247004834"><ele>255.5</ele><time>2026-04-11T10:47:03Z</time></trkpt><trkpt lat="44.82530727456291" lon="8.970460175780088"><ele>254.66666666666666</ele><time>2026-04-11T10:47:04Z</time></trkpt><trkpt lat="44.82533049027445" lon="8.970551931821698"><ele>253.83333333333331</ele><time>2026-04-11T10:47:05Z</time></trkpt><trkpt lat="44.825378794880834" lon="8.970628007920602"><ele>253.0</ele><time>2026-04-11T10:47:06Z</time></trkpt><trkpt lat="44.82545622950955" lon="8.970674074169416"><ele>252.99999999999997</ele><time>2026-04-11T10:47:07Z</time></trkpt><trkpt lat="44.82554062733961" lon="8.970697501574401"><ele>253.0</ele><time>2026-04-11T10:47:08Z</time></trkpt><trkpt lat="44.825621308223646" lon="8.97069906857176"><ele>253.0</ele><time>2026-04-11T10:47:09Z</time></trkpt><trkpt lat="44.82570041388947" lon="8.970721791519834"><ele>253.0</ele><time>2026-04-11T10:47:10Z</time></trkpt><trkpt lat="44.8257800253064" lon="8.970710466738291"><ele>252.99999999999997</ele><time>2026-04-11T10:47:11Z</time></trkpt><trkpt lat="44.82585948285891" lon="8.970691381757122"><ele>253.0</ele><time>2026-04-11T10:47:12Z</time></trkpt><trkpt lat="44.82593943205077" lon="8.97066169092905"><ele>250.60000000000002</ele><time>2026-04-11T10:47:13Z</time></trkpt><trkpt lat="44.826020981169705" lon="8.97062238770181"><ele>248.20000000000002</ele><time>2026-04-11T10:47:14Z</time></trkpt><trkpt lat="44.826101090312775" lon="8.970570549543172"><ele>245.8</ele><time>2026-04-11T10:47:15Z</time></trkpt><trkpt lat="44.82617646565413" lon="8.970501114481523"><ele>243.4</ele><time>2026-04-11T10:47:16Z</time></trkpt><trkpt lat="44.826240783555626" lon="8.97040410284302"><ele>241.0</ele><time>2026-04-11T10:47:17Z</time></trkpt><trkpt lat="44.826287148375016" lon="8.970286276603602"><ele>241.0</ele><time>2026-04-11T10:47:18Z</time></trkpt><trkpt lat="44.82631606808572" lon="8.970169159019402"><ele>241.00000000000003</ele><time>2026-04-11T10:47:19Z</time></trkpt><trkpt lat="44.826340102400195" lon="8.970050792192643"><ele>241.00000000000003</ele><time>2026-04-11T10:47:20Z</time></trkpt><trkpt lat="44.82636207580495" lon="8.969922299161208"><ele>241.0</ele><time>2026-04-11T10:47:21Z</time></trkpt><trkpt lat="44.826382738521644" lon="8.969793699765116"><ele>241.0</ele><time>2026-04-11T10:47:22Z</time></trkpt><trkpt lat="44.826402852885955" lon="8.969668513645297"><ele>241.4</ele><time>2026-04-11T10:47:23Z</time></trkpt><trkpt lat="44.826423932731196" lon="8.969540918760785"><ele>241.8</ele><time>2026-04-11T10:47:24Z</time></trkpt><trkpt lat="44.82644776603522" lon="8.969404792744808"><ele>242.20000000000002</ele><time>2026-04-11T10:47:25Z</time></trkpt><trkpt lat="44.82647215584403" lon="8.969272797612703"><ele>242.60000000000002</ele><time>2026-04-11T10:47:26Z</time></trkpt><trkpt lat="44.82649839867193" lon="8.969135907652774"><ele>243.0</ele><time>2026-04-11T10:47:27Z</time></trkpt><trkpt lat="44.82652639152286" lon="8.968994591669338"><ele>243.0</ele><time>2026-04-11T10:47:28Z</time></trkpt><trkpt lat="44.8265541402496" lon="8.96885450802365"><ele>243.0</ele><time>2026-04-11T10:47:29Z</time></trkpt><trkpt lat="44.826580288014924" lon="8.968738291669103"><ele>243.0</ele><time>2026-04-11T10:47:30Z</time></trkpt><trkpt lat="44.82661113998441" lon="8.968653488287604"><ele>243.0</ele><time>2026-04-11T10:47:31Z</time></trkpt><trkpt lat="44.826706503238654" lon="8.968555306871925"><ele>243.0</ele><time>2026-04-11T10:47:33Z</time></trkpt><trkpt lat="44.826779181319985" lon="8.968535046732695"><ele>243.0</ele><time>2026-04-11T10:47:34Z</time></trkpt><trkpt lat="44.82685598786794" lon="8.968546715644186"><ele>241.66666666666666</ele><time>2026-04-11T10:47:35Z</time></trkpt><trkpt lat="44.82693597992261" lon="8.968563294899974"><ele>240.33333333333331</ele><time>2026-04-11T10:47:36Z</time></trkpt><trkpt lat="44.827023925225234" lon="8.968566531835272"><ele>239.0</ele><time>2026-04-11T10:47:37Z</time></trkpt><trkpt lat="44.82711372025257" lon="8.968577990735131"><ele>237.66666666666666</ele><time>2026-04-11T10:47:38Z</time></trkpt><trkpt lat="44.82720413627554" lon="8.968596576218555"><ele>236.33333333333331</ele><time>2026-04-11T10:47:39Z</time></trkpt><trkpt lat="44.82729924094226" lon="8.96857620085995"><ele>235.0</ele><time>2026-04-11T10:47:40Z</time></trkpt><trkpt lat="44.82739767180721" lon="8.968533241930938"><ele>234.99999999999997</ele><time>2026-04-11T10:47:41Z</time></trkpt><trkpt lat="44.82749562365489" lon="8.968482064292738"><ele>235.0</ele><time>2026-04-11T10:47:42Z</time></trkpt><trkpt lat="44.82759051550257" lon="8.968424165269914"><ele>235.0</ele><time>2026-04-11T10:47:43Z</time></trkpt><trkpt lat="44.82767825864719" lon="8.968370114061123"><ele>235.0</ele><time>2026-04-11T10:47:44Z</time></trkpt><trkpt lat="44.827752880053254" lon="8.968332564435455"><ele>234.99999999999997</ele><time>2026-04-11T10:47:45Z</time></trkpt><trkpt lat="44.827812586494275" lon="8.968297645559673"><ele>235.0</ele><time>2026-04-11T10:47:46Z</time></trkpt><trkpt lat="44.827878122944384" lon="8.96832454942752"><ele>234.0</ele><time>2026-04-11T10:47:47Z</time></trkpt><trkpt lat="44.82793873600701" lon="8.968377997980872"><ele>233.0</ele><time>2026-04-11T10:47:48Z</time></trkpt><trkpt lat="44.82800081110261" lon="8.968399443047954"><ele>232.0</ele><time>2026-04-11T10:47:49Z</time></trkpt><trkpt lat="44.828135109112175" lon="8.96838744686973"><ele>231.0</ele><time>2026-04-11T10:47:51Z</time></trkpt><trkpt lat="44.82819979236727" lon="8.968289293176701"><ele>230.0</ele><time>2026-04-11T10:47:52Z</time></trkpt><trkpt lat="44.828235105441436" lon="8.968171442912764"><ele>229.00000000000003</ele><time>2026-04-11T10:47:53Z</time></trkpt><trkpt lat="44.828255669964605" lon="8.968061123778316"><ele>228.0</ele><time>2026-04-11T10:47:54Z</time></trkpt><trkpt lat="44.82827952452058" lon="8.967957283141331"><ele>227.0</ele><time>2026-04-11T10:47:55Z</time></trkpt><trkpt lat="44.82831440243173" lon="8.967861457200692"><ele>226.0</ele><time>2026-04-11T10:47:56Z</time></trkpt><trkpt lat="44.82836471639012" lon="8.967763914416729"><ele>225.00000000000003</ele><time>2026-04-11T10:47:57Z</time></trkpt><trkpt lat="44.82843312317627" lon="8.96766588089449"><ele>224.0</ele><time>2026-04-11T10:47:58Z</time></trkpt><trkpt lat="44.82850909154515" lon="8.967574374181428"><ele>221.0</ele><time>2026-04-11T10:47:59Z</time></trkpt><trkpt lat="44.82859196141655" lon="8.967482750229003"><ele>217.99999999999997</ele><time>2026-04-11T10:48:00Z</time></trkpt><trkpt lat="44.82867985510407" lon="8.967389163957177"><ele>215.0</ele><time>2026-04-11T10:48:01Z</time></trkpt><trkpt lat="44.82877024653765" lon="8.967296106064346"><ele>212.0</ele><time>2026-04-11T10:48:02Z</time></trkpt><trkpt lat="44.828862526570575" lon="8.967209932476495"><ele>209.0</ele><time>2026-04-11T10:48:03Z</time></trkpt><trkpt lat="44.82895843043495" lon="8.96712449312208"><ele>209.0</ele><time>2026-04-11T10:48:04Z</time></trkpt><trkpt lat="44.82905536774381" lon="8.967046766444609"><ele>209.0</ele><time>2026-04-11T10:48:05Z</time></trkpt><trkpt lat="44.82915760616096" lon="8.96697450397298"><ele>209.0</ele><time>2026-04-11T10:48:06Z</time></trkpt><trkpt lat="44.82924670789066" lon="8.966898076531418"><ele>209.0</ele><time>2026-04-11T10:48:07Z</time></trkpt><trkpt lat="44.82934806708223" lon="8.966866777465738"><ele>209.0</ele><time>2026-04-11T10:48:08Z</time></trkpt><trkpt lat="44.82946023266861" lon="8.966841653083023"><ele>206.0</ele><time>2026-04-11T10:48:09Z</time></trkpt><trkpt lat="44.82957857705135" lon="8.966821792048558"><ele>203.0</ele><time>2026-04-11T10:48:10Z</time></trkpt><trkpt lat="44.829700072891015" lon="8.966802196078635"><ele>200.0</ele><time>2026-04-11T10:48:11Z</time></trkpt><trkpt lat="44.8298177959932" lon="8.966782881048262"><ele>197.0</ele><time>2026-04-11T10:48:12Z</time></trkpt><trkpt lat="44.8299319271812" lon="8.966761795501561"><ele>197.0</ele><time>2026-04-11T10:48:13Z</time></trkpt><trkpt lat="44.830043571167636" lon="8.966740623283489"><ele>197.0</ele><time>2026-04-11T10:48:14Z</time></trkpt><trkpt lat="44.83015201683276" lon="8.9667212270177"><ele>197.0</ele><time>2026-04-11T10:48:15Z</time></trkpt><trkpt lat="44.83025566966564" lon="8.966703140620092"><ele>197.0</ele><time>2026-04-11T10:48:16Z</time></trkpt><trkpt lat="44.83034623759123" lon="8.966710339065449"><ele>197.0</ele><time>2026-04-11T10:48:17Z</time></trkpt><trkpt lat="44.83042260501641" lon="8.966699138972736"><ele>196.50000000000003</ele><time>2026-04-11T10:48:18Z</time></trkpt><trkpt lat="44.83049548241965" lon="8.966688055467841"><ele>196.0</ele><time>2026-04-11T10:48:19Z</time></trkpt><trkpt lat="44.830606652528125" lon="8.966671156796647"><ele>195.5</ele><time>2026-04-11T10:48:21Z</time></trkpt><trkpt lat="44.83070574731056" lon="8.966647663049445"><ele>195.0</ele><time>2026-04-11T10:48:23Z</time></trkpt><trkpt lat="44.83079153385882" lon="8.966633173521016"><ele>194.50000000000003</ele><time>2026-04-11T10:48:25Z</time></trkpt><trkpt lat="44.83085632825608" lon="8.966654491858973"><ele>194.0</ele><time>2026-04-11T10:48:28Z</time></trkpt><trkpt lat="44.83094602728445" lon="8.966654511395827"><ele>194.25</ele><time>2026-04-11T10:48:34Z</time></trkpt><trkpt lat="44.83101958172307" lon="8.966474277317813"><ele>194.5</ele><time>2026-04-11T10:48:35Z</time></trkpt><trkpt lat="44.83105997085011" lon="8.966371786228557"><ele>194.75</ele><time>2026-04-11T10:48:36Z</time></trkpt><trkpt lat="44.83111796782813" lon="8.96622799929186"><ele>195.0</ele><time>2026-04-11T10:48:37Z</time></trkpt><trkpt lat="44.83117826366597" lon="8.966084676985332"><ele>195.0</ele><time>2026-04-11T10:48:38Z</time></trkpt><trkpt lat="44.83125088472098" lon="8.965948205304386"><ele>195.0</ele><time>2026-04-11T10:48:39Z</time></trkpt><trkpt lat="44.831330698140235" lon="8.965839311295511"><ele>195.0</ele><time>2026-04-11T10:48:40Z</time></trkpt><trkpt lat="44.831416387250854" lon="8.965744433656843"><ele>195.0</ele><time>2026-04-11T10:48:41Z</time></trkpt><trkpt lat="44.83152094988735" lon="8.965657143435962"><ele>194.8</ele><time>2026-04-11T10:48:42Z</time></trkpt><trkpt lat="44.831628814548104" lon="8.965577045076206"><ele>194.6</ele><time>2026-04-11T10:48:43Z</time></trkpt><trkpt lat="44.83172117720031" lon="8.965490118693866"><ele>194.39999999999998</ele><time>2026-04-11T10:48:44Z</time></trkpt><trkpt lat="44.83181435515239" lon="8.965436454273119"><ele>194.2</ele><time>2026-04-11T10:48:45Z</time></trkpt><trkpt lat="44.831897530708076" lon="8.965414934906269"><ele>194.0</ele><time>2026-04-11T10:48:46Z</time></trkpt><trkpt lat="44.83198022798409" lon="8.965441912210421"><ele>194.79999999999998</ele><time>2026-04-11T10:48:47Z</time></trkpt><trkpt lat="44.83206792508293" lon="8.965493990938072"><ele>195.6</ele><time>2026-04-11T10:48:48Z</time></trkpt><trkpt lat="44.83215749021849" lon="8.965569593488565"><ele>196.4</ele><time>2026-04-11T10:48:49Z</time></trkpt><trkpt lat="44.83225571353526" lon="8.965664691925568"><ele>197.2</ele><time>2026-04-11T10:48:50Z</time></trkpt><trkpt lat="44.83235806678993" lon="8.965768639330753"><ele>198.0</ele><time>2026-04-11T10:48:51Z</time></trkpt><trkpt lat="44.832455050961265" lon="8.965872132433688"><ele>198.2</ele><time>2026-04-11T10:48:52Z</time></trkpt><trkpt lat="44.83254286704225" lon="8.965963663072865"><ele>198.4</ele><time>2026-04-11T10:48:53Z</time></trkpt><trkpt lat="44.83262667477255" lon="8.966040809679493"><ele>198.6</ele><time>2026-04-11T10:48:54Z</time></trkpt><trkpt lat="44.832712359874506" lon="8.96611594028746"><ele>198.79999999999998</ele><time>2026-04-11T10:48:55Z</time></trkpt><trkpt lat="44.83279037589358" lon="8.966188924611757"><ele>199.0</ele><time>2026-04-11T10:48:56Z</time></trkpt><trkpt lat="44.83285720397901" lon="8.966248160314816"><ele>199.33333333333331</ele><time>2026-04-11T10:48:57Z</time></trkpt><trkpt lat="44.83292673617942" lon="8.966332673392492"><ele>199.66666666666666</ele><time>2026-04-11T10:48:59Z</time></trkpt><trkpt lat="44.83294133843552" lon="8.966457489418119"><ele>200.0</ele><time>2026-04-11T10:49:01Z</time></trkpt><trkpt lat="44.83295472135107" lon="8.966559107794637"><ele>200.33333333333331</ele><time>2026-04-11T10:49:02Z</time></trkpt><trkpt lat="44.832967893059255" lon="8.966662262642675"><ele>200.66666666666666</ele><time>2026-04-11T10:49:03Z</time></trkpt><trkpt lat="44.83304998826374" lon="8.966754119453382"><ele>201.0</ele><time>2026-04-11T10:49:04Z</time></trkpt><trkpt lat="44.83314034062929" lon="8.966848877556467"><ele>201.60000000000002</ele><time>2026-04-11T10:49:05Z</time></trkpt><trkpt lat="44.83323450360264" lon="8.966930579639733"><ele>202.2</ele><time>2026-04-11T10:49:06Z</time></trkpt><trkpt lat="44.83331048409529" lon="8.9670120851534"><ele>202.8</ele><time>2026-04-11T10:49:07Z</time></trkpt><trkpt lat="44.83338193080133" lon="8.96711616006841"><ele>203.39999999999998</ele><time>2026-04-11T10:49:08Z</time></trkpt><trkpt lat="44.83343466612737" lon="8.967238101273429"><ele>204.0</ele><time>2026-04-11T10:49:09Z</time></trkpt><trkpt lat="44.833472054342444" lon="8.967382450662353"><ele>205.5</ele><time>2026-04-11T10:49:10Z</time></trkpt><trkpt lat="44.83349588291356" lon="8.967548469148978"><ele>207.0</ele><time>2026-04-11T10:49:11Z</time></trkpt><trkpt lat="44.833518973359354" lon="8.96771830026077"><ele>208.5</ele><time>2026-04-11T10:49:12Z</time></trkpt><trkpt lat="44.83355275604805" lon="8.967883736789332"><ele>210.0</ele><time>2026-04-11T10:49:13Z</time></trkpt><trkpt lat="44.83359999708078" lon="8.968052182156065"><ele>210.0</ele><time>2026-04-11T10:49:14Z</time></trkpt><trkpt lat="44.83365407847972" lon="8.96822840811455"><ele>210.0</ele><time>2026-04-11T10:49:15Z</time></trkpt><trkpt lat="44.83371747902708" lon="8.968397917680972"><ele>210.0</ele><time>2026-04-11T10:49:16Z</time></trkpt><trkpt lat="44.83378297131298" lon="8.968561518216843"><ele>210.0</ele><time>2026-04-11T10:49:17Z</time></trkpt><trkpt lat="44.83384052429756" lon="8.968709560392037"><ele>210.25</ele><time>2026-04-11T10:49:18Z</time></trkpt><trkpt lat="44.833897780261275" lon="8.968848883114212"><ele>210.5</ele><time>2026-04-11T10:49:19Z</time></trkpt><trkpt lat="44.83397279256182" lon="8.968979152901865"><ele>210.75</ele><time>2026-04-11T10:49:20Z</time></trkpt><trkpt lat="44.83406038439768" lon="8.969089563348412"><ele>211.0</ele><time>2026-04-11T10:49:21Z</time></trkpt><trkpt lat="44.83415404318534" lon="8.969185716412815"><ele>211.60000000000002</ele><time>2026-04-11T10:49:22Z</time></trkpt><trkpt lat="44.83424089406818" lon="8.969270194359265"><ele>212.2</ele><time>2026-04-11T10:49:23Z</time></trkpt><trkpt lat="44.83432023633669" lon="8.969353073346841"><ele>212.79999999999998</ele><time>2026-04-11T10:49:24Z</time></trkpt><trkpt lat="44.834369958357854" lon="8.969446906622847"><ele>213.39999999999998</ele><time>2026-04-11T10:49:25Z</time></trkpt><trkpt lat="44.8343869924383" lon="8.96955315769126"><ele>214.0</ele><time>2026-04-11T10:49:26Z</time></trkpt><trkpt lat="44.83437991214545" lon="8.969682609586812"><ele>215.5</ele><time>2026-04-11T10:49:27Z</time></trkpt><trkpt lat="44.83435456042878" lon="8.969831645086549"><ele>217.0</ele><time>2026-04-11T10:49:28Z</time></trkpt><trkpt lat="44.83430800675475" lon="8.969975467496464"><ele>218.5</ele><time>2026-04-11T10:49:29Z</time></trkpt><trkpt lat="44.834248232288786" lon="8.970127378203388"><ele>220.0</ele><time>2026-04-11T10:49:30Z</time></trkpt><trkpt lat="44.83418383961209" lon="8.97028711412738"><ele>220.5</ele><time>2026-04-11T10:49:31Z</time></trkpt><trkpt lat="44.83413864189184" lon="8.970426021652989"><ele>221.0</ele><time>2026-04-11T10:49:32Z</time></trkpt><trkpt lat="44.83409785467093" lon="8.970570613495715"><ele>221.5</ele><time>2026-04-11T10:49:33Z</time></trkpt><trkpt lat="44.834064804984344" lon="8.970724439522403"><ele>222.0</ele><time>2026-04-11T10:49:34Z</time></trkpt><trkpt lat="44.834041000054654" lon="8.970890981729463"><ele>223.25</ele><time>2026-04-11T10:49:35Z</time></trkpt><trkpt lat="44.83402335550275" lon="8.971076308817475"><ele>224.5</ele><time>2026-04-11T10:49:36Z</time></trkpt><trkpt lat="44.83400534405455" lon="8.971267967247398"><ele>225.75</ele><time>2026-04-11T10:49:37Z</time></trkpt><trkpt lat="44.83399082358879" lon="8.971458378684908"><ele>227.0</ele><time>2026-04-11T10:49:38Z</time></trkpt><trkpt lat="44.83398954756974" lon="8.971641150221686"><ele>227.0</ele><time>2026-04-11T10:49:39Z</time></trkpt><trkpt lat="44.83400515420545" lon="8.971811590099973"><ele>227.0</ele><time>2026-04-11T10:49:40Z</time></trkpt><trkpt lat="44.83402886388276" lon="8.971990920087658"><ele>227.0</ele><time>2026-04-11T10:49:41Z</time></trkpt><trkpt lat="44.83405670268895" lon="8.972161888895311"><ele>227.0</ele><time>2026-04-11T10:49:42Z</time></trkpt><trkpt lat="44.83408861660239" lon="8.972323519179001"><ele>227.0</ele><time>2026-04-11T10:49:43Z</time></trkpt><trkpt lat="44.834133611201736" lon="8.972488162447476"><ele>227.0</ele><time>2026-04-11T10:49:44Z</time></trkpt><trkpt lat="44.83418412602364" lon="8.972655764023495"><ele>227.0</ele><time>2026-04-11T10:49:45Z</time></trkpt><trkpt lat="44.83424853739486" lon="8.972835419010341"><ele>227.0</ele><time>2026-04-11T10:49:46Z</time></trkpt><trkpt lat="44.83431644766907" lon="8.97303627155152"><ele>229.75</ele><time>2026-04-11T10:49:47Z</time></trkpt><trkpt lat="44.83438233222142" lon="8.973231552628057"><ele>232.5</ele><time>2026-04-11T10:49:48Z</time></trkpt><trkpt lat="44.834439114358425" lon="8.973402168595255"><ele>235.25</ele><time>2026-04-11T10:49:49Z</time></trkpt><trkpt lat="44.83448948443011" lon="8.97354977239801"><ele>238.0</ele><time>2026-04-11T10:49:50Z</time></trkpt><trkpt lat="44.83453092068684" lon="8.97365808210482"><ele>237.99999999999997</ele><time>2026-04-11T10:49:51Z</time></trkpt><trkpt lat="44.834578302229666" lon="8.973734032806297"><ele>238.0</ele><time>2026-04-11T10:49:52Z</time></trkpt><trkpt lat="44.834635835285916" lon="8.973778931375856"><ele>238.0</ele><time>2026-04-11T10:49:53Z</time></trkpt><trkpt lat="44.834707983784135" lon="8.973800676817007"><ele>238.0</ele><time>2026-04-11T10:49:54Z</time></trkpt><trkpt lat="44.83478996606223" lon="8.973804421826483"><ele>237.99999999999997</ele><time>2026-04-11T10:49:55Z</time></trkpt><trkpt lat="44.83487937547601" lon="8.973801329295075"><ele>238.0</ele><time>2026-04-11T10:49:56Z</time></trkpt><trkpt lat="44.83497587162673" lon="8.973798354579117"><ele>237.99999999999997</ele><time>2026-04-11T10:49:57Z</time></trkpt><trkpt lat="44.83506668626938" lon="8.973812785542234"><ele>238.0</ele><time>2026-04-11T10:49:58Z</time></trkpt><trkpt lat="44.835132652043995" lon="8.973849024729214"><ele>238.0</ele><time>2026-04-11T10:49:59Z</time></trkpt><trkpt lat="44.83518599244833" lon="8.973906979404628"><ele>238.0</ele><time>2026-04-11T10:50:00Z</time></trkpt><trkpt lat="44.83523642044446" lon="8.973976904375931"><ele>237.99999999999997</ele><time>2026-04-11T10:50:01Z</time></trkpt><trkpt lat="44.83529516058289" lon="8.974047158932361"><ele>238.0</ele><time>2026-04-11T10:50:02Z</time></trkpt><trkpt lat="44.835361471287236" lon="8.97410912920157"><ele>239.2</ele><time>2026-04-11T10:50:03Z</time></trkpt><trkpt lat="44.8354291620706" lon="8.974174945598238"><ele>240.4</ele><time>2026-04-11T10:50:04Z</time></trkpt><trkpt lat="44.83550402534801" lon="8.974241699970337"><ele>241.59999999999997</ele><time>2026-04-11T10:50:05Z</time></trkpt><trkpt lat="44.83557341435917" lon="8.974293718492943"><ele>242.79999999999998</ele><time>2026-04-11T10:50:06Z</time></trkpt><trkpt lat="44.83568716260471" lon="8.974351112244966"><ele>244.0</ele><time>2026-04-11T10:50:07Z</time></trkpt><trkpt lat="44.83580797944463" lon="8.974405435516772"><ele>244.0</ele><time>2026-04-11T10:50:08Z</time></trkpt><trkpt lat="44.83592503716509" lon="8.974450830862605"><ele>244.0</ele><time>2026-04-11T10:50:09Z</time></trkpt><trkpt lat="44.83604512733315" lon="8.974504349175445"><ele>244.0</ele><time>2026-04-11T10:50:10Z</time></trkpt><trkpt lat="44.836164834291154" lon="8.974569727769799"><ele>244.0</ele><time>2026-04-11T10:50:11Z</time></trkpt><trkpt lat="44.8362766650493" lon="8.974659663243537"><ele>247.0</ele><time>2026-04-11T10:50:12Z</time></trkpt><trkpt lat="44.83638663018349" lon="8.974762811820309"><ele>250.0</ele><time>2026-04-11T10:50:13Z</time></trkpt><trkpt lat="44.83649880794393" lon="8.974843894543818"><ele>253.0</ele><time>2026-04-11T10:50:14Z</time></trkpt><trkpt lat="44.83662572340699" lon="8.97491117149761"><ele>256.0</ele><time>2026-04-11T10:50:15Z</time></trkpt><trkpt lat="44.83675271657703" lon="8.974997677978022"><ele>258.25</ele><time>2026-04-11T10:50:16Z</time></trkpt><trkpt lat="44.836894338119" lon="8.975051583785497"><ele>260.5</ele><time>2026-04-11T10:50:17Z</time></trkpt><trkpt lat="44.83703000807818" lon="8.975112840926547"><ele>262.75</ele><time>2026-04-11T10:50:18Z</time></trkpt><trkpt lat="44.8371416206218" lon="8.975172043112574"><ele>265.0</ele><time>2026-04-11T10:50:19Z</time></trkpt><trkpt lat="44.837227680540686" lon="8.975223042424902"><ele>265.0</ele><time>2026-04-11T10:50:20Z</time></trkpt><trkpt lat="44.83729069107146" lon="8.97530317048567"><ele>265.0</ele><time>2026-04-11T10:50:21Z</time></trkpt><trkpt lat="44.837328442057526" lon="8.975401261672193"><ele>265.0</ele><time>2026-04-11T10:50:22Z</time></trkpt><trkpt lat="44.837348461349684" lon="8.975523637429323"><ele>265.0</ele><time>2026-04-11T10:50:23Z</time></trkpt><trkpt lat="44.837361580024925" lon="8.975679658148842"><ele>265.0</ele><time>2026-04-11T10:50:24Z</time></trkpt><trkpt lat="44.83739311867461" lon="8.975789214272634"><ele>265.0</ele><time>2026-04-11T10:50:25Z</time></trkpt><trkpt lat="44.83744668625776" lon="8.975861238327433"><ele>265.8333333333333</ele><time>2026-04-11T10:50:26Z</time></trkpt><trkpt lat="44.837513773636914" lon="8.975897654577297"><ele>266.66666666666663</ele><time>2026-04-11T10:50:27Z</time></trkpt><trkpt lat="44.83759114231533" lon="8.975912268523969"><ele>267.5</ele><time>2026-04-11T10:50:28Z</time></trkpt><trkpt lat="44.837678978524586" lon="8.975896914965741"><ele>268.3333333333333</ele><time>2026-04-11T10:50:29Z</time></trkpt><trkpt lat="44.83777967025341" lon="8.975883962524504"><ele>269.1666666666667</ele><time>2026-04-11T10:50:30Z</time></trkpt><trkpt lat="44.83787416956531" lon="8.975834826713479"><ele>270.0</ele><time>2026-04-11T10:50:31Z</time></trkpt><trkpt lat="44.8379505604928" lon="8.975759894827586"><ele>270.6</ele><time>2026-04-11T10:50:32Z</time></trkpt><trkpt lat="44.83801850475053" lon="8.975670342503461"><ele>271.2</ele><time>2026-04-11T10:50:33Z</time></trkpt><trkpt lat="44.838042503669975" lon="8.975519396592432"><ele>271.8</ele><time>2026-04-11T10:50:34Z</time></trkpt><trkpt lat="44.83803879137837" lon="8.975360189561199"><ele>272.4</ele><time>2026-04-11T10:50:35Z</time></trkpt><trkpt lat="44.8380225840894" lon="8.975178266690417"><ele>273.0</ele><time>2026-04-11T10:50:36Z</time></trkpt><trkpt lat="44.83801775197936" lon="8.975034862415354"><ele>273.5</ele><time>2026-04-11T10:50:37Z</time></trkpt><trkpt lat="44.838020607188284" lon="8.97491679154458"><ele>274.0</ele><time>2026-04-11T10:50:38Z</time></trkpt><trkpt lat="44.838030580957835" lon="8.974814248294186"><ele>274.5</ele><time>2026-04-11T10:50:39Z</time></trkpt><trkpt lat="44.838043996554134" lon="8.974723441720931"><ele>275.0</ele><time>2026-04-11T10:50:40Z</time></trkpt><trkpt lat="44.83807546945683" lon="8.974585584322153"><ele>275.5</ele><time>2026-04-11T10:50:42Z</time></trkpt><trkpt lat="44.83811065372461" lon="8.974505486937337"><ele>276.0</ele><time>2026-04-11T10:50:44Z</time></trkpt><trkpt lat="44.8381955509725" lon="8.97451573428718"><ele>276.0</ele><time>2026-04-11T10:50:45Z</time></trkpt><trkpt lat="44.838261904871935" lon="8.974476336136872"><ele>276.0</ele><time>2026-04-11T10:50:46Z</time></trkpt><trkpt lat="44.83835356796872" lon="8.974473900944716"><ele>276.0</ele><time>2026-04-11T10:50:47Z</time></trkpt><trkpt lat="44.83847170591475" lon="8.974438719546594"><ele>276.0</ele><time>2026-04-11T10:50:48Z</time></trkpt><trkpt lat="44.838585595229155" lon="8.974401550957573"><ele>276.0</ele><time>2026-04-11T10:50:49Z</time></trkpt><trkpt lat="44.838702443239534" lon="8.974338444715714"><ele>278.5</ele><time>2026-04-11T10:50:50Z</time></trkpt><trkpt lat="44.838837908879725" lon="8.97431696581346"><ele>281.0</ele><time>2026-04-11T10:50:51Z</time></trkpt><trkpt lat="44.83897323498876" lon="8.974317129011643"><ele>283.5</ele><time>2026-04-11T10:50:52Z</time></trkpt><trkpt lat="44.83910136279622" lon="8.974320860868886"><ele>286.0</ele><time>2026-04-11T10:50:53Z</time></trkpt><trkpt lat="44.83921933364528" lon="8.9743208792911"><ele>287.0</ele><time>2026-04-11T10:50:54Z</time></trkpt><trkpt lat="44.839322296441075" lon="8.974326191866709"><ele>288.0</ele><time>2026-04-11T10:50:55Z</time></trkpt><trkpt lat="44.8394187930488" lon="8.974340728261522"><ele>289.0</ele><time>2026-04-11T10:50:56Z</time></trkpt><trkpt lat="44.83951726275193" lon="8.974369369350761"><ele>290.0</ele><time>2026-04-11T10:50:57Z</time></trkpt><trkpt lat="44.839606752742284" lon="8.974411577615635"><ele>291.0</ele><time>2026-04-11T10:50:58Z</time></trkpt><trkpt lat="44.83967716528367" lon="8.97446898381983"><ele>291.0</ele><time>2026-04-11T10:50:59Z</time></trkpt><trkpt lat="44.83973335087829" lon="8.974546150438787"><ele>291.0</ele><time>2026-04-11T10:51:00Z</time></trkpt><trkpt lat="44.83977694631146" lon="8.974648693761168"><ele>291.0</ele><time>2026-04-11T10:51:01Z</time></trkpt><trkpt lat="44.83982904518634" lon="8.97478878099052"><ele>291.0</ele><time>2026-04-11T10:51:02Z</time></trkpt><trkpt lat="44.83989601940363" lon="8.974967531903312"><ele>291.0</ele><time>2026-04-11T10:51:03Z</time></trkpt><trkpt lat="44.83996686210217" lon="8.975166250537798"><ele>292.3333333333333</ele><time>2026-04-11T10:51:04Z</time></trkpt><trkpt lat="44.84003694387699" lon="8.97536603818099"><ele>293.66666666666663</ele><time>2026-04-11T10:51:05Z</time></trkpt><trkpt lat="44.840109390889985" lon="8.975566582508437"><ele>295.0</ele><time>2026-04-11T10:51:06Z</time></trkpt><trkpt lat="44.84016549119273" lon="8.975760533724284"><ele>296.75</ele><time>2026-04-11T10:51:07Z</time></trkpt><trkpt lat="44.840221661245934" lon="8.975963364835025"><ele>298.5</ele><time>2026-04-11T10:51:08Z</time></trkpt><trkpt lat="44.84026842668945" lon="8.97614915622434"><ele>300.25</ele><time>2026-04-11T10:51:09Z</time></trkpt><trkpt lat="44.84032863181021" lon="8.976305324984882"><ele>302.0</ele><time>2026-04-11T10:51:10Z</time></trkpt><trkpt lat="44.84040544901941" lon="8.976475333156653"><ele>302.0</ele><time>2026-04-11T10:51:11Z</time></trkpt><trkpt lat="44.84047861969688" lon="8.97663856954392"><ele>302.0</ele><time>2026-04-11T10:51:12Z</time></trkpt><trkpt lat="44.84052780931366" lon="8.976777203211986"><ele>302.0</ele><time>2026-04-11T10:51:13Z</time></trkpt><trkpt lat="44.84055511242135" lon="8.976932258268087"><ele>302.0</ele><time>2026-04-11T10:51:14Z</time></trkpt><trkpt lat="44.84055961992564" lon="8.977099790646134"><ele>303.0</ele><time>2026-04-11T10:51:15Z</time></trkpt><trkpt lat="44.840564383002636" lon="8.977267887761197"><ele>304.0</ele><time>2026-04-11T10:51:16Z</time></trkpt><trkpt lat="44.84057578362466" lon="8.977427384241325"><ele>305.0</ele><time>2026-04-11T10:51:17Z</time></trkpt><trkpt lat="44.84059546268606" lon="8.977577576834655"><ele>306.0</ele><time>2026-04-11T10:51:18Z</time></trkpt><trkpt lat="44.84062404724898" lon="8.977705375763787"><ele>307.0</ele><time>2026-04-11T10:51:19Z</time></trkpt><trkpt lat="44.84067273221117" lon="8.977803286371083"><ele>308.8</ele><time>2026-04-11T10:51:20Z</time></trkpt><trkpt lat="44.84074008803115" lon="8.977881297250521"><ele>310.6</ele><time>2026-04-11T10:51:21Z</time></trkpt><trkpt lat="44.84083313225872" lon="8.977969400165103"><ele>312.40000000000003</ele><time>2026-04-11T10:51:22Z</time></trkpt><trkpt lat="44.84093702518875" lon="8.97806680135378"><ele>314.2</ele><time>2026-04-11T10:51:23Z</time></trkpt><trkpt lat="44.84103442564999" lon="8.978157610670674"><ele>316.0</ele><time>2026-04-11T10:51:24Z</time></trkpt><trkpt lat="44.841132360240046" lon="8.978255925211192"><ele>318.5</ele><time>2026-04-11T10:51:25Z</time></trkpt><trkpt lat="44.84123069200884" lon="8.978357414981613"><ele>321.0</ele><time>2026-04-11T10:51:26Z</time></trkpt><trkpt lat="44.841322187561275" lon="8.978464034517621"><ele>323.5</ele><time>2026-04-11T10:51:27Z</time></trkpt><trkpt lat="44.84140278814117" lon="8.978582402878034"><ele>326.0</ele><time>2026-04-11T10:51:28Z</time></trkpt><trkpt lat="44.84148187002815" lon="8.978687058412675"><ele>326.0</ele><time>2026-04-11T10:51:29Z</time></trkpt><trkpt lat="44.84156479787396" lon="8.978768444148857"><ele>326.0</ele><time>2026-04-11T10:51:30Z</time></trkpt><trkpt lat="44.84165571341745" lon="8.9788377329328"><ele>326.0</ele><time>2026-04-11T10:51:31Z</time></trkpt><trkpt lat="44.84174565516248" lon="8.978885747599229"><ele>326.0</ele><time>2026-04-11T10:51:32Z</time></trkpt><trkpt lat="44.84183411415865" lon="8.978929781860021"><ele>326.0</ele><time>2026-04-11T10:51:33Z</time></trkpt><trkpt lat="44.8419149576963" lon="8.97897449416155"><ele>326.6</ele><time>2026-04-11T10:51:34Z</time></trkpt><trkpt lat="44.84198517496217" lon="8.979033365369563"><ele>327.20000000000005</ele><time>2026-04-11T10:51:35Z</time></trkpt><trkpt lat="44.84205255366596" lon="8.979103584303406"><ele>327.79999999999995</ele><time>2026-04-11T10:51:36Z</time></trkpt><trkpt lat="44.84212629739096" lon="8.979188663639391"><ele>328.4</ele><time>2026-04-11T10:51:37Z</time></trkpt><trkpt lat="44.84220511064149" lon="8.979291249196413"><ele>329.0</ele><time>2026-04-11T10:51:38Z</time></trkpt><trkpt lat="44.842279866742814" lon="8.979411376392994"><ele>329.0</ele><time>2026-04-11T10:51:39Z</time></trkpt><trkpt lat="44.84234918484048" lon="8.97954074019348"><ele>329.0</ele><time>2026-04-11T10:51:40Z</time></trkpt><trkpt lat="44.84241402573368" lon="8.979664627514717"><ele>329.0</ele><time>2026-04-11T10:51:41Z</time></trkpt><trkpt lat="44.84248509013038" lon="8.9797794709452"><ele>329.0</ele><time>2026-04-11T10:51:42Z</time></trkpt><trkpt lat="44.84256493343478" lon="8.979891795425681"><ele>329.0</ele><time>2026-04-11T10:51:43Z</time></trkpt><trkpt lat="44.84265499119768" lon="8.979997093612608"><ele>327.5</ele><time>2026-04-11T10:51:44Z</time></trkpt><trkpt lat="44.84275304075785" lon="8.980119981249013"><ele>326.0</ele><time>2026-04-11T10:51:45Z</time></trkpt><trkpt lat="44.84286924854446" lon="8.980230602038901"><ele>324.5</ele><time>2026-04-11T10:51:46Z</time></trkpt><trkpt lat="44.84299548118985" lon="8.980318125097272"><ele>323.0</ele><time>2026-04-11T10:51:47Z</time></trkpt><trkpt lat="44.843107703185844" lon="8.980428933172657"><ele>323.0</ele><time>2026-04-11T10:51:48Z</time></trkpt><trkpt lat="44.84321844125833" lon="8.980550524867732"><ele>323.0</ele><time>2026-04-11T10:51:49Z</time></trkpt><trkpt lat="44.84332069641011" lon="8.980665754755258"><ele>323.0</ele><time>2026-04-11T10:51:50Z</time></trkpt><trkpt lat="44.84341706213955" lon="8.980773730459676"><ele>323.0</ele><time>2026-04-11T10:51:51Z</time></trkpt><trkpt lat="44.843513304108" lon="8.980856590147138"><ele>319.4</ele><time>2026-04-11T10:51:52Z</time></trkpt><trkpt lat="44.843612030300044" lon="8.98091451925329"><ele>315.79999999999995</ele><time>2026-04-11T10:51:53Z</time></trkpt><trkpt lat="44.84371767441012" lon="8.980955229976718"><ele>312.2</ele><time>2026-04-11T10:51:54Z</time></trkpt><trkpt lat="44.84383090612936" lon="8.980987153854795"><ele>308.6</ele><time>2026-04-11T10:51:55Z</time></trkpt><trkpt lat="44.843943392799794" lon="8.981014983461222"><ele>305.0</ele><time>2026-04-11T10:51:56Z</time></trkpt><trkpt lat="44.84405775493015" lon="8.98105031476899"><ele>305.0</ele><time>2026-04-11T10:51:57Z</time></trkpt><trkpt lat="44.84417066938921" lon="8.981080169156936"><ele>305.0</ele><time>2026-04-11T10:51:58Z</time></trkpt><trkpt lat="44.84429610829385" lon="8.981084995763394"><ele>305.0</ele><time>2026-04-11T10:51:59Z</time></trkpt><trkpt lat="44.84441389949235" lon="8.981064453314811"><ele>305.0</ele><time>2026-04-11T10:52:00Z</time></trkpt><trkpt lat="44.84451847253758" lon="8.981040894641664"><ele>306.0</ele><time>2026-04-11T10:52:01Z</time></trkpt><trkpt lat="44.844615674327144" lon="8.981020272494158"><ele>307.0</ele><time>2026-04-11T10:52:02Z</time></trkpt><trkpt lat="44.844704147437895" lon="8.980983897174395"><ele>308.0</ele><time>2026-04-11T10:52:03Z</time></trkpt><trkpt lat="44.84479099253741" lon="8.980998137704459"><ele>309.0</ele><time>2026-04-11T10:52:04Z</time></trkpt><trkpt lat="44.84489179622876" lon="8.980970779297989"><ele>310.0</ele><time>2026-04-11T10:52:05Z</time></trkpt><trkpt lat="44.84497485891189" lon="8.980911827124315"><ele>310.0</ele><time>2026-04-11T10:52:06Z</time></trkpt><trkpt lat="44.84505819564946" lon="8.980863644673397"><ele>310.0</ele><time>2026-04-11T10:52:07Z</time></trkpt><trkpt lat="44.8451302378021" lon="8.980839133316906"><ele>310.0</ele><time>2026-04-11T10:52:08Z</time></trkpt><trkpt lat="44.84520066952192" lon="8.980842309304265"><ele>310.0</ele><time>2026-04-11T10:52:09Z</time></trkpt><trkpt lat="44.84528283650407" lon="8.980919205212274"><ele>310.0</ele><time>2026-04-11T10:52:10Z</time></trkpt><trkpt lat="44.84538793054478" lon="8.980998416401393"><ele>314.66666666666663</ele><time>2026-04-11T10:52:11Z</time></trkpt><trkpt lat="44.845517450464925" lon="8.981090016551688"><ele>319.3333333333333</ele><time>2026-04-11T10:52:12Z</time></trkpt><trkpt lat="44.84568335112759" lon="8.981121058816981"><ele>324.0</ele><time>2026-04-11T10:52:13Z</time></trkpt><trkpt lat="44.84583281569675" lon="8.981169362373766"><ele>329.6</ele><time>2026-04-11T10:52:14Z</time></trkpt><trkpt lat="44.84596323350693" lon="8.981216700199719"><ele>335.2</ele><time>2026-04-11T10:52:15Z</time></trkpt><trkpt lat="44.84607052252912" lon="8.981258072241857"><ele>340.8</ele><time>2026-04-11T10:52:16Z</time></trkpt><trkpt lat="44.84615782493889" lon="8.981320474294504"><ele>346.40000000000003</ele><time>2026-04-11T10:52:17Z</time></trkpt><trkpt lat="44.8462197311914" lon="8.981396502522156"><ele>352.0</ele><time>2026-04-11T10:52:18Z</time></trkpt><trkpt lat="44.84628231503605" lon="8.981525554841282"><ele>352.0</ele><time>2026-04-11T10:52:19Z</time></trkpt><trkpt lat="44.846373688137696" lon="8.98165664985471"><ele>352.0</ele><time>2026-04-11T10:52:20Z</time></trkpt><trkpt lat="44.84649611163614" lon="8.981782387065504"><ele>352.0</ele><time>2026-04-11T10:52:21Z</time></trkpt><trkpt lat="44.84662778406402" lon="8.98190684870268"><ele>352.0</ele><time>2026-04-11T10:52:22Z</time></trkpt><trkpt lat="44.84676283027266" lon="8.982058548242323"><ele>354.3333333333333</ele><time>2026-04-11T10:52:23Z</time></trkpt><trkpt lat="44.84688558085074" lon="8.982221848491978"><ele>356.6666666666667</ele><time>2026-04-11T10:52:24Z</time></trkpt><trkpt lat="44.847001362563496" lon="8.982375860700403"><ele>359.0</ele><time>2026-04-11T10:52:25Z</time></trkpt><trkpt lat="44.847103731757485" lon="8.982492009395914"><ele>354.25</ele><time>2026-04-11T10:52:26Z</time></trkpt><trkpt lat="44.847222391935524" lon="8.982590892396699"><ele>349.5</ele><time>2026-04-11T10:52:27Z</time></trkpt><trkpt lat="44.847346976776116" lon="8.982688414298481"><ele>344.75</ele><time>2026-04-11T10:52:28Z</time></trkpt><trkpt lat="44.847462172642985" lon="8.982807099649936"><ele>340.0</ele><time>2026-04-11T10:52:29Z</time></trkpt><trkpt lat="44.84757330269172" lon="8.982921759122982"><ele>346.75</ele><time>2026-04-11T10:52:30Z</time></trkpt><trkpt lat="44.847690427878106" lon="8.983025396835135"><ele>353.5</ele><time>2026-04-11T10:52:31Z</time></trkpt><trkpt lat="44.84781538493884" lon="8.983125821888981"><ele>360.25</ele><time>2026-04-11T10:52:32Z</time></trkpt><trkpt lat="44.847919463429854" lon="8.983224083412011"><ele>367.0</ele><time>2026-04-11T10:52:33Z</time></trkpt><trkpt lat="44.84801789402878" lon="8.983331586702091"><ele>364.25</ele><time>2026-04-11T10:52:34Z</time></trkpt><trkpt lat="44.84811828459802" lon="8.98344794146746"><ele>361.5</ele><time>2026-04-11T10:52:35Z</time></trkpt><trkpt lat="44.84820239072629" lon="8.983564629419375"><ele>358.75</ele><time>2026-04-11T10:52:36Z</time></trkpt><trkpt lat="44.84828538483985" lon="8.983703851151997"><ele>356.0</ele><time>2026-04-11T10:52:37Z</time></trkpt><trkpt lat="44.84835469154866" lon="8.983817015669036"><ele>356.0</ele><time>2026-04-11T10:52:38Z</time></trkpt><trkpt lat="44.84842117722219" lon="8.983914643249129"><ele>356.0</ele><time>2026-04-11T10:52:39Z</time></trkpt><trkpt lat="44.84851279538409" lon="8.983979933910893"><ele>356.0</ele><time>2026-04-11T10:52:40Z</time></trkpt><trkpt lat="44.84861774841539" lon="8.983993211942506"><ele>356.0</ele><time>2026-04-11T10:52:41Z</time></trkpt><trkpt lat="44.84873487529562" lon="8.984041659016155"><ele>356.0</ele><time>2026-04-11T10:52:42Z</time></trkpt><trkpt lat="44.84885798232729" lon="8.98407374977133"><ele>358.6</ele><time>2026-04-11T10:52:43Z</time></trkpt><trkpt lat="44.848955727855696" lon="8.984102929344377"><ele>361.20000000000005</ele><time>2026-04-11T10:52:44Z</time></trkpt><trkpt lat="44.84904093796596" lon="8.984130894948953"><ele>363.79999999999995</ele><time>2026-04-11T10:52:45Z</time></trkpt><trkpt lat="44.84913350607221" lon="8.9841485570554"><ele>366.4</ele><time>2026-04-11T10:52:46Z</time></trkpt><trkpt lat="44.84921987612432" lon="8.984208035043752"><ele>369.0</ele><time>2026-04-11T10:52:47Z</time></trkpt><trkpt lat="44.849300892285655" lon="8.984290795973637"><ele>371.0</ele><time>2026-04-11T10:52:48Z</time></trkpt><trkpt lat="44.84937367980564" lon="8.984396548975683"><ele>373.0</ele><time>2026-04-11T10:52:49Z</time></trkpt><trkpt lat="44.84943373516417" lon="8.984518220644079"><ele>375.0</ele><time>2026-04-11T10:52:50Z</time></trkpt><trkpt lat="44.8494894664095" lon="8.984647897979391"><ele>377.0</ele><time>2026-04-11T10:52:51Z</time></trkpt><trkpt lat="44.849547299158665" lon="8.98478494169325"><ele>379.0</ele><time>2026-04-11T10:52:52Z</time></trkpt><trkpt lat="44.849595324985565" lon="8.984936622820408"><ele>381.5</ele><time>2026-04-11T10:52:53Z</time></trkpt><trkpt lat="44.849634333434096" lon="8.98509939344367"><ele>384.0</ele><time>2026-04-11T10:52:54Z</time></trkpt><trkpt lat="44.84966315738469" lon="8.98527519992654"><ele>386.5</ele><time>2026-04-11T10:52:55Z</time></trkpt><trkpt lat="44.84968714654427" lon="8.985445573999629"><ele>389.0</ele><time>2026-04-11T10:52:56Z</time></trkpt><trkpt lat="44.849709052354825" lon="8.985585339042215"><ele>389.0</ele><time>2026-04-11T10:52:57Z</time></trkpt><trkpt lat="44.84973436697861" lon="8.985705420136195"><ele>389.0</ele><time>2026-04-11T10:52:58Z</time></trkpt><trkpt lat="44.849779361135695" lon="8.98582188636638"><ele>389.0</ele><time>2026-04-11T10:52:59Z</time></trkpt><trkpt lat="44.84984351384709" lon="8.985929254934996"><ele>389.0</ele><time>2026-04-11T10:53:00Z</time></trkpt><trkpt lat="44.849920679858386" lon="8.986025952889324"><ele>389.0</ele><time>2026-04-11T10:53:01Z</time></trkpt><trkpt lat="44.85000819597415" lon="8.98612017414608"><ele>392.0</ele><time>2026-04-11T10:53:02Z</time></trkpt><trkpt lat="44.85011706837263" lon="8.986219909627897"><ele>395.0</ele><time>2026-04-11T10:53:03Z</time></trkpt><trkpt lat="44.850232421301584" lon="8.98633527279348"><ele>398.0</ele><time>2026-04-11T10:53:04Z</time></trkpt><trkpt lat="44.850333704562864" lon="8.986447638845185"><ele>401.0</ele><time>2026-04-11T10:53:05Z</time></trkpt><trkpt lat="44.85044475459961" lon="8.986577322860708"><ele>403.75</ele><time>2026-04-11T10:53:06Z</time></trkpt><trkpt lat="44.850565098240004" lon="8.986724529133737"><ele>406.5</ele><time>2026-04-11T10:53:07Z</time></trkpt><trkpt lat="44.85067598866714" lon="8.986842914312355"><ele>409.25</ele><time>2026-04-11T10:53:08Z</time></trkpt><trkpt lat="44.85077441787292" lon="8.98695022115761"><ele>412.0</ele><time>2026-04-11T10:53:09Z</time></trkpt><trkpt lat="44.850869460938384" lon="8.98704310874744"><ele>412.6</ele><time>2026-04-11T10:53:10Z</time></trkpt><trkpt lat="44.850965275513836" lon="8.987135033203154"><ele>413.20000000000005</ele><time>2026-04-11T10:53:11Z</time></trkpt><trkpt lat="44.85104640018223" lon="8.987211068462562"><ele>413.8</ele><time>2026-04-11T10:53:12Z</time></trkpt><trkpt lat="44.85111467024266" lon="8.987265981524036"><ele>414.4</ele><time>2026-04-11T10:53:13Z</time></trkpt><trkpt lat="44.85118597769995" lon="8.987348926476502"><ele>415.0</ele><time>2026-04-11T10:53:15Z</time></trkpt><trkpt lat="44.851274807103955" lon="8.987425551408297"><ele>415.0</ele><time>2026-04-11T10:53:18Z</time></trkpt><trkpt lat="44.851337637525305" lon="8.987463995098507"><ele>415.0</ele><time>2026-04-11T10:53:19Z</time></trkpt><trkpt lat="44.85141945273344" lon="8.98746450641749"><ele>415.0</ele><time>2026-04-11T10:53:20Z</time></trkpt><trkpt lat="44.85150769949653" lon="8.987602036200462"><ele>415.0</ele><time>2026-04-11T10:53:21Z</time></trkpt><trkpt lat="44.85160577966138" lon="8.987642274322782"><ele>415.0</ele><time>2026-04-11T10:53:22Z</time></trkpt><trkpt lat="44.851697177506765" lon="8.98768558472445"><ele>410.0</ele><time>2026-04-11T10:53:23Z</time></trkpt><trkpt lat="44.851792720720205" lon="8.987719140924534"><ele>405.0</ele><time>2026-04-11T10:53:24Z</time></trkpt><trkpt lat="44.85189041937573" lon="8.987748818429695"><ele>400.0</ele><time>2026-04-11T10:53:25Z</time></trkpt><trkpt lat="44.85198214952365" lon="8.987771077937929"><ele>395.0</ele><time>2026-04-11T10:53:26Z</time></trkpt><trkpt lat="44.85207252367385" lon="8.987796515106812"><ele>390.0</ele><time>2026-04-11T10:53:27Z</time></trkpt><trkpt lat="44.85216350354873" lon="8.987806554893977"><ele>390.0</ele><time>2026-04-11T10:53:28Z</time></trkpt><trkpt lat="44.85225176998645" lon="8.987787060585013"><ele>390.0</ele><time>2026-04-11T10:53:29Z</time></trkpt><trkpt lat="44.85234592329892" lon="8.987768678522736"><ele>390.0</ele><time>2026-04-11T10:53:30Z</time></trkpt><trkpt lat="44.85243742712356" lon="8.987708549977828"><ele>390.0</ele><time>2026-04-11T10:53:31Z</time></trkpt><trkpt lat="44.852533915850195" lon="8.987629870392446"><ele>390.0</ele><time>2026-04-11T10:53:32Z</time></trkpt><trkpt lat="44.85262304949636" lon="8.987557585194212"><ele>390.6</ele><time>2026-04-11T10:53:33Z</time></trkpt><trkpt lat="44.85271429285313" lon="8.98748434236379"><ele>391.2</ele><time>2026-04-11T10:53:34Z</time></trkpt><trkpt lat="44.85280652803182" lon="8.987417407742003"><ele>391.79999999999995</ele><time>2026-04-11T10:53:35Z</time></trkpt><trkpt lat="44.852896914853915" lon="8.987342024392273"><ele>392.4</ele><time>2026-04-11T10:53:36Z</time></trkpt><trkpt lat="44.852992313895726" lon="8.987282453042369"><ele>393.0</ele><time>2026-04-11T10:53:37Z</time></trkpt><trkpt lat="44.85308742041305" lon="8.987226432316366"><ele>393.0</ele><time>2026-04-11T10:53:38Z</time></trkpt><trkpt lat="44.85318297845281" lon="8.987181779228322"><ele>393.0</ele><time>2026-04-11T10:53:39Z</time></trkpt><trkpt lat="44.853282360901105" lon="8.987151876230492"><ele>393.0</ele><time>2026-04-11T10:53:40Z</time></trkpt><trkpt lat="44.85338036737993" lon="8.987138632945648"><ele>393.0</ele><time>2026-04-11T10:53:41Z</time></trkpt><trkpt lat="44.853476109588556" lon="8.987119782189286"><ele>393.0</ele><time>2026-04-11T10:53:42Z</time></trkpt><trkpt lat="44.85356790321032" lon="8.987082506737611"><ele>391.3333333333333</ele><time>2026-04-11T10:53:43Z</time></trkpt><trkpt lat="44.853649749305454" lon="8.987030431641575"><ele>389.6666666666667</ele><time>2026-04-11T10:53:44Z</time></trkpt><trkpt lat="44.8537364387552" lon="8.986980408918294"><ele>388.0</ele><time>2026-04-11T10:53:45Z</time></trkpt><trkpt lat="44.853798503101274" lon="8.986896273098955"><ele>386.33333333333337</ele><time>2026-04-11T10:53:46Z</time></trkpt><trkpt lat="44.853880713535254" lon="8.986832031749497"><ele>384.6666666666667</ele><time>2026-04-11T10:53:48Z</time></trkpt><trkpt lat="44.85394563504896" lon="8.98688624210733"><ele>383.0</ele><time>2026-04-11T10:53:50Z</time></trkpt><trkpt lat="44.853945395263594" lon="8.987044644888439"><ele>383.0</ele><time>2026-04-11T10:53:52Z</time></trkpt><trkpt lat="44.85390234304115" lon="8.987199703879167"><ele>383.0</ele><time>2026-04-11T10:53:54Z</time></trkpt><trkpt lat="44.85390348748005" lon="8.98729084889198"><ele>383.0</ele><time>2026-04-11T10:53:55Z</time></trkpt><trkpt lat="44.85394378669988" lon="8.987451648084448"><ele>383.0</ele><time>2026-04-11T10:53:57Z</time></trkpt><trkpt lat="44.85398187992759" lon="8.987529005452252"><ele>383.0</ele><time>2026-04-11T10:53:58Z</time></trkpt><trkpt lat="44.85405486021493" lon="8.987628488093877"><ele>381.6666666666667</ele><time>2026-04-11T10:53:59Z</time></trkpt><trkpt lat="44.854151132198744" lon="8.987765830041534"><ele>380.3333333333333</ele><time>2026-04-11T10:54:00Z</time></trkpt><trkpt lat="44.85425434632594" lon="8.987912292137597"><ele>379.0</ele><time>2026-04-11T10:54:01Z</time></trkpt><trkpt lat="44.85437677541246" lon="8.98807871655572"><ele>376.66666666666663</ele><time>2026-04-11T10:54:02Z</time></trkpt><trkpt lat="44.85450642938971" lon="8.988263136666706"><ele>374.3333333333333</ele><time>2026-04-11T10:54:03Z</time></trkpt><trkpt lat="44.85463937991415" lon="8.988461371977074"><ele>372.0</ele><time>2026-04-11T10:54:04Z</time></trkpt><trkpt lat="44.85477841733715" lon="8.988667583773902"><ele>372.0</ele><time>2026-04-11T10:54:05Z</time></trkpt><trkpt lat="44.85491286591753" lon="8.988870706647562"><ele>372.0</ele><time>2026-04-11T10:54:06Z</time></trkpt><trkpt lat="44.855043598235014" lon="8.989064071960101"><ele>372.0</ele><time>2026-04-11T10:54:07Z</time></trkpt><trkpt lat="44.85517479510244" lon="8.989251158436874"><ele>371.0</ele><time>2026-04-11T10:54:08Z</time></trkpt><trkpt lat="44.8553030629142" lon="8.989445304184459"><ele>370.0</ele><time>2026-04-11T10:54:09Z</time></trkpt><trkpt lat="44.85542190383723" lon="8.989636663355798"><ele>369.0</ele><time>2026-04-11T10:54:10Z</time></trkpt><trkpt lat="44.855533390556616" lon="8.989833087898003"><ele>368.0</ele><time>2026-04-11T10:54:11Z</time></trkpt><trkpt lat="44.85564275154355" lon="8.990037862582529"><ele>367.0</ele><time>2026-04-11T10:54:12Z</time></trkpt><trkpt lat="44.85575429582094" lon="8.990250373284631"><ele>366.0</ele><time>2026-04-11T10:54:13Z</time></trkpt><trkpt lat="44.855864071151416" lon="8.990450247455643"><ele>367.0</ele><time>2026-04-11T10:54:14Z</time></trkpt><trkpt lat="44.85596953476882" lon="8.990641397200399"><ele>368.0</ele><time>2026-04-11T10:54:15Z</time></trkpt><trkpt lat="44.85607666552319" lon="8.990838470723924"><ele>369.0</ele><time>2026-04-11T10:54:16Z</time></trkpt><trkpt lat="44.85618528971414" lon="8.991020330054832"><ele>369.0</ele><time>2026-04-11T10:54:17Z</time></trkpt><trkpt lat="44.856294689938" lon="8.991188249649504"><ele>369.0</ele><time>2026-04-11T10:54:18Z</time></trkpt><trkpt lat="44.856404521381165" lon="8.991349301927533"><ele>369.0</ele><time>2026-04-11T10:54:19Z</time></trkpt><trkpt lat="44.85651081931256" lon="8.991496081861637"><ele>369.0</ele><time>2026-04-11T10:54:20Z</time></trkpt><trkpt lat="44.85660795883516" lon="8.991624946608818"><ele>369.0</ele><time>2026-04-11T10:54:21Z</time></trkpt><trkpt lat="44.8566960596706" lon="8.99173966576187"><ele>369.0</ele><time>2026-04-11T10:54:22Z</time></trkpt><trkpt lat="44.85677438848198" lon="8.991860001210819"><ele>369.0</ele><time>2026-04-11T10:54:23Z</time></trkpt><trkpt lat="44.85684313941316" lon="8.991983935811653"><ele>369.2</ele><time>2026-04-11T10:54:24Z</time></trkpt><trkpt lat="44.85688996050047" lon="8.992117574811019"><ele>369.4</ele><time>2026-04-11T10:54:25Z</time></trkpt><trkpt lat="44.85691961141193" lon="8.992259173297793"><ele>369.6</ele><time>2026-04-11T10:54:26Z</time></trkpt><trkpt lat="44.85693890873645" lon="8.992403169713036"><ele>369.8</ele><time>2026-04-11T10:54:27Z</time></trkpt><trkpt lat="44.85695700521951" lon="8.992545075827792"><ele>370.0</ele><time>2026-04-11T10:54:28Z</time></trkpt><trkpt lat="44.85698556598748" lon="8.992678897743653"><ele>369.0</ele><time>2026-04-11T10:54:29Z</time></trkpt><trkpt lat="44.85703021628371" lon="8.992809324341732"><ele>368.0</ele><time>2026-04-11T10:54:30Z</time></trkpt><trkpt lat="44.85708832908371" lon="8.992936921695952"><ele>367.0</ele><time>2026-04-11T10:54:31Z</time></trkpt><trkpt lat="44.857159281588885" lon="8.993055052986282"><ele>366.0</ele><time>2026-04-11T10:54:32Z</time></trkpt><trkpt lat="44.85724431683068" lon="8.993148914418468"><ele>365.0</ele><time>2026-04-11T10:54:33Z</time></trkpt><trkpt lat="44.857337483055986" lon="8.993228910473356"><ele>365.0</ele><time>2026-04-11T10:54:34Z</time></trkpt><trkpt lat="44.8574427927061" lon="8.99330077808853"><ele>365.0</ele><time>2026-04-11T10:54:35Z</time></trkpt><trkpt lat="44.85755960990621" lon="8.993362621437695"><ele>365.0</ele><time>2026-04-11T10:54:36Z</time></trkpt><trkpt lat="44.85766819399379" lon="8.993415136917879"><ele>365.0</ele><time>2026-04-11T10:54:37Z</time></trkpt><trkpt lat="44.85777024197397" lon="8.99347806496274"><ele>364.8</ele><time>2026-04-11T10:54:38Z</time></trkpt><trkpt lat="44.85786193732787" lon="8.993561181950545"><ele>364.6</ele><time>2026-04-11T10:54:39Z</time></trkpt><trkpt lat="44.85793755629068" lon="8.99366686739212"><ele>364.4</ele><time>2026-04-11T10:54:40Z</time></trkpt><trkpt lat="44.85799816399523" lon="8.993789268271103"><ele>364.2</ele><time>2026-04-11T10:54:41Z</time></trkpt><trkpt lat="44.858048456511305" lon="8.993927782908571"><ele>364.0</ele><time>2026-04-11T10:54:42Z</time></trkpt><trkpt lat="44.85810482747628" lon="8.994074854089583"><ele>363.0</ele><time>2026-04-11T10:54:43Z</time></trkpt><trkpt lat="44.85815942590561" lon="8.994212934373245"><ele>362.0</ele><time>2026-04-11T10:54:44Z</time></trkpt><trkpt lat="44.8582163805532" lon="8.994342010362367"><ele>361.0</ele><time>2026-04-11T10:54:45Z</time></trkpt><trkpt lat="44.85827076172318" lon="8.994472591529522"><ele>360.0</ele><time>2026-04-11T10:54:46Z</time></trkpt><trkpt lat="44.858327196660454" lon="8.99461843012363"><ele>359.0</ele><time>2026-04-11T10:54:47Z</time></trkpt><trkpt lat="44.85838512153429" lon="8.994773032488958"><ele>359.0</ele><time>2026-04-11T10:54:48Z</time></trkpt><trkpt lat="44.85843980012419" lon="8.994925048338294"><ele>359.0</ele><time>2026-04-11T10:54:49Z</time></trkpt><trkpt lat="44.85849377002632" lon="8.995078825512266"><ele>359.0</ele><time>2026-04-11T10:54:50Z</time></trkpt><trkpt lat="44.85854447264339" lon="8.995233953818506"><ele>359.0</ele><time>2026-04-11T10:54:51Z</time></trkpt><trkpt lat="44.85858852374333" lon="8.995392010694355"><ele>359.75</ele><time>2026-04-11T10:54:52Z</time></trkpt><trkpt lat="44.85861423076674" lon="8.995555110264624"><ele>360.5</ele><time>2026-04-11T10:54:53Z</time></trkpt><trkpt lat="44.85863181088382" lon="8.995716659863692"><ele>361.25</ele><time>2026-04-11T10:54:54Z</time></trkpt><trkpt lat="44.85864358316608" lon="8.99587699698805"><ele>362.0</ele><time>2026-04-11T10:54:55Z</time></trkpt><trkpt lat="44.858655737371244" lon="8.996032355976647"><ele>358.6</ele><time>2026-04-11T10:54:56Z</time></trkpt><trkpt lat="44.85867094164199" lon="8.996183370874672"><ele>355.20000000000005</ele><time>2026-04-11T10:54:57Z</time></trkpt><trkpt lat="44.858678493501294" lon="8.996328405178147"><ele>351.8</ele><time>2026-04-11T10:54:58Z</time></trkpt><trkpt lat="44.858672207332894" lon="8.996468005609309"><ele>348.4</ele><time>2026-04-11T10:54:59Z</time></trkpt><trkpt lat="44.85864828706564" lon="8.996604734526313"><ele>345.0</ele><time>2026-04-11T10:55:00Z</time></trkpt><trkpt lat="44.8586068974901" lon="8.996729407313042"><ele>343.4</ele><time>2026-04-11T10:55:01Z</time></trkpt><trkpt lat="44.85856004381219" lon="8.996849399803015"><ele>341.8</ele><time>2026-04-11T10:55:02Z</time></trkpt><trkpt lat="44.85849901820371" lon="8.996959024274526"><ele>340.20000000000005</ele><time>2026-04-11T10:55:03Z</time></trkpt><trkpt lat="44.85842977085474" lon="8.997071709613508"><ele>338.6</ele><time>2026-04-11T10:55:04Z</time></trkpt><trkpt lat="44.85836636119759" lon="8.997184905959362"><ele>337.0</ele><time>2026-04-11T10:55:05Z</time></trkpt><trkpt lat="44.85830214171043" lon="8.997291801216392"><ele>337.0</ele><time>2026-04-11T10:55:06Z</time></trkpt><trkpt lat="44.85823626820305" lon="8.997375587848461"><ele>337.0</ele><time>2026-04-11T10:55:07Z</time></trkpt><trkpt lat="44.858168651390265" lon="8.997425039111087"><ele>337.0</ele><time>2026-04-11T10:55:08Z</time></trkpt><trkpt lat="44.85809510641575" lon="8.997448095223744"><ele>337.0</ele><time>2026-04-11T10:55:09Z</time></trkpt><trkpt lat="44.85801806560403" lon="8.997444241299506"><ele>337.0</ele><time>2026-04-11T10:55:10Z</time></trkpt><trkpt lat="44.85793983111928" lon="8.997400275171051"><ele>337.0</ele><time>2026-04-11T10:55:11Z</time></trkpt><trkpt lat="44.85787041417506" lon="8.99728992195329"><ele>337.0</ele><time>2026-04-11T10:55:12Z</time></trkpt><trkpt lat="44.85776037316122" lon="8.99717518101985"><ele>337.0</ele><time>2026-04-11T10:55:13Z</time></trkpt><trkpt lat="44.857631920964" lon="8.997040424021073"><ele>337.0</ele><time>2026-04-11T10:55:14Z</time></trkpt><trkpt lat="44.857493993083835" lon="8.996894768832881"><ele>337.25</ele><time>2026-04-11T10:55:15Z</time></trkpt><trkpt lat="44.85736875429479" lon="8.996764021461665"><ele>337.5</ele><time>2026-04-11T10:55:16Z</time></trkpt><trkpt lat="44.85725890895166" lon="8.99664581439094"><ele>337.75</ele><time>2026-04-11T10:55:17Z</time></trkpt><trkpt lat="44.8571533905299" lon="8.996518224374576"><ele>338.0</ele><time>2026-04-11T10:55:18Z</time></trkpt><trkpt lat="44.8570740614911" lon="8.996400260274068"><ele>338.0</ele><time>2026-04-11T10:55:19Z</time></trkpt><trkpt lat="44.85700714489256" lon="8.996305182297617"><ele>338.0</ele><time>2026-04-11T10:55:20Z</time></trkpt><trkpt lat="44.85694688013919" lon="8.996254204365785"><ele>338.0</ele><time>2026-04-11T10:55:21Z</time></trkpt><trkpt lat="44.85687137047365" lon="8.996276026722423"><ele>338.0</ele><time>2026-04-11T10:55:22Z</time></trkpt><trkpt lat="44.856815269628434" lon="8.996318262048927"><ele>338.0</ele><time>2026-04-11T10:55:23Z</time></trkpt><trkpt lat="44.85678617209484" lon="8.99649747978995"><ele>338.0</ele><time>2026-04-11T10:55:25Z</time></trkpt><trkpt lat="44.85681052817308" lon="8.996588944538672"><ele>336.59999999999997</ele><time>2026-04-11T10:55:26Z</time></trkpt><trkpt lat="44.85685510997352" lon="8.99668873971433"><ele>335.2</ele><time>2026-04-11T10:55:27Z</time></trkpt><trkpt lat="44.856918519854375" lon="8.99678584852273"><ele>333.8</ele><time>2026-04-11T10:55:28Z</time></trkpt><trkpt lat="44.85699289130355" lon="8.996870540689176"><ele>332.4</ele><time>2026-04-11T10:55:29Z</time></trkpt><trkpt lat="44.857065982591784" lon="8.99696096286305"><ele>331.0</ele><time>2026-04-11T10:55:30Z</time></trkpt><trkpt lat="44.85713279994306" lon="8.997063550833495"><ele>331.0</ele><time>2026-04-11T10:55:31Z</time></trkpt><trkpt lat="44.857180223561016" lon="8.997182990318104"><ele>331.0</ele><time>2026-04-11T10:55:32Z</time></trkpt><trkpt lat="44.85720395372019" lon="8.997321406861824"><ele>331.0</ele><time>2026-04-11T10:55:33Z</time></trkpt><trkpt lat="44.85720668314786" lon="8.997493583132925"><ele>331.0</ele><time>2026-04-11T10:55:34Z</time></trkpt><trkpt lat="44.85720753736203" lon="8.997685678910164"><ele>328.75</ele><time>2026-04-11T10:55:35Z</time></trkpt><trkpt lat="44.85722706284466" lon="8.99786041233041"><ele>326.5</ele><time>2026-04-11T10:55:36Z</time></trkpt><trkpt lat="44.85724979054775" lon="8.998036974059008"><ele>324.25</ele><time>2026-04-11T10:55:37Z</time></trkpt><trkpt lat="44.857272823355686" lon="8.998216378777824"><ele>322.0</ele><time>2026-04-11T10:55:38Z</time></trkpt><trkpt lat="44.857288993776734" lon="8.99840144481568"><ele>319.75</ele><time>2026-04-11T10:55:39Z</time></trkpt><trkpt lat="44.85731035795026" lon="8.998582085325994"><ele>317.5</ele><time>2026-04-11T10:55:40Z</time></trkpt><trkpt lat="44.85734435984013" lon="8.998759241494618"><ele>315.25</ele><time>2026-04-11T10:55:41Z</time></trkpt><trkpt lat="44.85738836490403" lon="8.998945851054268"><ele>313.0</ele><time>2026-04-11T10:55:42Z</time></trkpt><trkpt lat="44.8574357689624" lon="8.99913046604325"><ele>311.25</ele><time>2026-04-11T10:55:43Z</time></trkpt><trkpt lat="44.85748324843332" lon="8.999308090326595"><ele>309.5</ele><time>2026-04-11T10:55:44Z</time></trkpt><trkpt lat="44.857530301499196" lon="8.999464349540466"><ele>307.75</ele><time>2026-04-11T10:55:45Z</time></trkpt><trkpt lat="44.85758661918806" lon="8.999611009354197"><ele>306.0</ele><time>2026-04-11T10:55:46Z</time></trkpt><trkpt lat="44.85765471578152" lon="8.999743338069038"><ele>305.1666666666667</ele><time>2026-04-11T10:55:47Z</time></trkpt><trkpt lat="44.85772780821439" lon="8.99986122360004"><ele>304.3333333333333</ele><time>2026-04-11T10:55:48Z</time></trkpt><trkpt lat="44.85778607528669" lon="8.999962686216703"><ele>303.5</ele><time>2026-04-11T10:55:49Z</time></trkpt><trkpt lat="44.857834022631856" lon="9.0000476483397"><ele>302.66666666666663</ele><time>2026-04-11T10:55:50Z</time></trkpt><trkpt lat="44.85786602451489" lon="9.000131601551574"><ele>301.8333333333333</ele><time>2026-04-11T10:55:51Z</time></trkpt><trkpt lat="44.85788151212769" lon="9.000227374224457"><ele>301.0</ele><time>2026-04-11T10:55:52Z</time></trkpt><trkpt lat="44.85787899624591" lon="9.000326189110746"><ele>301.0</ele><time>2026-04-11T10:55:53Z</time></trkpt><trkpt lat="44.85785633811637" lon="9.000414818380543"><ele>301.0</ele><time>2026-04-11T10:55:54Z</time></trkpt><trkpt lat="44.85781954595867" lon="9.00049269669235"><ele>301.0</ele><time>2026-04-11T10:55:55Z</time></trkpt><trkpt lat="44.85776983043088" lon="9.000550603118402"><ele>301.0</ele><time>2026-04-11T10:55:56Z</time></trkpt><trkpt lat="44.857709193540366" lon="9.000577451708503"><ele>301.0</ele><time>2026-04-11T10:55:57Z</time></trkpt><trkpt lat="44.85760341673036" lon="9.00049873575257"><ele>301.0</ele><time>2026-04-11T10:55:59Z</time></trkpt><trkpt lat="44.857554073020495" lon="9.000428631322805"><ele>301.8333333333333</ele><time>2026-04-11T10:56:00Z</time></trkpt><trkpt lat="44.85751680340027" lon="9.000337191142075"><ele>302.66666666666663</ele><time>2026-04-11T10:56:01Z</time></trkpt><trkpt lat="44.85748842707775" lon="9.000244935258452"><ele>303.5</ele><time>2026-04-11T10:56:02Z</time></trkpt><trkpt lat="44.85745818925666" lon="9.000153242743968"><ele>304.3333333333333</ele><time>2026-04-11T10:56:03Z</time></trkpt><trkpt lat="44.85740219231066" lon="9.000014874418545"><ele>305.1666666666667</ele><time>2026-04-11T10:56:05Z</time></trkpt><trkpt lat="44.85728482821899" lon="9.000006966972773"><ele>306.0</ele><time>2026-04-11T10:56:07Z</time></trkpt><trkpt lat="44.857215500810895" lon="9.000105367670258"><ele>306.0</ele><time>2026-04-11T10:56:09Z</time></trkpt><trkpt lat="44.857237206657246" lon="9.00027489140884"><ele>306.0</ele><time>2026-04-11T10:56:11Z</time></trkpt><trkpt lat="44.85726792569861" lon="9.00037002291747"><ele>306.0</ele><time>2026-04-11T10:56:12Z</time></trkpt><trkpt lat="44.85730736922805" lon="9.000511902107535"><ele>306.0</ele><time>2026-04-11T10:56:13Z</time></trkpt><trkpt lat="44.85732474987761" lon="9.00065759669636"><ele>306.0</ele><time>2026-04-11T10:56:14Z</time></trkpt><trkpt lat="44.857322050127635" lon="9.000801987251682"><ele>305.0</ele><time>2026-04-11T10:56:15Z</time></trkpt><trkpt lat="44.857307631850205" lon="9.00094067062082"><ele>304.0</ele><time>2026-04-11T10:56:16Z</time></trkpt><trkpt lat="44.85729485668979" lon="9.001075770670685"><ele>303.0</ele><time>2026-04-11T10:56:17Z</time></trkpt><trkpt lat="44.85728499953166" lon="9.00121072218641"><ele>302.0</ele><time>2026-04-11T10:56:18Z</time></trkpt><trkpt lat="44.85727652653575" lon="9.001343451097775"><ele>301.0</ele><time>2026-04-11T10:56:19Z</time></trkpt><trkpt lat="44.85727083664271" lon="9.001475490443505"><ele>301.0</ele><time>2026-04-11T10:56:20Z</time></trkpt><trkpt lat="44.857275750556795" lon="9.00160501318162"><ele>301.0</ele><time>2026-04-11T10:56:21Z</time></trkpt><trkpt lat="44.857295620654476" lon="9.0017327297902"><ele>301.0</ele><time>2026-04-11T10:56:22Z</time></trkpt><trkpt lat="44.857322682664616" lon="9.001855769353813"><ele>301.0</ele><time>2026-04-11T10:56:23Z</time></trkpt><trkpt lat="44.85735242929138" lon="9.001970112962475"><ele>301.0</ele><time>2026-04-11T10:56:24Z</time></trkpt><trkpt lat="44.85738934458522" lon="9.002064711317802"><ele>301.0</ele><time>2026-04-11T10:56:25Z</time></trkpt><trkpt lat="44.857442679156144" lon="9.002140036902073"><ele>299.8333333333333</ele><time>2026-04-11T10:56:26Z</time></trkpt><trkpt lat="44.857507018844956" lon="9.002183546116962"><ele>298.66666666666663</ele><time>2026-04-11T10:56:27Z</time></trkpt><trkpt lat="44.85757150686631" lon="9.002205935011956"><ele>297.5</ele><time>2026-04-11T10:56:28Z</time></trkpt><trkpt lat="44.857636499608745" lon="9.002213442532762"><ele>296.3333333333333</ele><time>2026-04-11T10:56:29Z</time></trkpt><trkpt lat="44.85775886235345" lon="9.00222853082634"><ele>295.1666666666667</ele><time>2026-04-11T10:56:31Z</time></trkpt><trkpt lat="44.85784967426386" lon="9.002286100745378"><ele>294.0</ele><time>2026-04-11T10:56:33Z</time></trkpt><trkpt lat="44.85787241926791" lon="9.002399443935841"><ele>294.0</ele><time>2026-04-11T10:56:35Z</time></trkpt><trkpt lat="44.85778701688143" lon="9.002480490269111"><ele>294.0</ele><time>2026-04-11T10:56:37Z</time></trkpt><trkpt lat="44.85771790592158" lon="9.002486115252289"><ele>294.0</ele><time>2026-04-11T10:56:38Z</time></trkpt><trkpt lat="44.85765078696292" lon="9.002474956335003"><ele>294.0</ele><time>2026-04-11T10:56:39Z</time></trkpt><trkpt lat="44.857567560584386" lon="9.002470947084499"><ele>294.0</ele><time>2026-04-11T10:56:40Z</time></trkpt><trkpt lat="44.85747827390024" lon="9.00246642897288"><ele>294.0</ele><time>2026-04-11T10:56:41Z</time></trkpt><trkpt lat="44.857392775595926" lon="9.002467872438427"><ele>294.0</ele><time>2026-04-11T10:56:42Z</time></trkpt><trkpt lat="44.8573021106947" lon="9.002468940784295"><ele>294.0</ele><time>2026-04-11T10:56:43Z</time></trkpt><trkpt lat="44.85721102144431" lon="9.002473082207684"><ele>294.0</ele><time>2026-04-11T10:56:44Z</time></trkpt><trkpt lat="44.85712126257161" lon="9.002475046377056"><ele>294.0</ele><time>2026-04-11T10:56:45Z</time></trkpt><trkpt lat="44.85703236487367" lon="9.002467397264159"><ele>294.0</ele><time>2026-04-11T10:56:46Z</time></trkpt><trkpt lat="44.85694557285396" lon="9.002455017018045"><ele>294.0</ele><time>2026-04-11T10:56:47Z</time></trkpt><trkpt lat="44.85686856479475" lon="9.002400271440843"><ele>294.0</ele><time>2026-04-11T10:56:48Z</time></trkpt><trkpt lat="44.85679252842736" lon="9.0023508681626"><ele>294.0</ele><time>2026-04-11T10:56:49Z</time></trkpt><trkpt lat="44.85671873178444" lon="9.002294104623378"><ele>294.0</ele><time>2026-04-11T10:56:50Z</time></trkpt><trkpt lat="44.85665670126646" lon="9.002221845248137"><ele>294.0</ele><time>2026-04-11T10:56:51Z</time></trkpt><trkpt lat="44.856602683283974" lon="9.002135029347825"><ele>294.0</ele><time>2026-04-11T10:56:52Z</time></trkpt><trkpt lat="44.85656344651805" lon="9.002035766907538"><ele>294.0</ele><time>2026-04-11T10:56:53Z</time></trkpt><trkpt lat="44.85654757853434" lon="9.001925453995677"><ele>292.3333333333333</ele><time>2026-04-11T10:56:54Z</time></trkpt><trkpt lat="44.856537182386916" lon="9.001808971540168"><ele>290.6666666666667</ele><time>2026-04-11T10:56:55Z</time></trkpt><trkpt lat="44.856526799206094" lon="9.00168983839345"><ele>289.0</ele><time>2026-04-11T10:56:56Z</time></trkpt><trkpt lat="44.85651155063298" lon="9.001572447606005"><ele>287.33333333333337</ele><time>2026-04-11T10:56:57Z</time></trkpt><trkpt lat="44.8564875724723" lon="9.001457710167584"><ele>285.6666666666667</ele><time>2026-04-11T10:56:58Z</time></trkpt><trkpt lat="44.85644549567307" lon="9.001351428765302"><ele>284.0</ele><time>2026-04-11T10:56:59Z</time></trkpt><trkpt lat="44.85638602083579" lon="9.001264948124334"><ele>284.0</ele><time>2026-04-11T10:57:00Z</time></trkpt><trkpt lat="44.85632139077981" lon="9.001197741409648"><ele>284.0</ele><time>2026-04-11T10:57:01Z</time></trkpt><trkpt lat="44.85624652010545" lon="9.001146690353169"><ele>284.0</ele><time>2026-04-11T10:57:02Z</time></trkpt><trkpt lat="44.856165476271514" lon="9.001114987508611"><ele>284.0</ele><time>2026-04-11T10:57:03Z</time></trkpt><trkpt lat="44.8560818973785" lon="9.00110493045838"><ele>284.0</ele><time>2026-04-11T10:57:04Z</time></trkpt><trkpt lat="44.85600389640193" lon="9.001083605715596"><ele>284.0</ele><time>2026-04-11T10:57:05Z</time></trkpt><trkpt lat="44.85592656908097" lon="9.001050148519798"><ele>283.1666666666667</ele><time>2026-04-11T10:57:06Z</time></trkpt><trkpt lat="44.85586255597479" lon="9.000989339057316"><ele>282.33333333333337</ele><time>2026-04-11T10:57:07Z</time></trkpt><trkpt lat="44.85580503141167" lon="9.000911945521626"><ele>281.5</ele><time>2026-04-11T10:57:08Z</time></trkpt><trkpt lat="44.855749018006655" lon="9.000829931377789"><ele>280.6666666666667</ele><time>2026-04-11T10:57:09Z</time></trkpt><trkpt lat="44.85569297489891" lon="9.000744010110068"><ele>279.8333333333333</ele><time>2026-04-11T10:57:10Z</time></trkpt><trkpt lat="44.8556372209045" lon="9.0006585318387"><ele>279.0</ele><time>2026-04-11T10:57:11Z</time></trkpt><trkpt lat="44.85557979831862" lon="9.000575480918018"><ele>279.0</ele><time>2026-04-11T10:57:12Z</time></trkpt><trkpt lat="44.85549148463342" lon="9.000543455246882"><ele>279.0</ele><time>2026-04-11T10:57:13Z</time></trkpt><trkpt lat="44.85541690494184" lon="9.000522335900731"><ele>279.0</ele><time>2026-04-11T10:57:14Z</time></trkpt><trkpt lat="44.855347443955" lon="9.000540157490555"><ele>279.0</ele><time>2026-04-11T10:57:15Z</time></trkpt><trkpt lat="44.85529229016016" lon="9.000600262470488"><ele>279.0</ele><time>2026-04-11T10:57:16Z</time></trkpt><trkpt lat="44.855234424109995" lon="9.00069075811485"><ele>279.0</ele><time>2026-04-11T10:57:17Z</time></trkpt><trkpt lat="44.85519558687953" lon="9.000801549022212"><ele>277.0</ele><time>2026-04-11T10:57:18Z</time></trkpt><trkpt lat="44.85517697467416" lon="9.00091794274393"><ele>275.0</ele><time>2026-04-11T10:57:19Z</time></trkpt><trkpt lat="44.85518017698106" lon="9.001039283432167"><ele>273.0</ele><time>2026-04-11T10:57:20Z</time></trkpt><trkpt lat="44.855209937294" lon="9.001172560245445"><ele>271.0</ele><time>2026-04-11T10:57:21Z</time></trkpt><trkpt lat="44.85526263505829" lon="9.001296531742856"><ele>269.0</ele><time>2026-04-11T10:57:22Z</time></trkpt><trkpt lat="44.85533584262444" lon="9.001412836335584"><ele>269.0</ele><time>2026-04-11T10:57:23Z</time></trkpt><trkpt lat="44.85542278631624" lon="9.001512649260658"><ele>269.0</ele><time>2026-04-11T10:57:24Z</time></trkpt><trkpt lat="44.85549318690472" lon="9.001622337310035"><ele>269.0</ele><time>2026-04-11T10:57:25Z</time></trkpt><trkpt lat="44.85553335820269" lon="9.001753891251015"><ele>269.0</ele><time>2026-04-11T10:57:26Z</time></trkpt><trkpt lat="44.8555375432127" lon="9.001903038474374"><ele>269.0</ele><time>2026-04-11T10:57:27Z</time></trkpt><trkpt lat="44.855527038996236" lon="9.002081361664667"><ele>267.25</ele><time>2026-04-11T10:57:28Z</time></trkpt><trkpt lat="44.85552290384749" lon="9.00226199744981"><ele>265.5</ele><time>2026-04-11T10:57:29Z</time></trkpt><trkpt lat="44.85552242531209" lon="9.002436512210643"><ele>263.75</ele><time>2026-04-11T10:57:30Z</time></trkpt><trkpt lat="44.8555124733577" lon="9.002610610336955"><ele>262.0</ele><time>2026-04-11T10:57:31Z</time></trkpt><trkpt lat="44.855510708624955" lon="9.002781868989013"><ele>261.0</ele><time>2026-04-11T10:57:32Z</time></trkpt><trkpt lat="44.85551685705066" lon="9.002951437059187"><ele>260.0</ele><time>2026-04-11T10:57:33Z</time></trkpt><trkpt lat="44.85553478664708" lon="9.003107412696341"><ele>259.0</ele><time>2026-04-11T10:57:34Z</time></trkpt><trkpt lat="44.855563091072405" lon="9.00323751063501"><ele>258.0</ele><time>2026-04-11T10:57:35Z</time></trkpt><trkpt lat="44.85560393216609" lon="9.003361114514977"><ele>257.0</ele><time>2026-04-11T10:57:36Z</time></trkpt><trkpt lat="44.85566264258038" lon="9.003471851506951"><ele>257.6</ele><time>2026-04-11T10:57:37Z</time></trkpt><trkpt lat="44.85573804425876" lon="9.003561710498438"><ele>258.2</ele><time>2026-04-11T10:57:38Z</time></trkpt><trkpt lat="44.85582124441279" lon="9.003626287194832"><ele>258.8</ele><time>2026-04-11T10:57:39Z</time></trkpt><trkpt lat="44.85589864229474" lon="9.003679379907433"><ele>259.4</ele><time>2026-04-11T10:57:40Z</time></trkpt><trkpt lat="44.85595267807386" lon="9.003736351921079"><ele>260.0</ele><time>2026-04-11T10:57:41Z</time></trkpt><trkpt lat="44.8559647206213" lon="9.003883676691292"><ele>257.8</ele><time>2026-04-11T10:57:43Z</time></trkpt><trkpt lat="44.855858571308374" lon="9.003888356589053"><ele>255.6</ele><time>2026-04-11T10:57:45Z</time></trkpt><trkpt lat="44.85575017431508" lon="9.003771809122265"><ele>253.39999999999998</ele><time>2026-04-11T10:57:47Z</time></trkpt><trkpt lat="44.855665445877335" lon="9.00371010352146"><ele>251.2</ele><time>2026-04-11T10:57:48Z</time></trkpt><trkpt lat="44.85559374381919" lon="9.00363662189544"><ele>249.0</ele><time>2026-04-11T10:57:49Z</time></trkpt><trkpt lat="44.85551953206791" lon="9.00356874041338"><ele>249.0</ele><time>2026-04-11T10:57:50Z</time></trkpt><trkpt lat="44.855442436668554" lon="9.00351207746291"><ele>249.0</ele><time>2026-04-11T10:57:51Z</time></trkpt><trkpt lat="44.85535857080664" lon="9.003482974056187"><ele>249.0</ele><time>2026-04-11T10:57:52Z</time></trkpt><trkpt lat="44.85527633001565" lon="9.003493933446757"><ele>249.0</ele><time>2026-04-11T10:57:53Z</time></trkpt><trkpt lat="44.855202349930174" lon="9.003539896183444"><ele>249.0</ele><time>2026-04-11T10:57:54Z</time></trkpt><trkpt lat="44.85514442934401" lon="9.003605663737472"><ele>249.0</ele><time>2026-04-11T10:57:55Z</time></trkpt><trkpt lat="44.855109392481054" lon="9.003686452452659"><ele>249.0</ele><time>2026-04-11T10:57:56Z</time></trkpt><trkpt lat="44.85509971138184" lon="9.00377734179376"><ele>248.99999999999997</ele><time>2026-04-11T10:57:57Z</time></trkpt><trkpt lat="44.855113232735086" lon="9.003866309031482"><ele>249.0</ele><time>2026-04-11T10:57:58Z</time></trkpt><trkpt lat="44.85514067368753" lon="9.003946437755552"><ele>249.0</ele><time>2026-04-11T10:57:59Z</time></trkpt><trkpt lat="44.85518495902996" lon="9.004015119294621"><ele>248.99999999999997</ele><time>2026-04-11T10:58:00Z</time></trkpt><trkpt lat="44.85523911330483" lon="9.004080574735868"><ele>249.0</ele><time>2026-04-11T10:58:01Z</time></trkpt><trkpt lat="44.855301222566354" lon="9.004138708735722"><ele>249.0</ele><time>2026-04-11T10:58:02Z</time></trkpt><trkpt lat="44.85536693859184" lon="9.00420704430617"><ele>246.66666666666666</ele><time>2026-04-11T10:58:03Z</time></trkpt><trkpt lat="44.855427356948184" lon="9.004293674001762"><ele>244.33333333333331</ele><time>2026-04-11T10:58:04Z</time></trkpt><trkpt lat="44.855480656919674" lon="9.004391556730479"><ele>242.0</ele><time>2026-04-11T10:58:05Z</time></trkpt><trkpt lat="44.85552577639251" lon="9.004488346902205"><ele>239.66666666666666</ele><time>2026-04-11T10:58:06Z</time></trkpt><trkpt lat="44.855567049484485" lon="9.004585380209324"><ele>237.33333333333331</ele><time>2026-04-11T10:58:07Z</time></trkpt><trkpt lat="44.8556076426246" lon="9.004682192719788"><ele>235.0</ele><time>2026-04-11T10:58:08Z</time></trkpt><trkpt lat="44.85564473357145" lon="9.004777946628355"><ele>234.99999999999997</ele><time>2026-04-11T10:58:09Z</time></trkpt><trkpt lat="44.85568162612945" lon="9.004869462654497"><ele>235.0</ele><time>2026-04-11T10:58:10Z</time></trkpt><trkpt lat="44.85572358809284" lon="9.004951429191362"><ele>235.0</ele><time>2026-04-11T10:58:11Z</time></trkpt><trkpt lat="44.85576948544523" lon="9.005031051034544"><ele>235.0</ele><time>2026-04-11T10:58:12Z</time></trkpt><trkpt lat="44.855805568871844" lon="9.005113243769888"><ele>234.99999999999997</ele><time>2026-04-11T10:58:13Z</time></trkpt><trkpt lat="44.85585271622545" lon="9.005260260289784"><ele>235.0</ele><time>2026-04-11T10:58:15Z</time></trkpt><trkpt lat="44.85587432784683" lon="9.005352317093374"><ele>233.0</ele><time>2026-04-11T10:58:19Z</time></trkpt><trkpt lat="44.85573055291993" lon="9.005423942797186"><ele>231.0</ele><time>2026-04-11T10:58:21Z</time></trkpt><trkpt lat="44.85564012131207" lon="9.005449066982184"><ele>229.0</ele><time>2026-04-11T10:58:22Z</time></trkpt><trkpt lat="44.85555116462053" lon="9.005494412187327"><ele>227.0</ele><time>2026-04-11T10:58:23Z</time></trkpt><trkpt lat="44.85542992958771" lon="9.005548629766515"><ele>227.0</ele><time>2026-04-11T10:58:24Z</time></trkpt><trkpt lat="44.855270769927635" lon="9.005619239929555"><ele>227.0</ele><time>2026-04-11T10:58:25Z</time></trkpt><trkpt lat="44.85508528500363" lon="9.005709146506684"><ele>227.0</ele><time>2026-04-11T10:58:26Z</time></trkpt><trkpt lat="44.854910619241515" lon="9.005790606464872"><ele>227.0</ele><time>2026-04-11T10:58:27Z</time></trkpt><trkpt lat="44.85472905600003" lon="9.005871875229193"><ele>227.0</ele><time>2026-04-11T10:58:28Z</time></trkpt><trkpt lat="44.854544805508375" lon="9.005956576975631"><ele>227.0</ele><time>2026-04-11T10:58:29Z</time></trkpt><trkpt lat="44.8543580698711" lon="9.00604156552957"><ele>227.0</ele><time>2026-04-11T10:58:30Z</time></trkpt><trkpt lat="44.854182544498684" lon="9.006123626581475"><ele>227.0</ele><time>2026-04-11T10:58:31Z</time></trkpt><trkpt lat="44.85401910005645" lon="9.006199026343452"><ele>227.0</ele><time>2026-04-11T10:58:32Z</time></trkpt><trkpt lat="44.853853671949594" lon="9.00627958545119"><ele>227.0</ele><time>2026-04-11T10:58:33Z</time></trkpt><trkpt lat="44.853700591667895" lon="9.006349668455956"><ele>227.0</ele><time>2026-04-11T10:58:34Z</time></trkpt><trkpt lat="44.85348527956447" lon="9.006451002453385"><ele>227.0</ele><time>2026-04-11T10:58:35Z</time></trkpt><trkpt lat="44.8532814991005" lon="9.006546506944632"><ele>226.0</ele><time>2026-04-11T10:58:36Z</time></trkpt><trkpt lat="44.85306462237418" lon="9.006648000112929"><ele>225.0</ele><time>2026-04-11T10:58:37Z</time></trkpt><trkpt lat="44.852833061596726" lon="9.006759992050428"><ele>227.5</ele><time>2026-04-11T10:58:38Z</time></trkpt><trkpt lat="44.852607612276174" lon="9.006866382242022"><ele>230.0</ele><time>2026-04-11T10:58:39Z</time></trkpt><trkpt lat="44.8523803601014" lon="9.00696779138957"><ele>230.0</ele><time>2026-04-11T10:58:40Z</time></trkpt><trkpt lat="44.85217920861861" lon="9.0070568832357"><ele>230.0</ele><time>2026-04-11T10:58:41Z</time></trkpt><trkpt lat="44.85198334391166" lon="9.007148512762873"><ele>230.0</ele><time>2026-04-11T10:58:42Z</time></trkpt><trkpt lat="44.85179031659301" lon="9.007241558316835"><ele>231.33333333333334</ele><time>2026-04-11T10:58:43Z</time></trkpt><trkpt lat="44.851608825401875" lon="9.00732892068486"><ele>232.66666666666669</ele><time>2026-04-11T10:58:44Z</time></trkpt><trkpt lat="44.85143798843042" lon="9.007406388102245"><ele>234.0</ele><time>2026-04-11T10:58:45Z</time></trkpt><trkpt lat="44.85126628365627" lon="9.007486995090657"><ele>232.66666666666669</ele><time>2026-04-11T10:58:46Z</time></trkpt><trkpt lat="44.85109532609683" lon="9.00757305726117"><ele>231.33333333333334</ele><time>2026-04-11T10:58:47Z</time></trkpt><trkpt lat="44.8509187859371" lon="9.007658846423638"><ele>230.0</ele><time>2026-04-11T10:58:48Z</time></trkpt><trkpt lat="44.85073411531215" lon="9.00776202942049"><ele>230.0</ele><time>2026-04-11T10:58:49Z</time></trkpt><trkpt lat="44.85054337727931" lon="9.007898644679193"><ele>230.0</ele><time>2026-04-11T10:58:50Z</time></trkpt><trkpt lat="44.85035785866187" lon="9.008061675938174"><ele>230.0</ele><time>2026-04-11T10:58:51Z</time></trkpt><trkpt lat="44.85018481715029" lon="9.008235325441468"><ele>230.0</ele><time>2026-04-11T10:58:52Z</time></trkpt><trkpt lat="44.85002139916541" lon="9.008423220138745"><ele>230.0</ele><time>2026-04-11T10:58:53Z</time></trkpt><trkpt lat="44.84985222433325" lon="9.008635799596284"><ele>230.0</ele><time>2026-04-11T10:58:54Z</time></trkpt><trkpt lat="44.8496862327025" lon="9.008843263047694"><ele>230.0</ele><time>2026-04-11T10:58:55Z</time></trkpt><trkpt lat="44.84952318244458" lon="9.009038179573439"><ele>230.0</ele><time>2026-04-11T10:58:56Z</time></trkpt><trkpt lat="44.849353423261434" lon="9.00923447996361"><ele>230.0</ele><time>2026-04-11T10:58:57Z</time></trkpt><trkpt lat="44.849194230393735" lon="9.009420550978495"><ele>230.0</ele><time>2026-04-11T10:58:58Z</time></trkpt><trkpt lat="44.84903137687007" lon="9.009608225484794"><ele>230.0</ele><time>2026-04-11T10:58:59Z</time></trkpt><trkpt lat="44.84887565232387" lon="9.009790135148618"><ele>230.0</ele><time>2026-04-11T10:59:00Z</time></trkpt><trkpt lat="44.84873187959851" lon="9.009949761768063"><ele>230.0</ele><time>2026-04-11T10:59:01Z</time></trkpt><trkpt lat="44.848595956430856" lon="9.010102479219968"><ele>230.0</ele><time>2026-04-11T10:59:02Z</time></trkpt><trkpt lat="44.848461366292874" lon="9.010255640719116"><ele>230.0</ele><time>2026-04-11T10:59:03Z</time></trkpt><trkpt lat="44.8483231268493" lon="9.010413515423291"><ele>231.0</ele><time>2026-04-11T10:59:04Z</time></trkpt><trkpt lat="44.84817395946075" lon="9.01058200208997"><ele>232.0</ele><time>2026-04-11T10:59:05Z</time></trkpt><trkpt lat="44.848014934777844" lon="9.010764655898905"><ele>233.0</ele><time>2026-04-11T10:59:06Z</time></trkpt><trkpt lat="44.847847267839526" lon="9.010957084094908"><ele>233.0</ele><time>2026-04-11T10:59:07Z</time></trkpt><trkpt lat="44.847694027436866" lon="9.011129549632395"><ele>233.0</ele><time>2026-04-11T10:59:08Z</time></trkpt><trkpt lat="44.84755141997885" lon="9.011283905473832"><ele>233.0</ele><time>2026-04-11T10:59:09Z</time></trkpt><trkpt lat="44.84741026613979" lon="9.01143252468783"><ele>233.33333333333334</ele><time>2026-04-11T10:59:10Z</time></trkpt><trkpt lat="44.84726904973224" lon="9.011575306905126"><ele>233.66666666666669</ele><time>2026-04-11T10:59:11Z</time></trkpt><trkpt lat="44.84712086192808" lon="9.011713523942513"><ele>234.0</ele><time>2026-04-11T10:59:12Z</time></trkpt><trkpt lat="44.84696872388644" lon="9.011849494539668"><ele>234.66666666666669</ele><time>2026-04-11T10:59:13Z</time></trkpt><trkpt lat="44.8468112473512" lon="9.011979880664017"><ele>235.33333333333334</ele><time>2026-04-11T10:59:14Z</time></trkpt><trkpt lat="44.846655170277494" lon="9.012107211129308"><ele>236.0</ele><time>2026-04-11T10:59:15Z</time></trkpt><trkpt lat="44.84650601712247" lon="9.012231100890059"><ele>236.33333333333334</ele><time>2026-04-11T10:59:16Z</time></trkpt><trkpt lat="44.84637024688071" lon="9.012350268996125"><ele>236.66666666666669</ele><time>2026-04-11T10:59:17Z</time></trkpt><trkpt lat="44.84624092718348" lon="9.012465734275303"><ele>237.0</ele><time>2026-04-11T10:59:18Z</time></trkpt><trkpt lat="44.84611300756798" lon="9.01259322353409"><ele>237.0</ele><time>2026-04-11T10:59:19Z</time></trkpt><trkpt lat="44.84599388910768" lon="9.012743111149456"><ele>237.0</ele><time>2026-04-11T10:59:20Z</time></trkpt><trkpt lat="44.845888523137944" lon="9.012913342853045"><ele>237.0</ele><time>2026-04-11T10:59:21Z</time></trkpt><trkpt lat="44.84579786547373" lon="9.013105264387807"><ele>237.0</ele><time>2026-04-11T10:59:22Z</time></trkpt><trkpt lat="44.845705341012824" lon="9.013302897830037"><ele>237.0</ele><time>2026-04-11T10:59:23Z</time></trkpt><trkpt lat="44.845611340819524" lon="9.013492610731381"><ele>237.0</ele><time>2026-04-11T10:59:24Z</time></trkpt><trkpt lat="44.8455119824556" lon="9.013665609048521"><ele>237.0</ele><time>2026-04-11T10:59:25Z</time></trkpt><trkpt lat="44.845403613965246" lon="9.013829158459036"><ele>237.0</ele><time>2026-04-11T10:59:26Z</time></trkpt><trkpt lat="44.845279330642214" lon="9.01398296262227"><ele>237.0</ele><time>2026-04-11T10:59:27Z</time></trkpt><trkpt lat="44.84514433884952" lon="9.014126012147686"><ele>238.33333333333331</ele><time>2026-04-11T10:59:28Z</time></trkpt><trkpt lat="44.84499820020769" lon="9.014248483073493"><ele>239.66666666666666</ele><time>2026-04-11T10:59:29Z</time></trkpt><trkpt lat="44.84484734747977" lon="9.014362029526518"><ele>241.0</ele><time>2026-04-11T10:59:30Z</time></trkpt><trkpt lat="44.84469114499026" lon="9.014474193507322"><ele>241.0</ele><time>2026-04-11T10:59:31Z</time></trkpt><trkpt lat="44.84453340126127" lon="9.01459530069714"><ele>241.0</ele><time>2026-04-11T10:59:32Z</time></trkpt><trkpt lat="44.844386291963296" lon="9.014716036896694"><ele>241.0</ele><time>2026-04-11T10:59:33Z</time></trkpt><trkpt lat="44.84424375328212" lon="9.014830236988747"><ele>240.66666666666666</ele><time>2026-04-11T10:59:34Z</time></trkpt><trkpt lat="44.84409635993709" lon="9.014947687045808"><ele>240.33333333333331</ele><time>2026-04-11T10:59:35Z</time></trkpt><trkpt lat="44.84393942054682" lon="9.015084258502608"><ele>240.0</ele><time>2026-04-11T10:59:36Z</time></trkpt><trkpt lat="44.8437837542698" lon="9.015240352318617"><ele>240.0</ele><time>2026-04-11T10:59:37Z</time></trkpt><trkpt lat="44.84362657159054" lon="9.015415001035501"><ele>240.0</ele><time>2026-04-11T10:59:38Z</time></trkpt><trkpt lat="44.84347059899291" lon="9.01560204973775"><ele>240.0</ele><time>2026-04-11T10:59:39Z</time></trkpt><trkpt lat="44.84332857740285" lon="9.015779677603742"><ele>241.0</ele><time>2026-04-11T10:59:40Z</time></trkpt><trkpt lat="44.843195183619926" lon="9.015943704205197"><ele>242.0</ele><time>2026-04-11T10:59:41Z</time></trkpt><trkpt lat="44.843064607742555" lon="9.01610998816301"><ele>243.0</ele><time>2026-04-11T10:59:42Z</time></trkpt><trkpt lat="44.8429333575292" lon="9.016278883534563"><ele>243.0</ele><time>2026-04-11T10:59:43Z</time></trkpt><trkpt lat="44.842799811716425" lon="9.01644097720516"><ele>243.0</ele><time>2026-04-11T10:59:44Z</time></trkpt><trkpt lat="44.84267035005176" lon="9.016597085290003"><ele>243.0</ele><time>2026-04-11T10:59:45Z</time></trkpt><trkpt lat="44.84255527932752" lon="9.016748322745984"><ele>242.66666666666669</ele><time>2026-04-11T10:59:46Z</time></trkpt><trkpt lat="44.842451919957846" lon="9.016916251443863"><ele>242.33333333333334</ele><time>2026-04-11T10:59:47Z</time></trkpt><trkpt lat="44.84235321143498" lon="9.01711716742037"><ele>242.0</ele><time>2026-04-11T10:59:48Z</time></trkpt><trkpt lat="44.842266133576004" lon="9.017345875838268"><ele>239.0</ele><time>2026-04-11T10:59:49Z</time></trkpt><trkpt lat="44.84219332389837" lon="9.01759186313401"><ele>236.0</ele><time>2026-04-11T10:59:50Z</time></trkpt><trkpt lat="44.84214189861606" lon="9.017841611152672"><ele>233.0</ele><time>2026-04-11T10:59:51Z</time></trkpt><trkpt lat="44.84210980153308" lon="9.018083751396986"><ele>233.0</ele><time>2026-04-11T10:59:52Z</time></trkpt><trkpt lat="44.84209050785866" lon="9.018319039989803"><ele>233.0</ele><time>2026-04-11T10:59:53Z</time></trkpt><trkpt lat="44.84207377582817" lon="9.018561473216748"><ele>233.0</ele><time>2026-04-11T10:59:54Z</time></trkpt><trkpt lat="44.84205985551133" lon="9.018811528290076"><ele>233.0</ele><time>2026-04-11T10:59:55Z</time></trkpt><trkpt lat="44.84204414126601" lon="9.019058892344372"><ele>233.0</ele><time>2026-04-11T10:59:56Z</time></trkpt><trkpt lat="44.842010432745354" lon="9.019303493396407"><ele>233.0</ele><time>2026-04-11T10:59:57Z</time></trkpt><trkpt lat="44.84195516307128" lon="9.019545726508973"><ele>233.33333333333334</ele><time>2026-04-11T10:59:58Z</time></trkpt><trkpt lat="44.84188001175301" lon="9.019775322500305"><ele>233.66666666666669</ele><time>2026-04-11T10:59:59Z</time></trkpt><trkpt lat="44.84178840203819" lon="9.019985667872968"><ele>234.0</ele><time>2026-04-11T11:00:00Z</time></trkpt><trkpt lat="44.84168204925663" lon="9.020197004438263"><ele>235.66666666666669</ele><time>2026-04-11T11:00:01Z</time></trkpt><trkpt lat="44.84154160757564" lon="9.020412307598798"><ele>237.33333333333334</ele><time>2026-04-11T11:00:02Z</time></trkpt><trkpt lat="44.84138530626506" lon="9.020653191328307"><ele>239.0</ele><time>2026-04-11T11:00:03Z</time></trkpt><trkpt lat="44.84121579681845" lon="9.02091064824351"><ele>239.0</ele><time>2026-04-11T11:00:04Z</time></trkpt><trkpt lat="44.84104265470875" lon="9.02119854349068"><ele>239.0</ele><time>2026-04-11T11:00:05Z</time></trkpt><trkpt lat="44.84084780173728" lon="9.021493794732315"><ele>240.0</ele><time>2026-04-11T11:00:06Z</time></trkpt><trkpt lat="44.84064938870839" lon="9.021796165993585"><ele>241.0</ele><time>2026-04-11T11:00:07Z</time></trkpt><trkpt lat="44.84045246698845" lon="9.022087019139391"><ele>241.0</ele><time>2026-04-11T11:00:08Z</time></trkpt><trkpt lat="44.84026970691738" lon="9.022343489961003"><ele>241.0</ele><time>2026-04-11T11:00:09Z</time></trkpt><trkpt lat="44.84008986150379" lon="9.02257829288233"><ele>243.5</ele><time>2026-04-11T11:00:10Z</time></trkpt><trkpt lat="44.83989613771" lon="9.022779737903518"><ele>246.0</ele><time>2026-04-11T11:00:11Z</time></trkpt><trkpt lat="44.83968008436806" lon="9.022952033936765"><ele>246.0</ele><time>2026-04-11T11:00:12Z</time></trkpt><trkpt lat="44.83944915079671" lon="9.023100176017383"><ele>246.0</ele><time>2026-04-11T11:00:13Z</time></trkpt><trkpt lat="44.83920678660239" lon="9.023240632020824"><ele>247.5</ele><time>2026-04-11T11:00:14Z</time></trkpt><trkpt lat="44.838952704623765" lon="9.0233825005288"><ele>249.0</ele><time>2026-04-11T11:00:15Z</time></trkpt><trkpt lat="44.838696759858976" lon="9.023537159683828"><ele>251.5</ele><time>2026-04-11T11:00:16Z</time></trkpt><trkpt lat="44.83843953519375" lon="9.023699112113082"><ele>254.0</ele><time>2026-04-11T11:00:17Z</time></trkpt><trkpt lat="44.838176350534994" lon="9.02386250477097"><ele>254.0</ele><time>2026-04-11T11:00:18Z</time></trkpt><trkpt lat="44.8379125502379" lon="9.024023499756398"><ele>254.0</ele><time>2026-04-11T11:00:19Z</time></trkpt><trkpt lat="44.83764919970918" lon="9.024184282791056"><ele>253.0</ele><time>2026-04-11T11:00:20Z</time></trkpt><trkpt lat="44.837389396606476" lon="9.024347032172999"><ele>252.0</ele><time>2026-04-11T11:00:21Z</time></trkpt><trkpt lat="44.83714161596457" lon="9.024505201074296"><ele>252.0</ele><time>2026-04-11T11:00:22Z</time></trkpt><trkpt lat="44.83691326954416" lon="9.024651470650767"><ele>252.0</ele><time>2026-04-11T11:00:23Z</time></trkpt><trkpt lat="44.83670211023966" lon="9.024792770786943"><ele>253.5</ele><time>2026-04-11T11:00:24Z</time></trkpt><trkpt lat="44.8365080988967" lon="9.024952630144709"><ele>255.0</ele><time>2026-04-11T11:00:25Z</time></trkpt><trkpt lat="44.83632511228261" lon="9.025141862885341"><ele>255.0</ele><time>2026-04-11T11:00:26Z</time></trkpt><trkpt lat="44.836154738914594" lon="9.025362084822676"><ele>255.0</ele><time>2026-04-11T11:00:27Z</time></trkpt><trkpt lat="44.835994045000014" lon="9.025590404660212"><ele>255.5</ele><time>2026-04-11T11:00:28Z</time></trkpt><trkpt lat="44.83582650877466" lon="9.025806472213329"><ele>256.0</ele><time>2026-04-11T11:00:29Z</time></trkpt><trkpt lat="44.83564787269911" lon="9.026005777900368"><ele>256.0</ele><time>2026-04-11T11:00:30Z</time></trkpt><trkpt lat="44.835459103444215" lon="9.026184056587855"><ele>256.0</ele><time>2026-04-11T11:00:31Z</time></trkpt><trkpt lat="44.83525185904081" lon="9.02633091678243"><ele>258.0</ele><time>2026-04-11T11:00:32Z</time></trkpt><trkpt lat="44.83502524629903" lon="9.026465088880299"><ele>260.0</ele><time>2026-04-11T11:00:33Z</time></trkpt><trkpt lat="44.8347855740528" lon="9.026585785515493"><ele>259.0</ele><time>2026-04-11T11:00:34Z</time></trkpt><trkpt lat="44.83453004847178" lon="9.026706618974131"><ele>258.0</ele><time>2026-04-11T11:00:35Z</time></trkpt><trkpt lat="44.83426340143323" lon="9.026836396329077"><ele>260.5</ele><time>2026-04-11T11:00:36Z</time></trkpt><trkpt lat="44.833986647167706" lon="9.026974900265882"><ele>263.0</ele><time>2026-04-11T11:00:37Z</time></trkpt><trkpt lat="44.833699045186286" lon="9.02711469473025"><ele>263.0</ele><time>2026-04-11T11:00:38Z</time></trkpt><trkpt lat="44.833403182124535" lon="9.027258997491169"><ele>263.0</ele><time>2026-04-11T11:00:39Z</time></trkpt><trkpt lat="44.83309903924315" lon="9.02741173825321"><ele>262.5</ele><time>2026-04-11T11:00:40Z</time></trkpt><trkpt lat="44.83278695169763" lon="9.02756948386924"><ele>262.0</ele><time>2026-04-11T11:00:41Z</time></trkpt><trkpt lat="44.832466692846474" lon="9.027730435368696"><ele>262.0</ele><time>2026-04-11T11:00:42Z</time></trkpt><trkpt lat="44.832142078657" lon="9.027891205764154"><ele>262.0</ele><time>2026-04-11T11:00:43Z</time></trkpt><trkpt lat="44.83181267949221" lon="9.028053299532846"><ele>262.0</ele><time>2026-04-11T11:00:44Z</time></trkpt><trkpt lat="44.83149473284431" lon="9.028207021223118"><ele>262.0</ele><time>2026-04-11T11:00:45Z</time></trkpt><trkpt lat="44.831199047447136" lon="9.028347876600066"><ele>262.5</ele><time>2026-04-11T11:00:46Z</time></trkpt><trkpt lat="44.830926854829364" lon="9.02847877254907"><ele>263.0</ele><time>2026-04-11T11:00:47Z</time></trkpt><trkpt lat="44.83066944741302" lon="9.02860722764763"><ele>263.0</ele><time>2026-04-11T11:00:48Z</time></trkpt><trkpt lat="44.830422053907604" lon="9.028732125138209"><ele>263.0</ele><time>2026-04-11T11:00:49Z</time></trkpt><trkpt lat="44.83017703272248" lon="9.028860154497652"><ele>263.5</ele><time>2026-04-11T11:00:50Z</time></trkpt><trkpt lat="44.829938044074" lon="9.02899662382373"><ele>264.0</ele><time>2026-04-11T11:00:51Z</time></trkpt><trkpt lat="44.82970712290983" lon="9.029155235514311"><ele>264.0</ele><time>2026-04-11T11:00:52Z</time></trkpt><trkpt lat="44.82947765029322" lon="9.02933897512412"><ele>264.0</ele><time>2026-04-11T11:00:53Z</time></trkpt><trkpt lat="44.82924778714407" lon="9.029548651933103"><ele>265.5</ele><time>2026-04-11T11:00:54Z</time></trkpt><trkpt lat="44.82901888066142" lon="9.029781784673277"><ele>267.0</ele><time>2026-04-11T11:00:55Z</time></trkpt><trkpt lat="44.82880117994174" lon="9.03001420266739"><ele>267.0</ele><time>2026-04-11T11:00:56Z</time></trkpt><trkpt lat="44.828606590783984" lon="9.03022483875119"><ele>267.0</ele><time>2026-04-11T11:00:57Z</time></trkpt><trkpt lat="44.828423501863014" lon="9.030421405568445"><ele>268.0</ele><time>2026-04-11T11:00:58Z</time></trkpt><trkpt lat="44.82825360743587" lon="9.030600288293497"><ele>269.0</ele><time>2026-04-11T11:00:59Z</time></trkpt><trkpt lat="44.828091367170636" lon="9.03077553559989"><ele>270.0</ele><time>2026-04-11T11:01:00Z</time></trkpt><trkpt lat="44.82793757726588" lon="9.030939930029493"><ele>270.0</ele><time>2026-04-11T11:01:01Z</time></trkpt><trkpt lat="44.82779185132833" lon="9.031095046484268"><ele>270.0</ele><time>2026-04-11T11:01:02Z</time></trkpt><trkpt lat="44.8276521732845" lon="9.031241225084433"><ele>270.0</ele><time>2026-04-11T11:01:03Z</time></trkpt><trkpt lat="44.82751843447418" lon="9.03137866961972"><ele>269.75</ele><time>2026-04-11T11:01:04Z</time></trkpt><trkpt lat="44.82739797877769" lon="9.031508425418831"><ele>269.5</ele><time>2026-04-11T11:01:05Z</time></trkpt><trkpt lat="44.82728129481322" lon="9.031633949170924"><ele>269.25</ele><time>2026-04-11T11:01:06Z</time></trkpt><trkpt lat="44.82717749902692" lon="9.031744889703498"><ele>269.0</ele><time>2026-04-11T11:01:07Z</time></trkpt><trkpt lat="44.82709059839417" lon="9.031838558846447"><ele>269.0</ele><time>2026-04-11T11:01:08Z</time></trkpt><trkpt lat="44.827029305594344" lon="9.031899042961403"><ele>269.0</ele><time>2026-04-11T11:01:09Z</time></trkpt><trkpt lat="44.82696644035836" lon="9.031991699640999"><ele>269.0</ele><time>2026-04-11T11:01:11Z</time></trkpt><trkpt lat="44.82697794284191" lon="9.032086942217198"><ele>269.0</ele><time>2026-04-11T11:01:13Z</time></trkpt><trkpt lat="44.827062100599505" lon="9.032168770286692"><ele>269.0</ele><time>2026-04-11T11:01:15Z</time></trkpt><trkpt lat="44.8271729506638" lon="9.032250677019883"><ele>269.0</ele><time>2026-04-11T11:01:17Z</time></trkpt><trkpt lat="44.827234251082245" lon="9.032302019570007"><ele>269.0</ele><time>2026-04-11T11:01:18Z</time></trkpt><trkpt lat="44.82729612246435" lon="9.032363977518076"><ele>269.0</ele><time>2026-04-11T11:01:19Z</time></trkpt><trkpt lat="44.82736236738733" lon="9.032425583675769"><ele>269.0</ele><time>2026-04-11T11:01:20Z</time></trkpt><trkpt lat="44.82743247242992" lon="9.032487090628349"><ele>269.0</ele><time>2026-04-11T11:01:21Z</time></trkpt><trkpt lat="44.82749832034477" lon="9.032551017309467"><ele>269.0</ele><time>2026-04-11T11:01:22Z</time></trkpt><trkpt lat="44.827565173532534" lon="9.032618520871129"><ele>268.0</ele><time>2026-04-11T11:01:23Z</time></trkpt><trkpt lat="44.827652410822765" lon="9.032687414680398"><ele>267.0</ele><time>2026-04-11T11:01:24Z</time></trkpt><trkpt lat="44.8277545851604" lon="9.032773443209543"><ele>266.0</ele><time>2026-04-11T11:01:25Z</time></trkpt><trkpt lat="44.827847742729205" lon="9.032857836471015"><ele>265.0</ele><time>2026-04-11T11:01:26Z</time></trkpt><trkpt lat="44.827942712299865" lon="9.032944049344385"><ele>264.0</ele><time>2026-04-11T11:01:27Z</time></trkpt><trkpt lat="44.828035217826695" lon="9.033029425863143"><ele>264.0</ele><time>2026-04-11T11:01:28Z</time></trkpt><trkpt lat="44.82812700670142" lon="9.033112552450966"><ele>264.0</ele><time>2026-04-11T11:01:29Z</time></trkpt><trkpt lat="44.82821612356791" lon="9.033196077975528"><ele>264.0</ele><time>2026-04-11T11:01:30Z</time></trkpt><trkpt lat="44.8283016625187" lon="9.033282848078272"><ele>264.0</ele><time>2026-04-11T11:01:31Z</time></trkpt><trkpt lat="44.82838184226266" lon="9.03337246016023"><ele>264.0</ele><time>2026-04-11T11:01:32Z</time></trkpt><trkpt lat="44.82846018309257" lon="9.033462333514187"><ele>263.6666666666667</ele><time>2026-04-11T11:01:33Z</time></trkpt><trkpt lat="44.82853748003151" lon="9.033544631377124"><ele>263.3333333333333</ele><time>2026-04-11T11:01:34Z</time></trkpt><trkpt lat="44.828609802559384" lon="9.033624849866086"><ele>263.0</ele><time>2026-04-11T11:01:35Z</time></trkpt><trkpt lat="44.82867752067652" lon="9.033702517674792"><ele>262.66666666666663</ele><time>2026-04-11T11:01:36Z</time></trkpt><trkpt lat="44.8287394406798" lon="9.033778878312386"><ele>262.3333333333333</ele><time>2026-04-11T11:01:37Z</time></trkpt><trkpt lat="44.8287990785029" lon="9.03385156328874"><ele>262.0</ele><time>2026-04-11T11:01:38Z</time></trkpt><trkpt lat="44.82885653477591" lon="9.033922287046693"><ele>262.0</ele><time>2026-04-11T11:01:39Z</time></trkpt><trkpt lat="44.82890510801016" lon="9.033979535352795"><ele>262.0</ele><time>2026-04-11T11:01:40Z</time></trkpt><trkpt lat="44.82895561639755" lon="9.034077973161969"><ele>262.0</ele><time>2026-04-11T11:01:42Z</time></trkpt><trkpt lat="44.828931132371416" lon="9.034189339669021"><ele>262.0</ele><time>2026-04-11T11:01:44Z</time></trkpt><trkpt lat="44.82887864781238" lon="9.0342581914074"><ele>262.0</ele><time>2026-04-11T11:01:45Z</time></trkpt><trkpt lat="44.82882988574496" lon="9.034343298451196"><ele>262.0</ele><time>2026-04-11T11:01:46Z</time></trkpt><trkpt lat="44.82879447885635" lon="9.034446081147776"><ele>262.3333333333333</ele><time>2026-04-11T11:01:47Z</time></trkpt><trkpt lat="44.82875795598306" lon="9.034568093017336"><ele>262.66666666666663</ele><time>2026-04-11T11:01:48Z</time></trkpt><trkpt lat="44.828723628047335" lon="9.034696678705233"><ele>263.0</ele><time>2026-04-11T11:01:49Z</time></trkpt><trkpt lat="44.8286855217115" lon="9.034820212055237"><ele>263.3333333333333</ele><time>2026-04-11T11:01:50Z</time></trkpt><trkpt lat="44.828658254316984" lon="9.034937076979512"><ele>263.6666666666667</ele><time>2026-04-11T11:01:51Z</time></trkpt><trkpt lat="44.82864732723523" lon="9.035036607820134"><ele>264.0</ele><time>2026-04-11T11:01:52Z</time></trkpt><trkpt lat="44.8286371975879" lon="9.03520478276137"><ele>264.0</ele><time>2026-04-11T11:01:54Z</time></trkpt><trkpt lat="44.82862693059442" lon="9.03536194833682"><ele>264.0</ele><time>2026-04-11T11:01:56Z</time></trkpt><trkpt lat="44.82862706527539" lon="9.035505405074955"><ele>264.0</ele><time>2026-04-11T11:01:58Z</time></trkpt><trkpt lat="44.8286545022396" lon="9.0356294338383"><ele>264.0</ele><time>2026-04-11T11:02:00Z</time></trkpt><trkpt lat="44.828726951079595" lon="9.035720988273754"><ele>264.0</ele><time>2026-04-11T11:02:03Z</time></trkpt><trkpt lat="44.82883403033494" lon="9.035681786087906"><ele>264.0</ele><time>2026-04-11T11:02:05Z</time></trkpt><trkpt lat="44.82887895214046" lon="9.035618517249418"><ele>264.0</ele><time>2026-04-11T11:02:06Z</time></trkpt><trkpt lat="44.828949377389534" lon="9.03548088935475"><ele>264.0</ele><time>2026-04-11T11:02:08Z</time></trkpt><trkpt lat="44.82904086228454" lon="9.035390733616115"><ele>264.0</ele><time>2026-04-11T11:02:10Z</time></trkpt><trkpt lat="44.82907615480698" lon="9.03531685722804"><ele>264.0</ele><time>2026-04-11T11:02:12Z</time></trkpt><trkpt lat="44.82903741171784" lon="9.035086048268381"><ele>264.0</ele><time>2026-04-11T11:02:16Z</time></trkpt><trkpt lat="44.82905855737674" lon="9.03493634430531"><ele>265.0</ele><time>2026-04-11T11:02:18Z</time></trkpt><trkpt lat="44.829090042595425" lon="9.034850639334191"><ele>265.0</ele><time>2026-04-11T11:02:20Z</time></trkpt></trkseg></trk></gpx>